<?xml version="1.0" encoding="UTF-8" standalone="no" ?>
<gpx xmlns="http://www.topografix.com/GPX/1/1" xmlns:xsi="http://www.w3.org/2001/XMLSchema-instance" xsi:schemaLocation="http://www.topografix.com/GPX/1/1 http://www.topografix.com/GPX/1/1/gpx.xsd" version="1.1" creator="VisuGPX - https://www.visugpx.com">
  <metadata>
    <name>VTT 12 mai 2019</name>
    <desc><![CDATA[VTT 12 mai 2019]]></desc>
  </metadata>
  <trk>
    <name><![CDATA[2019-05-12 11:39:10]]></name>
    <trkseg>
      <trkpt lat="43.4405" lon="5.86298">
        <ele>347.65</ele>
        <time>2019-05-12T07:26:19Z</time>
      </trkpt>
      <trkpt lat="43.44053" lon="5.86298">
        <ele>348.13</ele>
        <time>2019-05-12T07:26:20Z</time>
      </trkpt>
      <trkpt lat="43.44055" lon="5.86297">
        <ele>348.13</ele>
        <time>2019-05-12T07:26:21Z</time>
      </trkpt>
      <trkpt lat="43.44058" lon="5.86295">
        <ele>348.13</ele>
        <time>2019-05-12T07:26:22Z</time>
      </trkpt>
      <trkpt lat="43.44141" lon="5.86263">
        <ele>347.17</ele>
        <time>2019-05-12T07:26:40Z</time>
      </trkpt>
      <trkpt lat="43.44235" lon="5.86227">
        <ele>345.73</ele>
        <time>2019-05-12T07:26:59Z</time>
      </trkpt>
      <trkpt lat="43.44318" lon="5.86191">
        <ele>345.73</ele>
        <time>2019-05-12T07:27:16Z</time>
      </trkpt>
      <trkpt lat="43.44367" lon="5.86139">
        <ele>343.33</ele>
        <time>2019-05-12T07:27:27Z</time>
      </trkpt>
      <trkpt lat="43.44371" lon="5.86133">
        <ele>343.33</ele>
        <time>2019-05-12T07:27:28Z</time>
      </trkpt>
      <trkpt lat="43.44399" lon="5.86053">
        <ele>339.96</ele>
        <time>2019-05-12T07:27:38Z</time>
      </trkpt>
      <trkpt lat="43.44425" lon="5.85966">
        <ele>337.56</ele>
        <time>2019-05-12T07:27:52Z</time>
      </trkpt>
      <trkpt lat="43.44434" lon="5.85961">
        <ele>337.56</ele>
        <time>2019-05-12T07:27:55Z</time>
      </trkpt>
      <trkpt lat="43.44439" lon="5.85962">
        <ele>337.08</ele>
        <time>2019-05-12T07:27:56Z</time>
      </trkpt>
      <trkpt lat="43.44512" lon="5.8599">
        <ele>334.68</ele>
        <time>2019-05-12T07:28:12Z</time>
      </trkpt>
      <trkpt lat="43.44563" lon="5.86008">
        <ele>333.23</ele>
        <time>2019-05-12T07:28:23Z</time>
      </trkpt>
      <trkpt lat="43.44568" lon="5.8601">
        <ele>333.23</ele>
        <time>2019-05-12T07:28:24Z</time>
      </trkpt>
      <trkpt lat="43.44607" lon="5.86022">
        <ele>332.27</ele>
        <time>2019-05-12T07:28:36Z</time>
      </trkpt>
      <trkpt lat="43.44625" lon="5.86028">
        <ele>330.83</ele>
        <time>2019-05-12T07:28:46Z</time>
      </trkpt>
      <trkpt lat="43.44637" lon="5.8604">
        <ele>329.87</ele>
        <time>2019-05-12T07:28:52Z</time>
      </trkpt>
      <trkpt lat="43.44639" lon="5.86041">
        <ele>329.87</ele>
        <time>2019-05-12T07:28:53Z</time>
      </trkpt>
      <trkpt lat="43.4464" lon="5.86041">
        <ele>329.39</ele>
        <time>2019-05-12T07:28:54Z</time>
      </trkpt>
      <trkpt lat="43.44644" lon="5.86037">
        <ele>329.39</ele>
        <time>2019-05-12T07:29:08Z</time>
      </trkpt>
      <trkpt lat="43.44646" lon="5.86036">
        <ele>329.39</ele>
        <time>2019-05-12T07:29:30Z</time>
      </trkpt>
      <trkpt lat="43.44646" lon="5.86035">
        <ele>329.39</ele>
        <time>2019-05-12T07:29:32Z</time>
      </trkpt>
      <trkpt lat="43.44647" lon="5.86032">
        <ele>329.39</ele>
        <time>2019-05-12T07:29:33Z</time>
      </trkpt>
      <trkpt lat="43.44647" lon="5.86028">
        <ele>329.39</ele>
        <time>2019-05-12T07:29:34Z</time>
      </trkpt>
      <trkpt lat="43.44652" lon="5.86003">
        <ele>330.83</ele>
        <time>2019-05-12T07:29:41Z</time>
      </trkpt>
      <trkpt lat="43.44651" lon="5.86">
        <ele>330.83</ele>
        <time>2019-05-12T07:29:42Z</time>
      </trkpt>
      <trkpt lat="43.44651" lon="5.85997">
        <ele>330.83</ele>
        <time>2019-05-12T07:29:43Z</time>
      </trkpt>
      <trkpt lat="43.44651" lon="5.85995">
        <ele>330.35</ele>
        <time>2019-05-12T07:29:44Z</time>
      </trkpt>
      <trkpt lat="43.44664" lon="5.85974">
        <ele>330.35</ele>
        <time>2019-05-12T07:29:59Z</time>
      </trkpt>
      <trkpt lat="43.44667" lon="5.85971">
        <ele>330.35</ele>
        <time>2019-05-12T07:30:01Z</time>
      </trkpt>
      <trkpt lat="43.44669" lon="5.85969">
        <ele>330.83</ele>
        <time>2019-05-12T07:30:03Z</time>
      </trkpt>
      <trkpt lat="43.4467" lon="5.85967">
        <ele>330.83</ele>
        <time>2019-05-12T07:30:04Z</time>
      </trkpt>
      <trkpt lat="43.4467" lon="5.85966">
        <ele>330.83</ele>
        <time>2019-05-12T07:30:05Z</time>
      </trkpt>
      <trkpt lat="43.44671" lon="5.85966">
        <ele>331.31</ele>
        <time>2019-05-12T07:30:16Z</time>
      </trkpt>
      <trkpt lat="43.4467" lon="5.8597">
        <ele>330.83</ele>
        <time>2019-05-12T07:30:38Z</time>
      </trkpt>
      <trkpt lat="43.44669" lon="5.85973">
        <ele>330.83</ele>
        <time>2019-05-12T07:30:40Z</time>
      </trkpt>
      <trkpt lat="43.44666" lon="5.85973">
        <ele>329.87</ele>
        <time>2019-05-12T07:30:44Z</time>
      </trkpt>
      <trkpt lat="43.4466" lon="5.85975">
        <ele>329.87</ele>
        <time>2019-05-12T07:30:55Z</time>
      </trkpt>
      <trkpt lat="43.44659" lon="5.85979">
        <ele>329.87</ele>
        <time>2019-05-12T07:31:11Z</time>
      </trkpt>
      <trkpt lat="43.44659" lon="5.85985">
        <ele>329.39</ele>
        <time>2019-05-12T07:31:26Z</time>
      </trkpt>
      <trkpt lat="43.44659" lon="5.85986">
        <ele>329.39</ele>
        <time>2019-05-12T07:31:27Z</time>
      </trkpt>
      <trkpt lat="43.44655" lon="5.85997">
        <ele>329.39</ele>
        <time>2019-05-12T07:31:33Z</time>
      </trkpt>
      <trkpt lat="43.44655" lon="5.85999">
        <ele>329.39</ele>
        <time>2019-05-12T07:31:34Z</time>
      </trkpt>
      <trkpt lat="43.44655" lon="5.86001">
        <ele>329.39</ele>
        <time>2019-05-12T07:31:35Z</time>
      </trkpt>
      <trkpt lat="43.44653" lon="5.86008">
        <ele>329.39</ele>
        <time>2019-05-12T07:31:46Z</time>
      </trkpt>
      <trkpt lat="43.44651" lon="5.86024">
        <ele>329.39</ele>
        <time>2019-05-12T07:31:50Z</time>
      </trkpt>
      <trkpt lat="43.44653" lon="5.86028">
        <ele>329.39</ele>
        <time>2019-05-12T07:31:51Z</time>
      </trkpt>
      <trkpt lat="43.44657" lon="5.86031">
        <ele>329.39</ele>
        <time>2019-05-12T07:31:52Z</time>
      </trkpt>
      <trkpt lat="43.44664" lon="5.86037">
        <ele>329.39</ele>
        <time>2019-05-12T07:31:54Z</time>
      </trkpt>
      <trkpt lat="43.44735" lon="5.8606">
        <ele>326.5</ele>
        <time>2019-05-12T07:32:10Z</time>
      </trkpt>
      <trkpt lat="43.44806" lon="5.86076">
        <ele>325.06</ele>
        <time>2019-05-12T07:32:24Z</time>
      </trkpt>
      <trkpt lat="43.44812" lon="5.86077">
        <ele>324.58</ele>
        <time>2019-05-12T07:32:25Z</time>
      </trkpt>
      <trkpt lat="43.44817" lon="5.86078">
        <ele>324.58</ele>
        <time>2019-05-12T07:32:26Z</time>
      </trkpt>
      <trkpt lat="43.44821" lon="5.86083">
        <ele>324.58</ele>
        <time>2019-05-12T07:32:27Z</time>
      </trkpt>
      <trkpt lat="43.44824" lon="5.86089">
        <ele>324.58</ele>
        <time>2019-05-12T07:32:28Z</time>
      </trkpt>
      <trkpt lat="43.44826" lon="5.86097">
        <ele>324.58</ele>
        <time>2019-05-12T07:32:29Z</time>
      </trkpt>
      <trkpt lat="43.44827" lon="5.86104">
        <ele>324.58</ele>
        <time>2019-05-12T07:32:30Z</time>
      </trkpt>
      <trkpt lat="43.4483" lon="5.86117">
        <ele>324.58</ele>
        <time>2019-05-12T07:32:32Z</time>
      </trkpt>
      <trkpt lat="43.44833" lon="5.86122">
        <ele>324.58</ele>
        <time>2019-05-12T07:32:33Z</time>
      </trkpt>
      <trkpt lat="43.44837" lon="5.86127">
        <ele>324.58</ele>
        <time>2019-05-12T07:32:34Z</time>
      </trkpt>
      <trkpt lat="43.44842" lon="5.86129">
        <ele>324.58</ele>
        <time>2019-05-12T07:32:35Z</time>
      </trkpt>
      <trkpt lat="43.44847" lon="5.8613">
        <ele>325.54</ele>
        <time>2019-05-12T07:32:36Z</time>
      </trkpt>
      <trkpt lat="43.44853" lon="5.86129">
        <ele>325.54</ele>
        <time>2019-05-12T07:32:37Z</time>
      </trkpt>
      <trkpt lat="43.44858" lon="5.86127">
        <ele>325.54</ele>
        <time>2019-05-12T07:32:38Z</time>
      </trkpt>
      <trkpt lat="43.44863" lon="5.86125">
        <ele>325.54</ele>
        <time>2019-05-12T07:32:39Z</time>
      </trkpt>
      <trkpt lat="43.44868" lon="5.86124">
        <ele>325.54</ele>
        <time>2019-05-12T07:32:40Z</time>
      </trkpt>
      <trkpt lat="43.44874" lon="5.86124">
        <ele>324.1</ele>
        <time>2019-05-12T07:32:41Z</time>
      </trkpt>
      <trkpt lat="43.4488" lon="5.86124">
        <ele>324.1</ele>
        <time>2019-05-12T07:32:42Z</time>
      </trkpt>
      <trkpt lat="43.44949" lon="5.86143">
        <ele>321.7</ele>
        <time>2019-05-12T07:32:54Z</time>
      </trkpt>
      <trkpt lat="43.45009" lon="5.86165">
        <ele>319.78</ele>
        <time>2019-05-12T07:33:07Z</time>
      </trkpt>
      <trkpt lat="43.45084" lon="5.86192">
        <ele>318.81</ele>
        <time>2019-05-12T07:33:21Z</time>
      </trkpt>
      <trkpt lat="43.45118" lon="5.86207">
        <ele>317.85</ele>
        <time>2019-05-12T07:33:29Z</time>
      </trkpt>
      <trkpt lat="43.45124" lon="5.86208">
        <ele>317.85</ele>
        <time>2019-05-12T07:33:30Z</time>
      </trkpt>
      <trkpt lat="43.4513" lon="5.86208">
        <ele>317.85</ele>
        <time>2019-05-12T07:33:31Z</time>
      </trkpt>
      <trkpt lat="43.45134" lon="5.86206">
        <ele>317.85</ele>
        <time>2019-05-12T07:33:32Z</time>
      </trkpt>
      <trkpt lat="43.45138" lon="5.86201">
        <ele>317.85</ele>
        <time>2019-05-12T07:33:33Z</time>
      </trkpt>
      <trkpt lat="43.45141" lon="5.86195">
        <ele>317.85</ele>
        <time>2019-05-12T07:33:34Z</time>
      </trkpt>
      <trkpt lat="43.45144" lon="5.86188">
        <ele>317.85</ele>
        <time>2019-05-12T07:33:35Z</time>
      </trkpt>
      <trkpt lat="43.45146" lon="5.86181">
        <ele>317.85</ele>
        <time>2019-05-12T07:33:36Z</time>
      </trkpt>
      <trkpt lat="43.45148" lon="5.86175">
        <ele>317.85</ele>
        <time>2019-05-12T07:33:37Z</time>
      </trkpt>
      <trkpt lat="43.45151" lon="5.86168">
        <ele>317.85</ele>
        <time>2019-05-12T07:33:38Z</time>
      </trkpt>
      <trkpt lat="43.45154" lon="5.86161">
        <ele>317.37</ele>
        <time>2019-05-12T07:33:39Z</time>
      </trkpt>
      <trkpt lat="43.45177" lon="5.86094">
        <ele>317.85</ele>
        <time>2019-05-12T07:33:48Z</time>
      </trkpt>
      <trkpt lat="43.45182" lon="5.86079">
        <ele>316.89</ele>
        <time>2019-05-12T07:33:50Z</time>
      </trkpt>
      <trkpt lat="43.45197" lon="5.86037">
        <ele>315.45</ele>
        <time>2019-05-12T07:33:55Z</time>
      </trkpt>
      <trkpt lat="43.45202" lon="5.86031">
        <ele>314.97</ele>
        <time>2019-05-12T07:33:56Z</time>
      </trkpt>
      <trkpt lat="43.45207" lon="5.86027">
        <ele>315.45</ele>
        <time>2019-05-12T07:33:57Z</time>
      </trkpt>
      <trkpt lat="43.45212" lon="5.86025">
        <ele>314.49</ele>
        <time>2019-05-12T07:33:58Z</time>
      </trkpt>
      <trkpt lat="43.45217" lon="5.86024">
        <ele>314.49</ele>
        <time>2019-05-12T07:33:59Z</time>
      </trkpt>
      <trkpt lat="43.45223" lon="5.86024">
        <ele>314.49</ele>
        <time>2019-05-12T07:34:00Z</time>
      </trkpt>
      <trkpt lat="43.45259" lon="5.86027">
        <ele>313.53</ele>
        <time>2019-05-12T07:34:06Z</time>
      </trkpt>
      <trkpt lat="43.45277" lon="5.86028">
        <ele>313.53</ele>
        <time>2019-05-12T07:34:09Z</time>
      </trkpt>
      <trkpt lat="43.45314" lon="5.86017">
        <ele>312.09</ele>
        <time>2019-05-12T07:34:19Z</time>
      </trkpt>
      <trkpt lat="43.45318" lon="5.86014">
        <ele>312.09</ele>
        <time>2019-05-12T07:34:21Z</time>
      </trkpt>
      <trkpt lat="43.4532" lon="5.86013">
        <ele>312.57</ele>
        <time>2019-05-12T07:34:22Z</time>
      </trkpt>
      <trkpt lat="43.45322" lon="5.86013">
        <ele>312.57</ele>
        <time>2019-05-12T07:34:23Z</time>
      </trkpt>
      <trkpt lat="43.45324" lon="5.86014">
        <ele>312.57</ele>
        <time>2019-05-12T07:34:24Z</time>
      </trkpt>
      <trkpt lat="43.45325" lon="5.86015">
        <ele>312.57</ele>
        <time>2019-05-12T07:34:25Z</time>
      </trkpt>
      <trkpt lat="43.45345" lon="5.86027">
        <ele>312.09</ele>
        <time>2019-05-12T07:34:37Z</time>
      </trkpt>
      <trkpt lat="43.45347" lon="5.86028">
        <ele>312.09</ele>
        <time>2019-05-12T07:34:38Z</time>
      </trkpt>
      <trkpt lat="43.45349" lon="5.86031">
        <ele>312.09</ele>
        <time>2019-05-12T07:34:41Z</time>
      </trkpt>
      <trkpt lat="43.45356" lon="5.86032">
        <ele>311.6</ele>
        <time>2019-05-12T07:34:45Z</time>
      </trkpt>
      <trkpt lat="43.45374" lon="5.86037">
        <ele>312.09</ele>
        <time>2019-05-12T07:34:54Z</time>
      </trkpt>
      <trkpt lat="43.45375" lon="5.86038">
        <ele>312.09</ele>
        <time>2019-05-12T07:34:55Z</time>
      </trkpt>
      <trkpt lat="43.45375" lon="5.8604">
        <ele>312.09</ele>
        <time>2019-05-12T07:34:56Z</time>
      </trkpt>
      <trkpt lat="43.45378" lon="5.86051">
        <ele>312.09</ele>
        <time>2019-05-12T07:35:01Z</time>
      </trkpt>
      <trkpt lat="43.4538" lon="5.86051">
        <ele>312.09</ele>
        <time>2019-05-12T07:35:02Z</time>
      </trkpt>
      <trkpt lat="43.45381" lon="5.86051">
        <ele>312.09</ele>
        <time>2019-05-12T07:35:03Z</time>
      </trkpt>
      <trkpt lat="43.45383" lon="5.86051">
        <ele>312.09</ele>
        <time>2019-05-12T07:35:04Z</time>
      </trkpt>
      <trkpt lat="43.45384" lon="5.86052">
        <ele>312.09</ele>
        <time>2019-05-12T07:35:05Z</time>
      </trkpt>
      <trkpt lat="43.45386" lon="5.86053">
        <ele>312.09</ele>
        <time>2019-05-12T07:35:06Z</time>
      </trkpt>
      <trkpt lat="43.45388" lon="5.86053">
        <ele>312.09</ele>
        <time>2019-05-12T07:35:07Z</time>
      </trkpt>
      <trkpt lat="43.45391" lon="5.86053">
        <ele>311.6</ele>
        <time>2019-05-12T07:35:08Z</time>
      </trkpt>
      <trkpt lat="43.45432" lon="5.86069">
        <ele>311.6</ele>
        <time>2019-05-12T07:35:19Z</time>
      </trkpt>
      <trkpt lat="43.455" lon="5.86102">
        <ele>308.72</ele>
        <time>2019-05-12T07:35:32Z</time>
      </trkpt>
      <trkpt lat="43.45606" lon="5.86163">
        <ele>306.32</ele>
        <time>2019-05-12T07:35:51Z</time>
      </trkpt>
      <trkpt lat="43.45617" lon="5.86167">
        <ele>306.32</ele>
        <time>2019-05-12T07:35:53Z</time>
      </trkpt>
      <trkpt lat="43.45622" lon="5.86167">
        <ele>306.32</ele>
        <time>2019-05-12T07:35:54Z</time>
      </trkpt>
      <trkpt lat="43.45626" lon="5.86167">
        <ele>305.36</ele>
        <time>2019-05-12T07:35:55Z</time>
      </trkpt>
      <trkpt lat="43.45636" lon="5.86162">
        <ele>305.36</ele>
        <time>2019-05-12T07:35:57Z</time>
      </trkpt>
      <trkpt lat="43.45642" lon="5.86161">
        <ele>305.36</ele>
        <time>2019-05-12T07:35:58Z</time>
      </trkpt>
      <trkpt lat="43.45691" lon="5.86148">
        <ele>305.36</ele>
        <time>2019-05-12T07:36:08Z</time>
      </trkpt>
      <trkpt lat="43.45773" lon="5.86145">
        <ele>303.91</ele>
        <time>2019-05-12T07:36:25Z</time>
      </trkpt>
      <trkpt lat="43.45788" lon="5.86146">
        <ele>306.32</ele>
        <time>2019-05-12T07:36:28Z</time>
      </trkpt>
      <trkpt lat="43.45812" lon="5.86147">
        <ele>304.88</ele>
        <time>2019-05-12T07:36:33Z</time>
      </trkpt>
      <trkpt lat="43.45855" lon="5.86146">
        <ele>303.91</ele>
        <time>2019-05-12T07:36:42Z</time>
      </trkpt>
      <trkpt lat="43.45859" lon="5.86144">
        <ele>303.91</ele>
        <time>2019-05-12T07:36:43Z</time>
      </trkpt>
      <trkpt lat="43.45863" lon="5.86141">
        <ele>303.91</ele>
        <time>2019-05-12T07:36:44Z</time>
      </trkpt>
      <trkpt lat="43.45865" lon="5.86136">
        <ele>304.88</ele>
        <time>2019-05-12T07:36:45Z</time>
      </trkpt>
      <trkpt lat="43.45867" lon="5.8613">
        <ele>305.36</ele>
        <time>2019-05-12T07:36:46Z</time>
      </trkpt>
      <trkpt lat="43.45868" lon="5.86124">
        <ele>305.36</ele>
        <time>2019-05-12T07:36:47Z</time>
      </trkpt>
      <trkpt lat="43.45869" lon="5.86034">
        <ele>305.36</ele>
        <time>2019-05-12T07:37:03Z</time>
      </trkpt>
      <trkpt lat="43.45867" lon="5.86004">
        <ele>305.36</ele>
        <time>2019-05-12T07:37:12Z</time>
      </trkpt>
      <trkpt lat="43.45868" lon="5.86004">
        <ele>305.36</ele>
        <time>2019-05-12T07:37:13Z</time>
      </trkpt>
      <trkpt lat="43.45869" lon="5.86004">
        <ele>305.36</ele>
        <time>2019-05-12T07:37:14Z</time>
      </trkpt>
      <trkpt lat="43.4587" lon="5.86004">
        <ele>305.36</ele>
        <time>2019-05-12T07:37:15Z</time>
      </trkpt>
      <trkpt lat="43.45872" lon="5.86004">
        <ele>305.36</ele>
        <time>2019-05-12T07:37:16Z</time>
      </trkpt>
      <trkpt lat="43.45874" lon="5.86005">
        <ele>305.36</ele>
        <time>2019-05-12T07:37:17Z</time>
      </trkpt>
      <trkpt lat="43.45876" lon="5.86005">
        <ele>305.36</ele>
        <time>2019-05-12T07:37:18Z</time>
      </trkpt>
      <trkpt lat="43.4588" lon="5.86005">
        <ele>305.36</ele>
        <time>2019-05-12T07:37:19Z</time>
      </trkpt>
      <trkpt lat="43.45883" lon="5.86004">
        <ele>305.36</ele>
        <time>2019-05-12T07:37:20Z</time>
      </trkpt>
      <trkpt lat="43.45887" lon="5.86002">
        <ele>305.84</ele>
        <time>2019-05-12T07:37:21Z</time>
      </trkpt>
      <trkpt lat="43.45891" lon="5.86">
        <ele>306.32</ele>
        <time>2019-05-12T07:37:22Z</time>
      </trkpt>
      <trkpt lat="43.45894" lon="5.85996">
        <ele>306.32</ele>
        <time>2019-05-12T07:37:23Z</time>
      </trkpt>
      <trkpt lat="43.45896" lon="5.85991">
        <ele>306.32</ele>
        <time>2019-05-12T07:37:24Z</time>
      </trkpt>
      <trkpt lat="43.45898" lon="5.85986">
        <ele>306.32</ele>
        <time>2019-05-12T07:37:25Z</time>
      </trkpt>
      <trkpt lat="43.45899" lon="5.8598">
        <ele>306.32</ele>
        <time>2019-05-12T07:37:26Z</time>
      </trkpt>
      <trkpt lat="43.45901" lon="5.85974">
        <ele>306.32</ele>
        <time>2019-05-12T07:37:27Z</time>
      </trkpt>
      <trkpt lat="43.45903" lon="5.85968">
        <ele>306.32</ele>
        <time>2019-05-12T07:37:28Z</time>
      </trkpt>
      <trkpt lat="43.45908" lon="5.85955">
        <ele>307.76</ele>
        <time>2019-05-12T07:37:30Z</time>
      </trkpt>
      <trkpt lat="43.45922" lon="5.85923">
        <ele>306.32</ele>
        <time>2019-05-12T07:37:36Z</time>
      </trkpt>
      <trkpt lat="43.45929" lon="5.85911">
        <ele>305.36</ele>
        <time>2019-05-12T07:37:38Z</time>
      </trkpt>
      <trkpt lat="43.45932" lon="5.85908">
        <ele>305.36</ele>
        <time>2019-05-12T07:37:39Z</time>
      </trkpt>
      <trkpt lat="43.45936" lon="5.85905">
        <ele>305.36</ele>
        <time>2019-05-12T07:37:40Z</time>
      </trkpt>
      <trkpt lat="43.45941" lon="5.85903">
        <ele>304.88</ele>
        <time>2019-05-12T07:37:41Z</time>
      </trkpt>
      <trkpt lat="43.45946" lon="5.85902">
        <ele>304.88</ele>
        <time>2019-05-12T07:37:42Z</time>
      </trkpt>
      <trkpt lat="43.4595" lon="5.85902">
        <ele>304.88</ele>
        <time>2019-05-12T07:37:43Z</time>
      </trkpt>
      <trkpt lat="43.45971" lon="5.85901">
        <ele>304.39</ele>
        <time>2019-05-12T07:37:49Z</time>
      </trkpt>
      <trkpt lat="43.45988" lon="5.85883">
        <ele>304.39</ele>
        <time>2019-05-12T07:37:55Z</time>
      </trkpt>
      <trkpt lat="43.4599" lon="5.85877">
        <ele>304.39</ele>
        <time>2019-05-12T07:37:56Z</time>
      </trkpt>
      <trkpt lat="43.46019" lon="5.85787">
        <ele>306.32</ele>
        <time>2019-05-12T07:38:14Z</time>
      </trkpt>
      <trkpt lat="43.46043" lon="5.8571">
        <ele>306.32</ele>
        <time>2019-05-12T07:38:30Z</time>
      </trkpt>
      <trkpt lat="43.46047" lon="5.85708">
        <ele>306.32</ele>
        <time>2019-05-12T07:38:31Z</time>
      </trkpt>
      <trkpt lat="43.46051" lon="5.85707">
        <ele>306.32</ele>
        <time>2019-05-12T07:38:32Z</time>
      </trkpt>
      <trkpt lat="43.46055" lon="5.85708">
        <ele>306.32</ele>
        <time>2019-05-12T07:38:33Z</time>
      </trkpt>
      <trkpt lat="43.46058" lon="5.85709">
        <ele>304.39</ele>
        <time>2019-05-12T07:38:34Z</time>
      </trkpt>
      <trkpt lat="43.46062" lon="5.85711">
        <ele>304.39</ele>
        <time>2019-05-12T07:38:35Z</time>
      </trkpt>
      <trkpt lat="43.46073" lon="5.85716">
        <ele>304.39</ele>
        <time>2019-05-12T07:38:38Z</time>
      </trkpt>
      <trkpt lat="43.46077" lon="5.85717">
        <ele>304.39</ele>
        <time>2019-05-12T07:38:39Z</time>
      </trkpt>
      <trkpt lat="43.46082" lon="5.85717">
        <ele>304.39</ele>
        <time>2019-05-12T07:38:40Z</time>
      </trkpt>
      <trkpt lat="43.46094" lon="5.85717">
        <ele>305.84</ele>
        <time>2019-05-12T07:38:43Z</time>
      </trkpt>
      <trkpt lat="43.4614" lon="5.85688">
        <ele>305.36</ele>
        <time>2019-05-12T07:38:56Z</time>
      </trkpt>
      <trkpt lat="43.46181" lon="5.85667">
        <ele>307.28</ele>
        <time>2019-05-12T07:39:09Z</time>
      </trkpt>
      <trkpt lat="43.46242" lon="5.85649">
        <ele>307.28</ele>
        <time>2019-05-12T07:39:26Z</time>
      </trkpt>
      <trkpt lat="43.46281" lon="5.85616">
        <ele>309.68</ele>
        <time>2019-05-12T07:39:40Z</time>
      </trkpt>
      <trkpt lat="43.46308" lon="5.856">
        <ele>312.57</ele>
        <time>2019-05-12T07:39:50Z</time>
      </trkpt>
      <trkpt lat="43.46355" lon="5.85624">
        <ele>313.05</ele>
        <time>2019-05-12T07:40:05Z</time>
      </trkpt>
      <trkpt lat="43.46382" lon="5.8564">
        <ele>312.57</ele>
        <time>2019-05-12T07:40:12Z</time>
      </trkpt>
      <trkpt lat="43.46386" lon="5.85641">
        <ele>312.57</ele>
        <time>2019-05-12T07:40:13Z</time>
      </trkpt>
      <trkpt lat="43.46391" lon="5.85641">
        <ele>312.57</ele>
        <time>2019-05-12T07:40:14Z</time>
      </trkpt>
      <trkpt lat="43.46395" lon="5.8564">
        <ele>313.53</ele>
        <time>2019-05-12T07:40:15Z</time>
      </trkpt>
      <trkpt lat="43.464" lon="5.85638">
        <ele>313.53</ele>
        <time>2019-05-12T07:40:16Z</time>
      </trkpt>
      <trkpt lat="43.46404" lon="5.85636">
        <ele>313.53</ele>
        <time>2019-05-12T07:40:17Z</time>
      </trkpt>
      <trkpt lat="43.46409" lon="5.85633">
        <ele>313.53</ele>
        <time>2019-05-12T07:40:18Z</time>
      </trkpt>
      <trkpt lat="43.46413" lon="5.85629">
        <ele>312.09</ele>
        <time>2019-05-12T07:40:19Z</time>
      </trkpt>
      <trkpt lat="43.46417" lon="5.85623">
        <ele>312.09</ele>
        <time>2019-05-12T07:40:20Z</time>
      </trkpt>
      <trkpt lat="43.4642" lon="5.85618">
        <ele>311.12</ele>
        <time>2019-05-12T07:40:21Z</time>
      </trkpt>
      <trkpt lat="43.46424" lon="5.85612">
        <ele>310.64</ele>
        <time>2019-05-12T07:40:22Z</time>
      </trkpt>
      <trkpt lat="43.46436" lon="5.85592">
        <ele>309.68</ele>
        <time>2019-05-12T07:40:25Z</time>
      </trkpt>
      <trkpt lat="43.46441" lon="5.85587">
        <ele>309.68</ele>
        <time>2019-05-12T07:40:26Z</time>
      </trkpt>
      <trkpt lat="43.46445" lon="5.85582">
        <ele>308.72</ele>
        <time>2019-05-12T07:40:27Z</time>
      </trkpt>
      <trkpt lat="43.4645" lon="5.85578">
        <ele>307.76</ele>
        <time>2019-05-12T07:40:28Z</time>
      </trkpt>
      <trkpt lat="43.46455" lon="5.85575">
        <ele>306.8</ele>
        <time>2019-05-12T07:40:29Z</time>
      </trkpt>
      <trkpt lat="43.46529" lon="5.85537">
        <ele>306.32</ele>
        <time>2019-05-12T07:40:43Z</time>
      </trkpt>
      <trkpt lat="43.46618" lon="5.85503">
        <ele>305.36</ele>
        <time>2019-05-12T07:41:02Z</time>
      </trkpt>
      <trkpt lat="43.46622" lon="5.85501">
        <ele>305.36</ele>
        <time>2019-05-12T07:41:03Z</time>
      </trkpt>
      <trkpt lat="43.46626" lon="5.85498">
        <ele>304.88</ele>
        <time>2019-05-12T07:41:04Z</time>
      </trkpt>
      <trkpt lat="43.46658" lon="5.85463">
        <ele>304.88</ele>
        <time>2019-05-12T07:41:16Z</time>
      </trkpt>
      <trkpt lat="43.46661" lon="5.85459">
        <ele>306.32</ele>
        <time>2019-05-12T07:41:18Z</time>
      </trkpt>
      <trkpt lat="43.46665" lon="5.85453">
        <ele>304.88</ele>
        <time>2019-05-12T07:41:21Z</time>
      </trkpt>
      <trkpt lat="43.46695" lon="5.85395">
        <ele>306.8</ele>
        <time>2019-05-12T07:41:34Z</time>
      </trkpt>
      <trkpt lat="43.46699" lon="5.85392">
        <ele>306.8</ele>
        <time>2019-05-12T07:41:35Z</time>
      </trkpt>
      <trkpt lat="43.46706" lon="5.85386">
        <ele>306.8</ele>
        <time>2019-05-12T07:41:37Z</time>
      </trkpt>
      <trkpt lat="43.4671" lon="5.85384">
        <ele>306.8</ele>
        <time>2019-05-12T07:41:38Z</time>
      </trkpt>
      <trkpt lat="43.46715" lon="5.85382">
        <ele>306.32</ele>
        <time>2019-05-12T07:41:39Z</time>
      </trkpt>
      <trkpt lat="43.46719" lon="5.8538">
        <ele>306.32</ele>
        <time>2019-05-12T07:41:40Z</time>
      </trkpt>
      <trkpt lat="43.46723" lon="5.85379">
        <ele>306.32</ele>
        <time>2019-05-12T07:41:41Z</time>
      </trkpt>
      <trkpt lat="43.46798" lon="5.8536">
        <ele>306.32</ele>
        <time>2019-05-12T07:41:58Z</time>
      </trkpt>
      <trkpt lat="43.46884" lon="5.85344">
        <ele>306.32</ele>
        <time>2019-05-12T07:42:17Z</time>
      </trkpt>
      <trkpt lat="43.46903" lon="5.85337">
        <ele>306.32</ele>
        <time>2019-05-12T07:42:21Z</time>
      </trkpt>
      <trkpt lat="43.46907" lon="5.85334">
        <ele>306.8</ele>
        <time>2019-05-12T07:42:22Z</time>
      </trkpt>
      <trkpt lat="43.46911" lon="5.85331">
        <ele>306.8</ele>
        <time>2019-05-12T07:42:23Z</time>
      </trkpt>
      <trkpt lat="43.46919" lon="5.85323">
        <ele>306.8</ele>
        <time>2019-05-12T07:42:25Z</time>
      </trkpt>
      <trkpt lat="43.46962" lon="5.85264">
        <ele>306.8</ele>
        <time>2019-05-12T07:42:38Z</time>
      </trkpt>
      <trkpt lat="43.46968" lon="5.85256">
        <ele>308.24</ele>
        <time>2019-05-12T07:42:40Z</time>
      </trkpt>
      <trkpt lat="43.47035" lon="5.85177">
        <ele>307.76</ele>
        <time>2019-05-12T07:43:01Z</time>
      </trkpt>
      <trkpt lat="43.47071" lon="5.85138">
        <ele>307.76</ele>
        <time>2019-05-12T07:43:12Z</time>
      </trkpt>
      <trkpt lat="43.47074" lon="5.85137">
        <ele>307.76</ele>
        <time>2019-05-12T07:43:13Z</time>
      </trkpt>
      <trkpt lat="43.47082" lon="5.85133">
        <ele>307.76</ele>
        <time>2019-05-12T07:43:15Z</time>
      </trkpt>
      <trkpt lat="43.47086" lon="5.85131">
        <ele>307.76</ele>
        <time>2019-05-12T07:43:16Z</time>
      </trkpt>
      <trkpt lat="43.47089" lon="5.85128">
        <ele>307.76</ele>
        <time>2019-05-12T07:43:17Z</time>
      </trkpt>
      <trkpt lat="43.47092" lon="5.85125">
        <ele>307.76</ele>
        <time>2019-05-12T07:43:18Z</time>
      </trkpt>
      <trkpt lat="43.47095" lon="5.85121">
        <ele>307.76</ele>
        <time>2019-05-12T07:43:19Z</time>
      </trkpt>
      <trkpt lat="43.47098" lon="5.85117">
        <ele>307.76</ele>
        <time>2019-05-12T07:43:20Z</time>
      </trkpt>
      <trkpt lat="43.47145" lon="5.85046">
        <ele>309.2</ele>
        <time>2019-05-12T07:43:39Z</time>
      </trkpt>
      <trkpt lat="43.47152" lon="5.85036">
        <ele>307.76</ele>
        <time>2019-05-12T07:43:42Z</time>
      </trkpt>
      <trkpt lat="43.47165" lon="5.85018">
        <ele>308.72</ele>
        <time>2019-05-12T07:43:47Z</time>
      </trkpt>
      <trkpt lat="43.47198" lon="5.84965">
        <ele>309.2</ele>
        <time>2019-05-12T07:44:01Z</time>
      </trkpt>
      <trkpt lat="43.47241" lon="5.84885">
        <ele>307.76</ele>
        <time>2019-05-12T07:44:20Z</time>
      </trkpt>
      <trkpt lat="43.47263" lon="5.84843">
        <ele>310.16</ele>
        <time>2019-05-12T07:44:30Z</time>
      </trkpt>
      <trkpt lat="43.47286" lon="5.84797">
        <ele>310.16</ele>
        <time>2019-05-12T07:44:41Z</time>
      </trkpt>
      <trkpt lat="43.47291" lon="5.84784">
        <ele>311.6</ele>
        <time>2019-05-12T07:44:44Z</time>
      </trkpt>
      <trkpt lat="43.47313" lon="5.8476">
        <ele>308.72</ele>
        <time>2019-05-12T07:44:52Z</time>
      </trkpt>
      <trkpt lat="43.47316" lon="5.84757">
        <ele>308.72</ele>
        <time>2019-05-12T07:44:53Z</time>
      </trkpt>
      <trkpt lat="43.4732" lon="5.84752">
        <ele>308.72</ele>
        <time>2019-05-12T07:44:54Z</time>
      </trkpt>
      <trkpt lat="43.47366" lon="5.84679">
        <ele>308.24</ele>
        <time>2019-05-12T07:45:11Z</time>
      </trkpt>
      <trkpt lat="43.47412" lon="5.84606">
        <ele>307.76</ele>
        <time>2019-05-12T07:45:29Z</time>
      </trkpt>
      <trkpt lat="43.47419" lon="5.84592">
        <ele>309.2</ele>
        <time>2019-05-12T07:45:32Z</time>
      </trkpt>
      <trkpt lat="43.4743" lon="5.8457">
        <ele>308.72</ele>
        <time>2019-05-12T07:45:37Z</time>
      </trkpt>
      <trkpt lat="43.47438" lon="5.84554">
        <ele>307.28</ele>
        <time>2019-05-12T07:45:41Z</time>
      </trkpt>
      <trkpt lat="43.47445" lon="5.84541">
        <ele>308.72</ele>
        <time>2019-05-12T07:45:44Z</time>
      </trkpt>
      <trkpt lat="43.47478" lon="5.84473">
        <ele>308.24</ele>
        <time>2019-05-12T07:46:00Z</time>
      </trkpt>
      <trkpt lat="43.47516" lon="5.84399">
        <ele>309.2</ele>
        <time>2019-05-12T07:46:19Z</time>
      </trkpt>
      <trkpt lat="43.47538" lon="5.84338">
        <ele>307.76</ele>
        <time>2019-05-12T07:46:34Z</time>
      </trkpt>
      <trkpt lat="43.47564" lon="5.84268">
        <ele>310.64</ele>
        <time>2019-05-12T07:46:53Z</time>
      </trkpt>
      <trkpt lat="43.47574" lon="5.84261">
        <ele>313.05</ele>
        <time>2019-05-12T07:46:58Z</time>
      </trkpt>
      <trkpt lat="43.47613" lon="5.84263">
        <ele>313.53</ele>
        <time>2019-05-12T07:47:14Z</time>
      </trkpt>
      <trkpt lat="43.47631" lon="5.84257">
        <ele>315.93</ele>
        <time>2019-05-12T07:47:21Z</time>
      </trkpt>
      <trkpt lat="43.47633" lon="5.84257">
        <ele>315.93</ele>
        <time>2019-05-12T07:47:22Z</time>
      </trkpt>
      <trkpt lat="43.47636" lon="5.84259">
        <ele>315.93</ele>
        <time>2019-05-12T07:47:23Z</time>
      </trkpt>
      <trkpt lat="43.47638" lon="5.84261">
        <ele>315.93</ele>
        <time>2019-05-12T07:47:24Z</time>
      </trkpt>
      <trkpt lat="43.47641" lon="5.84264">
        <ele>315.93</ele>
        <time>2019-05-12T07:47:25Z</time>
      </trkpt>
      <trkpt lat="43.47644" lon="5.84267">
        <ele>314.97</ele>
        <time>2019-05-12T07:47:26Z</time>
      </trkpt>
      <trkpt lat="43.4765" lon="5.84273">
        <ele>313.53</ele>
        <time>2019-05-12T07:47:28Z</time>
      </trkpt>
      <trkpt lat="43.47705" lon="5.84337">
        <ele>313.05</ele>
        <time>2019-05-12T07:47:43Z</time>
      </trkpt>
      <trkpt lat="43.47713" lon="5.84345">
        <ele>313.05</ele>
        <time>2019-05-12T07:47:45Z</time>
      </trkpt>
      <trkpt lat="43.47723" lon="5.84358">
        <ele>313.05</ele>
        <time>2019-05-12T07:47:48Z</time>
      </trkpt>
      <trkpt lat="43.47773" lon="5.84415">
        <ele>311.6</ele>
        <time>2019-05-12T07:48:02Z</time>
      </trkpt>
      <trkpt lat="43.47801" lon="5.84453">
        <ele>312.57</ele>
        <time>2019-05-12T07:48:12Z</time>
      </trkpt>
      <trkpt lat="43.47826" lon="5.84496">
        <ele>312.57</ele>
        <time>2019-05-12T07:48:22Z</time>
      </trkpt>
      <trkpt lat="43.47828" lon="5.84501">
        <ele>312.57</ele>
        <time>2019-05-12T07:48:23Z</time>
      </trkpt>
      <trkpt lat="43.47833" lon="5.84512">
        <ele>312.57</ele>
        <time>2019-05-12T07:48:25Z</time>
      </trkpt>
      <trkpt lat="43.47836" lon="5.84517">
        <ele>312.57</ele>
        <time>2019-05-12T07:48:26Z</time>
      </trkpt>
      <trkpt lat="43.47867" lon="5.84588">
        <ele>313.05</ele>
        <time>2019-05-12T07:48:39Z</time>
      </trkpt>
      <trkpt lat="43.47896" lon="5.84661">
        <ele>310.16</ele>
        <time>2019-05-12T07:48:50Z</time>
      </trkpt>
      <trkpt lat="43.47949" lon="5.84793">
        <ele>308.24</ele>
        <time>2019-05-12T07:49:10Z</time>
      </trkpt>
      <trkpt lat="43.47994" lon="5.8491">
        <ele>307.76</ele>
        <time>2019-05-12T07:49:31Z</time>
      </trkpt>
      <trkpt lat="43.48036" lon="5.85017">
        <ele>307.76</ele>
        <time>2019-05-12T07:49:51Z</time>
      </trkpt>
      <trkpt lat="43.48078" lon="5.8512">
        <ele>306.32</ele>
        <time>2019-05-12T07:50:11Z</time>
      </trkpt>
      <trkpt lat="43.4811" lon="5.85204">
        <ele>307.76</ele>
        <time>2019-05-12T07:50:26Z</time>
      </trkpt>
      <trkpt lat="43.48126" lon="5.85248">
        <ele>308.24</ele>
        <time>2019-05-12T07:50:35Z</time>
      </trkpt>
      <trkpt lat="43.4816" lon="5.85331">
        <ele>310.16</ele>
        <time>2019-05-12T07:50:52Z</time>
      </trkpt>
      <trkpt lat="43.48164" lon="5.85341">
        <ele>308.72</ele>
        <time>2019-05-12T07:50:54Z</time>
      </trkpt>
      <trkpt lat="43.48193" lon="5.85442">
        <ele>306.8</ele>
        <time>2019-05-12T07:51:11Z</time>
      </trkpt>
      <trkpt lat="43.48213" lon="5.85534">
        <ele>305.36</ele>
        <time>2019-05-12T07:51:26Z</time>
      </trkpt>
      <trkpt lat="43.48242" lon="5.85655">
        <ele>303.91</ele>
        <time>2019-05-12T07:51:43Z</time>
      </trkpt>
      <trkpt lat="43.48275" lon="5.85808">
        <ele>302.95</ele>
        <time>2019-05-12T07:52:04Z</time>
      </trkpt>
      <trkpt lat="43.48292" lon="5.85881">
        <ele>301.99</ele>
        <time>2019-05-12T07:52:15Z</time>
      </trkpt>
      <trkpt lat="43.48302" lon="5.85925">
        <ele>300.55</ele>
        <time>2019-05-12T07:52:22Z</time>
      </trkpt>
      <trkpt lat="43.48338" lon="5.86082">
        <ele>298.63</ele>
        <time>2019-05-12T07:52:45Z</time>
      </trkpt>
      <trkpt lat="43.48369" lon="5.8622">
        <ele>297.67</ele>
        <time>2019-05-12T07:53:07Z</time>
      </trkpt>
      <trkpt lat="43.48398" lon="5.8635">
        <ele>298.63</ele>
        <time>2019-05-12T07:53:29Z</time>
      </trkpt>
      <trkpt lat="43.48415" lon="5.8642">
        <ele>298.15</ele>
        <time>2019-05-12T07:53:42Z</time>
      </trkpt>
      <trkpt lat="43.4844" lon="5.86532">
        <ele>296.7</ele>
        <time>2019-05-12T07:54:00Z</time>
      </trkpt>
      <trkpt lat="43.48444" lon="5.86544">
        <ele>295.74</ele>
        <time>2019-05-12T07:54:02Z</time>
      </trkpt>
      <trkpt lat="43.48472" lon="5.86672">
        <ele>294.3</ele>
        <time>2019-05-12T07:54:23Z</time>
      </trkpt>
      <trkpt lat="43.48482" lon="5.86705">
        <ele>295.74</ele>
        <time>2019-05-12T07:54:30Z</time>
      </trkpt>
      <trkpt lat="43.48485" lon="5.86705">
        <ele>295.74</ele>
        <time>2019-05-12T07:54:32Z</time>
      </trkpt>
      <trkpt lat="43.48488" lon="5.86703">
        <ele>295.74</ele>
        <time>2019-05-12T07:54:33Z</time>
      </trkpt>
      <trkpt lat="43.48491" lon="5.86703">
        <ele>295.74</ele>
        <time>2019-05-12T07:54:34Z</time>
      </trkpt>
      <trkpt lat="43.48494" lon="5.86703">
        <ele>295.74</ele>
        <time>2019-05-12T07:54:35Z</time>
      </trkpt>
      <trkpt lat="43.48496" lon="5.86704">
        <ele>296.22</ele>
        <time>2019-05-12T07:54:36Z</time>
      </trkpt>
      <trkpt lat="43.48517" lon="5.86714">
        <ele>296.22</ele>
        <time>2019-05-12T07:54:42Z</time>
      </trkpt>
      <trkpt lat="43.48521" lon="5.86715">
        <ele>296.22</ele>
        <time>2019-05-12T07:54:43Z</time>
      </trkpt>
      <trkpt lat="43.48582" lon="5.86735">
        <ele>295.26</ele>
        <time>2019-05-12T07:54:57Z</time>
      </trkpt>
      <trkpt lat="43.48657" lon="5.8679">
        <ele>293.82</ele>
        <time>2019-05-12T07:55:15Z</time>
      </trkpt>
      <trkpt lat="43.48737" lon="5.86851">
        <ele>292.86</ele>
        <time>2019-05-12T07:55:32Z</time>
      </trkpt>
      <trkpt lat="43.48763" lon="5.86866">
        <ele>294.3</ele>
        <time>2019-05-12T07:55:37Z</time>
      </trkpt>
      <trkpt lat="43.48777" lon="5.86868">
        <ele>297.67</ele>
        <time>2019-05-12T07:55:40Z</time>
      </trkpt>
      <trkpt lat="43.48781" lon="5.86869">
        <ele>297.67</ele>
        <time>2019-05-12T07:55:41Z</time>
      </trkpt>
      <trkpt lat="43.48789" lon="5.86871">
        <ele>294.78</ele>
        <time>2019-05-12T07:55:43Z</time>
      </trkpt>
      <trkpt lat="43.48793" lon="5.86873">
        <ele>294.3</ele>
        <time>2019-05-12T07:55:44Z</time>
      </trkpt>
      <trkpt lat="43.48809" lon="5.86883">
        <ele>294.3</ele>
        <time>2019-05-12T07:55:48Z</time>
      </trkpt>
      <trkpt lat="43.48878" lon="5.8693">
        <ele>296.22</ele>
        <time>2019-05-12T07:56:04Z</time>
      </trkpt>
      <trkpt lat="43.48927" lon="5.86963">
        <ele>298.63</ele>
        <time>2019-05-12T07:56:16Z</time>
      </trkpt>
      <trkpt lat="43.48931" lon="5.86964">
        <ele>298.63</ele>
        <time>2019-05-12T07:56:17Z</time>
      </trkpt>
      <trkpt lat="43.48982" lon="5.86982">
        <ele>301.51</ele>
        <time>2019-05-12T07:56:30Z</time>
      </trkpt>
      <trkpt lat="43.49052" lon="5.87006">
        <ele>301.99</ele>
        <time>2019-05-12T07:56:49Z</time>
      </trkpt>
      <trkpt lat="43.49084" lon="5.87019">
        <ele>304.39</ele>
        <time>2019-05-12T07:56:59Z</time>
      </trkpt>
      <trkpt lat="43.49106" lon="5.87027">
        <ele>302.95</ele>
        <time>2019-05-12T07:57:06Z</time>
      </trkpt>
      <trkpt lat="43.49164" lon="5.87049">
        <ele>306.32</ele>
        <time>2019-05-12T07:57:23Z</time>
      </trkpt>
      <trkpt lat="43.49224" lon="5.87055">
        <ele>309.68</ele>
        <time>2019-05-12T07:57:41Z</time>
      </trkpt>
      <trkpt lat="43.49285" lon="5.87057">
        <ele>307.28</ele>
        <time>2019-05-12T07:57:58Z</time>
      </trkpt>
      <trkpt lat="43.49315" lon="5.87059">
        <ele>308.24</ele>
        <time>2019-05-12T07:58:05Z</time>
      </trkpt>
      <trkpt lat="43.49327" lon="5.87059">
        <ele>306.8</ele>
        <time>2019-05-12T07:58:08Z</time>
      </trkpt>
      <trkpt lat="43.49358" lon="5.87061">
        <ele>307.28</ele>
        <time>2019-05-12T07:58:16Z</time>
      </trkpt>
      <trkpt lat="43.49376" lon="5.87064">
        <ele>305.84</ele>
        <time>2019-05-12T07:58:21Z</time>
      </trkpt>
      <trkpt lat="43.49433" lon="5.87079">
        <ele>307.28</ele>
        <time>2019-05-12T07:58:37Z</time>
      </trkpt>
      <trkpt lat="43.49491" lon="5.87077">
        <ele>308.24</ele>
        <time>2019-05-12T07:58:55Z</time>
      </trkpt>
      <trkpt lat="43.49553" lon="5.87073">
        <ele>309.68</ele>
        <time>2019-05-12T07:59:12Z</time>
      </trkpt>
      <trkpt lat="43.49616" lon="5.87088">
        <ele>313.05</ele>
        <time>2019-05-12T07:59:29Z</time>
      </trkpt>
      <trkpt lat="43.49656" lon="5.87096">
        <ele>314.01</ele>
        <time>2019-05-12T07:59:41Z</time>
      </trkpt>
      <trkpt lat="43.4971" lon="5.87117">
        <ele>313.05</ele>
        <time>2019-05-12T07:59:58Z</time>
      </trkpt>
      <trkpt lat="43.49719" lon="5.87122">
        <ele>314.49</ele>
        <time>2019-05-12T08:00:01Z</time>
      </trkpt>
      <trkpt lat="43.49767" lon="5.87153">
        <ele>317.37</ele>
        <time>2019-05-12T08:00:16Z</time>
      </trkpt>
      <trkpt lat="43.49828" lon="5.87208">
        <ele>314.97</ele>
        <time>2019-05-12T08:00:36Z</time>
      </trkpt>
      <trkpt lat="43.49837" lon="5.87241">
        <ele>316.41</ele>
        <time>2019-05-12T08:00:43Z</time>
      </trkpt>
      <trkpt lat="43.49847" lon="5.87323">
        <ele>319.3</ele>
        <time>2019-05-12T08:01:00Z</time>
      </trkpt>
      <trkpt lat="43.49863" lon="5.87404">
        <ele>321.7</ele>
        <time>2019-05-12T08:01:19Z</time>
      </trkpt>
      <trkpt lat="43.49868" lon="5.87459">
        <ele>325.54</ele>
        <time>2019-05-12T08:01:33Z</time>
      </trkpt>
      <trkpt lat="43.49886" lon="5.87496">
        <ele>327.47</ele>
        <time>2019-05-12T08:01:46Z</time>
      </trkpt>
      <trkpt lat="43.49923" lon="5.87534">
        <ele>329.39</ele>
        <time>2019-05-12T08:02:01Z</time>
      </trkpt>
      <trkpt lat="43.49975" lon="5.87561">
        <ele>330.83</ele>
        <time>2019-05-12T08:02:20Z</time>
      </trkpt>
      <trkpt lat="43.49983" lon="5.87562">
        <ele>332.27</ele>
        <time>2019-05-12T08:02:23Z</time>
      </trkpt>
      <trkpt lat="43.50019" lon="5.87562">
        <ele>333.71</ele>
        <time>2019-05-12T08:02:37Z</time>
      </trkpt>
      <trkpt lat="43.50058" lon="5.87564">
        <ele>335.16</ele>
        <time>2019-05-12T08:02:52Z</time>
      </trkpt>
      <trkpt lat="43.50104" lon="5.87592">
        <ele>337.56</ele>
        <time>2019-05-12T08:03:08Z</time>
      </trkpt>
      <trkpt lat="43.50141" lon="5.87654">
        <ele>337.56</ele>
        <time>2019-05-12T08:03:24Z</time>
      </trkpt>
      <trkpt lat="43.50168" lon="5.87704">
        <ele>340.44</ele>
        <time>2019-05-12T08:03:36Z</time>
      </trkpt>
      <trkpt lat="43.50173" lon="5.87712">
        <ele>341.89</ele>
        <time>2019-05-12T08:03:38Z</time>
      </trkpt>
      <trkpt lat="43.50211" lon="5.87776">
        <ele>342.37</ele>
        <time>2019-05-12T08:03:56Z</time>
      </trkpt>
      <trkpt lat="43.50218" lon="5.87784">
        <ele>343.33</ele>
        <time>2019-05-12T08:04:00Z</time>
      </trkpt>
      <trkpt lat="43.5022" lon="5.87784">
        <ele>343.33</ele>
        <time>2019-05-12T08:04:01Z</time>
      </trkpt>
      <trkpt lat="43.50221" lon="5.87784">
        <ele>343.33</ele>
        <time>2019-05-12T08:04:02Z</time>
      </trkpt>
      <trkpt lat="43.50223" lon="5.87784">
        <ele>343.33</ele>
        <time>2019-05-12T08:04:03Z</time>
      </trkpt>
      <trkpt lat="43.50224" lon="5.87784">
        <ele>343.33</ele>
        <time>2019-05-12T08:04:04Z</time>
      </trkpt>
      <trkpt lat="43.50225" lon="5.87783">
        <ele>343.81</ele>
        <time>2019-05-12T08:04:05Z</time>
      </trkpt>
      <trkpt lat="43.50243" lon="5.87779">
        <ele>343.81</ele>
        <time>2019-05-12T08:04:18Z</time>
      </trkpt>
      <trkpt lat="43.50249" lon="5.87779">
        <ele>344.29</ele>
        <time>2019-05-12T08:04:42Z</time>
      </trkpt>
      <trkpt lat="43.50263" lon="5.87776">
        <ele>344.29</ele>
        <time>2019-05-12T08:04:57Z</time>
      </trkpt>
      <trkpt lat="43.50268" lon="5.87772">
        <ele>345.25</ele>
        <time>2019-05-12T08:05:12Z</time>
      </trkpt>
      <trkpt lat="43.50301" lon="5.87768">
        <ele>345.73</ele>
        <time>2019-05-12T08:05:25Z</time>
      </trkpt>
      <trkpt lat="43.5032" lon="5.87767">
        <ele>348.13</ele>
        <time>2019-05-12T08:05:31Z</time>
      </trkpt>
      <trkpt lat="43.50369" lon="5.87757">
        <ele>349.58</ele>
        <time>2019-05-12T08:05:47Z</time>
      </trkpt>
      <trkpt lat="43.50418" lon="5.87779">
        <ele>351.98</ele>
        <time>2019-05-12T08:06:01Z</time>
      </trkpt>
      <trkpt lat="43.50433" lon="5.87797">
        <ele>350.06</ele>
        <time>2019-05-12T08:06:06Z</time>
      </trkpt>
      <trkpt lat="43.50455" lon="5.87828">
        <ele>351.5</ele>
        <time>2019-05-12T08:06:13Z</time>
      </trkpt>
      <trkpt lat="43.50465" lon="5.87841">
        <ele>350.06</ele>
        <time>2019-05-12T08:06:16Z</time>
      </trkpt>
      <trkpt lat="43.50512" lon="5.87904">
        <ele>350.54</ele>
        <time>2019-05-12T08:06:32Z</time>
      </trkpt>
      <trkpt lat="43.50559" lon="5.8797">
        <ele>352.46</ele>
        <time>2019-05-12T08:06:49Z</time>
      </trkpt>
      <trkpt lat="43.50583" lon="5.88002">
        <ele>354.38</ele>
        <time>2019-05-12T08:06:58Z</time>
      </trkpt>
      <trkpt lat="43.50617" lon="5.88046">
        <ele>356.79</ele>
        <time>2019-05-12T08:07:15Z</time>
      </trkpt>
      <trkpt lat="43.50657" lon="5.88076">
        <ele>358.71</ele>
        <time>2019-05-12T08:07:31Z</time>
      </trkpt>
      <trkpt lat="43.50703" lon="5.88091">
        <ele>359.67</ele>
        <time>2019-05-12T08:07:47Z</time>
      </trkpt>
      <trkpt lat="43.5073" lon="5.88092">
        <ele>361.59</ele>
        <time>2019-05-12T08:07:55Z</time>
      </trkpt>
      <trkpt lat="43.5075" lon="5.88089">
        <ele>363.04</ele>
        <time>2019-05-12T08:08:01Z</time>
      </trkpt>
      <trkpt lat="43.50804" lon="5.88075">
        <ele>365.44</ele>
        <time>2019-05-12T08:08:17Z</time>
      </trkpt>
      <trkpt lat="43.50807" lon="5.88075">
        <ele>364.96</ele>
        <time>2019-05-12T08:08:18Z</time>
      </trkpt>
      <trkpt lat="43.50855" lon="5.88063">
        <ele>366.88</ele>
        <time>2019-05-12T08:08:35Z</time>
      </trkpt>
      <trkpt lat="43.50905" lon="5.88049">
        <ele>369.28</ele>
        <time>2019-05-12T08:08:54Z</time>
      </trkpt>
      <trkpt lat="43.50955" lon="5.88048">
        <ele>372.65</ele>
        <time>2019-05-12T08:09:12Z</time>
      </trkpt>
      <trkpt lat="43.51" lon="5.88048">
        <ele>372.65</ele>
        <time>2019-05-12T08:09:30Z</time>
      </trkpt>
      <trkpt lat="43.51048" lon="5.88049">
        <ele>375.53</ele>
        <time>2019-05-12T08:09:48Z</time>
      </trkpt>
      <trkpt lat="43.51094" lon="5.88048">
        <ele>377.45</ele>
        <time>2019-05-12T08:10:06Z</time>
      </trkpt>
      <trkpt lat="43.51131" lon="5.88047">
        <ele>380.34</ele>
        <time>2019-05-12T08:10:22Z</time>
      </trkpt>
      <trkpt lat="43.51135" lon="5.8805">
        <ele>380.82</ele>
        <time>2019-05-12T08:10:26Z</time>
      </trkpt>
      <trkpt lat="43.51137" lon="5.88052">
        <ele>380.82</ele>
        <time>2019-05-12T08:10:41Z</time>
      </trkpt>
      <trkpt lat="43.51137" lon="5.88054">
        <ele>380.34</ele>
        <time>2019-05-12T08:10:43Z</time>
      </trkpt>
      <trkpt lat="43.51136" lon="5.88064">
        <ele>380.82</ele>
        <time>2019-05-12T08:10:48Z</time>
      </trkpt>
      <trkpt lat="43.51144" lon="5.88073">
        <ele>381.78</ele>
        <time>2019-05-12T08:10:55Z</time>
      </trkpt>
      <trkpt lat="43.51175" lon="5.88078">
        <ele>383.22</ele>
        <time>2019-05-12T08:11:10Z</time>
      </trkpt>
      <trkpt lat="43.51208" lon="5.88075">
        <ele>384.18</ele>
        <time>2019-05-12T08:11:26Z</time>
      </trkpt>
      <trkpt lat="43.51219" lon="5.88076">
        <ele>384.66</ele>
        <time>2019-05-12T08:11:31Z</time>
      </trkpt>
      <trkpt lat="43.51241" lon="5.8807">
        <ele>385.63</ele>
        <time>2019-05-12T08:11:40Z</time>
      </trkpt>
      <trkpt lat="43.51276" lon="5.88073">
        <ele>387.07</ele>
        <time>2019-05-12T08:11:58Z</time>
      </trkpt>
      <trkpt lat="43.51306" lon="5.88072">
        <ele>387.07</ele>
        <time>2019-05-12T08:12:13Z</time>
      </trkpt>
      <trkpt lat="43.51335" lon="5.88103">
        <ele>386.11</ele>
        <time>2019-05-12T08:12:29Z</time>
      </trkpt>
      <trkpt lat="43.51336" lon="5.88105">
        <ele>386.11</ele>
        <time>2019-05-12T08:12:30Z</time>
      </trkpt>
      <trkpt lat="43.51337" lon="5.88106">
        <ele>386.11</ele>
        <time>2019-05-12T08:12:31Z</time>
      </trkpt>
      <trkpt lat="43.51353" lon="5.88116">
        <ele>387.55</ele>
        <time>2019-05-12T08:12:39Z</time>
      </trkpt>
      <trkpt lat="43.51381" lon="5.88122">
        <ele>388.51</ele>
        <time>2019-05-12T08:12:54Z</time>
      </trkpt>
      <trkpt lat="43.51387" lon="5.88126">
        <ele>388.51</ele>
        <time>2019-05-12T08:12:57Z</time>
      </trkpt>
      <trkpt lat="43.51416" lon="5.88142">
        <ele>389.47</ele>
        <time>2019-05-12T08:13:11Z</time>
      </trkpt>
      <trkpt lat="43.51441" lon="5.88145">
        <ele>390.43</ele>
        <time>2019-05-12T08:13:24Z</time>
      </trkpt>
      <trkpt lat="43.51468" lon="5.88145">
        <ele>391.39</ele>
        <time>2019-05-12T08:13:38Z</time>
      </trkpt>
      <trkpt lat="43.51494" lon="5.88145">
        <ele>394.28</ele>
        <time>2019-05-12T08:13:49Z</time>
      </trkpt>
      <trkpt lat="43.51496" lon="5.88144">
        <ele>393.32</ele>
        <time>2019-05-12T08:13:50Z</time>
      </trkpt>
      <trkpt lat="43.51498" lon="5.88143">
        <ele>393.32</ele>
        <time>2019-05-12T08:13:51Z</time>
      </trkpt>
      <trkpt lat="43.515" lon="5.88142">
        <ele>393.32</ele>
        <time>2019-05-12T08:13:52Z</time>
      </trkpt>
      <trkpt lat="43.51502" lon="5.88141">
        <ele>395.24</ele>
        <time>2019-05-12T08:13:53Z</time>
      </trkpt>
      <trkpt lat="43.51504" lon="5.88141">
        <ele>394.76</ele>
        <time>2019-05-12T08:13:54Z</time>
      </trkpt>
      <trkpt lat="43.51506" lon="5.88141">
        <ele>394.76</ele>
        <time>2019-05-12T08:13:55Z</time>
      </trkpt>
      <trkpt lat="43.51509" lon="5.88141">
        <ele>395.24</ele>
        <time>2019-05-12T08:13:56Z</time>
      </trkpt>
      <trkpt lat="43.51511" lon="5.88141">
        <ele>395.24</ele>
        <time>2019-05-12T08:13:57Z</time>
      </trkpt>
      <trkpt lat="43.51552" lon="5.88139">
        <ele>395.72</ele>
        <time>2019-05-12T08:14:13Z</time>
      </trkpt>
      <trkpt lat="43.51569" lon="5.88139">
        <ele>395.24</ele>
        <time>2019-05-12T08:14:21Z</time>
      </trkpt>
      <trkpt lat="43.51589" lon="5.8814">
        <ele>396.68</ele>
        <time>2019-05-12T08:14:29Z</time>
      </trkpt>
      <trkpt lat="43.5163" lon="5.88129">
        <ele>397.64</ele>
        <time>2019-05-12T08:14:46Z</time>
      </trkpt>
      <trkpt lat="43.51658" lon="5.88113">
        <ele>396.68</ele>
        <time>2019-05-12T08:14:58Z</time>
      </trkpt>
      <trkpt lat="43.51699" lon="5.88083">
        <ele>395.72</ele>
        <time>2019-05-12T08:15:17Z</time>
      </trkpt>
      <trkpt lat="43.51721" lon="5.88057">
        <ele>395.24</ele>
        <time>2019-05-12T08:15:26Z</time>
      </trkpt>
      <trkpt lat="43.51735" lon="5.88043">
        <ele>394.28</ele>
        <time>2019-05-12T08:15:33Z</time>
      </trkpt>
      <trkpt lat="43.51749" lon="5.88028">
        <ele>394.76</ele>
        <time>2019-05-12T08:15:40Z</time>
      </trkpt>
      <trkpt lat="43.51754" lon="5.88023">
        <ele>393.8</ele>
        <time>2019-05-12T08:15:43Z</time>
      </trkpt>
      <trkpt lat="43.51757" lon="5.88021">
        <ele>393.32</ele>
        <time>2019-05-12T08:15:44Z</time>
      </trkpt>
      <trkpt lat="43.51773" lon="5.88002">
        <ele>389.95</ele>
        <time>2019-05-12T08:15:55Z</time>
      </trkpt>
      <trkpt lat="43.51777" lon="5.87996">
        <ele>388.51</ele>
        <time>2019-05-12T08:15:58Z</time>
      </trkpt>
      <trkpt lat="43.51789" lon="5.87985">
        <ele>388.03</ele>
        <time>2019-05-12T08:16:09Z</time>
      </trkpt>
      <trkpt lat="43.51793" lon="5.87985">
        <ele>388.03</ele>
        <time>2019-05-12T08:16:13Z</time>
      </trkpt>
      <trkpt lat="43.51794" lon="5.87991">
        <ele>386.11</ele>
        <time>2019-05-12T08:16:17Z</time>
      </trkpt>
      <trkpt lat="43.51793" lon="5.88013">
        <ele>384.18</ele>
        <time>2019-05-12T08:16:24Z</time>
      </trkpt>
      <trkpt lat="43.51785" lon="5.88035">
        <ele>381.78</ele>
        <time>2019-05-12T08:16:29Z</time>
      </trkpt>
      <trkpt lat="43.51771" lon="5.88058">
        <ele>380.34</ele>
        <time>2019-05-12T08:16:35Z</time>
      </trkpt>
      <trkpt lat="43.51759" lon="5.88086">
        <ele>376.49</ele>
        <time>2019-05-12T08:16:42Z</time>
      </trkpt>
      <trkpt lat="43.51758" lon="5.8809">
        <ele>376.49</ele>
        <time>2019-05-12T08:16:43Z</time>
      </trkpt>
      <trkpt lat="43.51739" lon="5.88122">
        <ele>373.13</ele>
        <time>2019-05-12T08:16:52Z</time>
      </trkpt>
      <trkpt lat="43.51723" lon="5.88139">
        <ele>371.69</ele>
        <time>2019-05-12T08:16:57Z</time>
      </trkpt>
      <trkpt lat="43.51719" lon="5.88142">
        <ele>371.69</ele>
        <time>2019-05-12T08:16:58Z</time>
      </trkpt>
      <trkpt lat="43.51716" lon="5.88146">
        <ele>371.69</ele>
        <time>2019-05-12T08:16:59Z</time>
      </trkpt>
      <trkpt lat="43.51709" lon="5.88161">
        <ele>369.28</ele>
        <time>2019-05-12T08:17:05Z</time>
      </trkpt>
      <trkpt lat="43.51706" lon="5.88172">
        <ele>365.44</ele>
        <time>2019-05-12T08:17:11Z</time>
      </trkpt>
      <trkpt lat="43.51705" lon="5.88174">
        <ele>365.92</ele>
        <time>2019-05-12T08:17:12Z</time>
      </trkpt>
      <trkpt lat="43.51701" lon="5.882">
        <ele>363.04</ele>
        <time>2019-05-12T08:17:21Z</time>
      </trkpt>
      <trkpt lat="43.51701" lon="5.8821">
        <ele>362.55</ele>
        <time>2019-05-12T08:17:24Z</time>
      </trkpt>
      <trkpt lat="43.517" lon="5.88213">
        <ele>362.55</ele>
        <time>2019-05-12T08:17:25Z</time>
      </trkpt>
      <trkpt lat="43.517" lon="5.88217">
        <ele>362.55</ele>
        <time>2019-05-12T08:17:26Z</time>
      </trkpt>
      <trkpt lat="43.51699" lon="5.88218">
        <ele>362.07</ele>
        <time>2019-05-12T08:17:27Z</time>
      </trkpt>
      <trkpt lat="43.51697" lon="5.88219">
        <ele>362.07</ele>
        <time>2019-05-12T08:17:28Z</time>
      </trkpt>
      <trkpt lat="43.51695" lon="5.8822">
        <ele>362.07</ele>
        <time>2019-05-12T08:17:29Z</time>
      </trkpt>
      <trkpt lat="43.51668" lon="5.8826">
        <ele>360.15</ele>
        <time>2019-05-12T08:17:41Z</time>
      </trkpt>
      <trkpt lat="43.51662" lon="5.88274">
        <ele>361.59</ele>
        <time>2019-05-12T08:17:44Z</time>
      </trkpt>
      <trkpt lat="43.51652" lon="5.88297">
        <ele>360.63</ele>
        <time>2019-05-12T08:17:51Z</time>
      </trkpt>
      <trkpt lat="43.5165" lon="5.88298">
        <ele>360.63</ele>
        <time>2019-05-12T08:17:52Z</time>
      </trkpt>
      <trkpt lat="43.51647" lon="5.88299">
        <ele>359.67</ele>
        <time>2019-05-12T08:17:53Z</time>
      </trkpt>
      <trkpt lat="43.51643" lon="5.883">
        <ele>359.67</ele>
        <time>2019-05-12T08:17:54Z</time>
      </trkpt>
      <trkpt lat="43.5164" lon="5.88304">
        <ele>359.19</ele>
        <time>2019-05-12T08:17:55Z</time>
      </trkpt>
      <trkpt lat="43.51634" lon="5.88303">
        <ele>358.23</ele>
        <time>2019-05-12T08:17:56Z</time>
      </trkpt>
      <trkpt lat="43.5163" lon="5.88306">
        <ele>358.23</ele>
        <time>2019-05-12T08:17:57Z</time>
      </trkpt>
      <trkpt lat="43.51625" lon="5.88303">
        <ele>357.75</ele>
        <time>2019-05-12T08:17:58Z</time>
      </trkpt>
      <trkpt lat="43.5162" lon="5.88301">
        <ele>357.27</ele>
        <time>2019-05-12T08:17:59Z</time>
      </trkpt>
      <trkpt lat="43.51617" lon="5.88301">
        <ele>357.27</ele>
        <time>2019-05-12T08:18:00Z</time>
      </trkpt>
      <trkpt lat="43.51613" lon="5.883">
        <ele>356.31</ele>
        <time>2019-05-12T08:18:01Z</time>
      </trkpt>
      <trkpt lat="43.51602" lon="5.88288">
        <ele>357.75</ele>
        <time>2019-05-12T08:18:04Z</time>
      </trkpt>
      <trkpt lat="43.51576" lon="5.88277">
        <ele>358.71</ele>
        <time>2019-05-12T08:18:10Z</time>
      </trkpt>
      <trkpt lat="43.5157" lon="5.88275">
        <ele>358.71</ele>
        <time>2019-05-12T08:18:12Z</time>
      </trkpt>
      <trkpt lat="43.51568" lon="5.88276">
        <ele>358.71</ele>
        <time>2019-05-12T08:18:13Z</time>
      </trkpt>
      <trkpt lat="43.51565" lon="5.88276">
        <ele>358.71</ele>
        <time>2019-05-12T08:18:14Z</time>
      </trkpt>
      <trkpt lat="43.51562" lon="5.88276">
        <ele>357.27</ele>
        <time>2019-05-12T08:18:15Z</time>
      </trkpt>
      <trkpt lat="43.51558" lon="5.88276">
        <ele>357.27</ele>
        <time>2019-05-12T08:18:16Z</time>
      </trkpt>
      <trkpt lat="43.51554" lon="5.88276">
        <ele>357.27</ele>
        <time>2019-05-12T08:18:17Z</time>
      </trkpt>
      <trkpt lat="43.51551" lon="5.88277">
        <ele>354.86</ele>
        <time>2019-05-12T08:18:18Z</time>
      </trkpt>
      <trkpt lat="43.51548" lon="5.88278">
        <ele>358.23</ele>
        <time>2019-05-12T08:18:19Z</time>
      </trkpt>
      <trkpt lat="43.51537" lon="5.8828">
        <ele>356.31</ele>
        <time>2019-05-12T08:18:23Z</time>
      </trkpt>
      <trkpt lat="43.51535" lon="5.88283">
        <ele>356.31</ele>
        <time>2019-05-12T08:18:24Z</time>
      </trkpt>
      <trkpt lat="43.51502" lon="5.88328">
        <ele>355.83</ele>
        <time>2019-05-12T08:18:37Z</time>
      </trkpt>
      <trkpt lat="43.51498" lon="5.88332">
        <ele>356.31</ele>
        <time>2019-05-12T08:18:38Z</time>
      </trkpt>
      <trkpt lat="43.5149" lon="5.88339">
        <ele>355.83</ele>
        <time>2019-05-12T08:18:40Z</time>
      </trkpt>
      <trkpt lat="43.5148" lon="5.88344">
        <ele>355.83</ele>
        <time>2019-05-12T08:18:42Z</time>
      </trkpt>
      <trkpt lat="43.5147" lon="5.88349">
        <ele>355.34</ele>
        <time>2019-05-12T08:18:44Z</time>
      </trkpt>
      <trkpt lat="43.51465" lon="5.88351">
        <ele>355.34</ele>
        <time>2019-05-12T08:18:45Z</time>
      </trkpt>
      <trkpt lat="43.5146" lon="5.88353">
        <ele>355.34</ele>
        <time>2019-05-12T08:18:46Z</time>
      </trkpt>
      <trkpt lat="43.51455" lon="5.88354">
        <ele>355.34</ele>
        <time>2019-05-12T08:18:47Z</time>
      </trkpt>
      <trkpt lat="43.51449" lon="5.88355">
        <ele>355.34</ele>
        <time>2019-05-12T08:18:48Z</time>
      </trkpt>
      <trkpt lat="43.51444" lon="5.88355">
        <ele>354.38</ele>
        <time>2019-05-12T08:18:49Z</time>
      </trkpt>
      <trkpt lat="43.5144" lon="5.88355">
        <ele>354.38</ele>
        <time>2019-05-12T08:18:50Z</time>
      </trkpt>
      <trkpt lat="43.51435" lon="5.88354">
        <ele>354.38</ele>
        <time>2019-05-12T08:18:51Z</time>
      </trkpt>
      <trkpt lat="43.51431" lon="5.88353">
        <ele>354.38</ele>
        <time>2019-05-12T08:18:52Z</time>
      </trkpt>
      <trkpt lat="43.51426" lon="5.88352">
        <ele>354.38</ele>
        <time>2019-05-12T08:18:53Z</time>
      </trkpt>
      <trkpt lat="43.51422" lon="5.8835">
        <ele>354.38</ele>
        <time>2019-05-12T08:18:54Z</time>
      </trkpt>
      <trkpt lat="43.51418" lon="5.88346">
        <ele>353.9</ele>
        <time>2019-05-12T08:18:55Z</time>
      </trkpt>
      <trkpt lat="43.5139" lon="5.88325">
        <ele>353.9</ele>
        <time>2019-05-12T08:19:02Z</time>
      </trkpt>
      <trkpt lat="43.51349" lon="5.88306">
        <ele>351.98</ele>
        <time>2019-05-12T08:19:13Z</time>
      </trkpt>
      <trkpt lat="43.51346" lon="5.88305">
        <ele>351.98</ele>
        <time>2019-05-12T08:19:14Z</time>
      </trkpt>
      <trkpt lat="43.51318" lon="5.88322">
        <ele>350.54</ele>
        <time>2019-05-12T08:19:25Z</time>
      </trkpt>
      <trkpt lat="43.51297" lon="5.88358">
        <ele>350.54</ele>
        <time>2019-05-12T08:19:35Z</time>
      </trkpt>
      <trkpt lat="43.51273" lon="5.88416">
        <ele>352.46</ele>
        <time>2019-05-12T08:19:46Z</time>
      </trkpt>
      <trkpt lat="43.51261" lon="5.88428">
        <ele>352.46</ele>
        <time>2019-05-12T08:19:56Z</time>
      </trkpt>
      <trkpt lat="43.51256" lon="5.88432">
        <ele>352.46</ele>
        <time>2019-05-12T08:20:20Z</time>
      </trkpt>
      <trkpt lat="43.51241" lon="5.88439">
        <ele>351.02</ele>
        <time>2019-05-12T08:20:31Z</time>
      </trkpt>
      <trkpt lat="43.51205" lon="5.8844">
        <ele>351.02</ele>
        <time>2019-05-12T08:20:42Z</time>
      </trkpt>
      <trkpt lat="43.51198" lon="5.88439">
        <ele>351.02</ele>
        <time>2019-05-12T08:20:53Z</time>
      </trkpt>
      <trkpt lat="43.51195" lon="5.8844">
        <ele>351.02</ele>
        <time>2019-05-12T08:21:04Z</time>
      </trkpt>
      <trkpt lat="43.51197" lon="5.88438">
        <ele>351.02</ele>
        <time>2019-05-12T08:21:11Z</time>
      </trkpt>
      <trkpt lat="43.51199" lon="5.88438">
        <ele>351.02</ele>
        <time>2019-05-12T08:21:12Z</time>
      </trkpt>
      <trkpt lat="43.512" lon="5.88437">
        <ele>351.02</ele>
        <time>2019-05-12T08:21:13Z</time>
      </trkpt>
      <trkpt lat="43.51228" lon="5.88435">
        <ele>351.02</ele>
        <time>2019-05-12T08:21:26Z</time>
      </trkpt>
      <trkpt lat="43.51238" lon="5.88437">
        <ele>351.5</ele>
        <time>2019-05-12T08:21:34Z</time>
      </trkpt>
      <trkpt lat="43.51239" lon="5.88435">
        <ele>351.5</ele>
        <time>2019-05-12T08:21:35Z</time>
      </trkpt>
      <trkpt lat="43.51239" lon="5.88434">
        <ele>351.5</ele>
        <time>2019-05-12T08:21:36Z</time>
      </trkpt>
      <trkpt lat="43.51239" lon="5.88432">
        <ele>351.5</ele>
        <time>2019-05-12T08:21:37Z</time>
      </trkpt>
      <trkpt lat="43.51239" lon="5.88431">
        <ele>351.5</ele>
        <time>2019-05-12T08:21:38Z</time>
      </trkpt>
      <trkpt lat="43.51238" lon="5.8843">
        <ele>351.5</ele>
        <time>2019-05-12T08:21:39Z</time>
      </trkpt>
      <trkpt lat="43.51237" lon="5.88428">
        <ele>351.5</ele>
        <time>2019-05-12T08:21:40Z</time>
      </trkpt>
      <trkpt lat="43.51235" lon="5.88427">
        <ele>350.06</ele>
        <time>2019-05-12T08:21:41Z</time>
      </trkpt>
      <trkpt lat="43.51234" lon="5.88425">
        <ele>349.58</ele>
        <time>2019-05-12T08:21:42Z</time>
      </trkpt>
      <trkpt lat="43.51231" lon="5.88423">
        <ele>349.58</ele>
        <time>2019-05-12T08:21:43Z</time>
      </trkpt>
      <trkpt lat="43.51222" lon="5.88416">
        <ele>347.65</ele>
        <time>2019-05-12T08:21:47Z</time>
      </trkpt>
      <trkpt lat="43.51205" lon="5.88412">
        <ele>345.73</ele>
        <time>2019-05-12T08:21:52Z</time>
      </trkpt>
      <trkpt lat="43.512" lon="5.88414">
        <ele>345.73</ele>
        <time>2019-05-12T08:21:53Z</time>
      </trkpt>
      <trkpt lat="43.51196" lon="5.88417">
        <ele>345.73</ele>
        <time>2019-05-12T08:21:54Z</time>
      </trkpt>
      <trkpt lat="43.51179" lon="5.88433">
        <ele>344.29</ele>
        <time>2019-05-12T08:22:01Z</time>
      </trkpt>
      <trkpt lat="43.51177" lon="5.88433">
        <ele>344.29</ele>
        <time>2019-05-12T08:22:02Z</time>
      </trkpt>
      <trkpt lat="43.51175" lon="5.88433">
        <ele>344.29</ele>
        <time>2019-05-12T08:22:03Z</time>
      </trkpt>
      <trkpt lat="43.51172" lon="5.88432">
        <ele>344.29</ele>
        <time>2019-05-12T08:22:04Z</time>
      </trkpt>
      <trkpt lat="43.5117" lon="5.88429">
        <ele>342.85</ele>
        <time>2019-05-12T08:22:05Z</time>
      </trkpt>
      <trkpt lat="43.51168" lon="5.88426">
        <ele>342.85</ele>
        <time>2019-05-12T08:22:06Z</time>
      </trkpt>
      <trkpt lat="43.51167" lon="5.88421">
        <ele>343.81</ele>
        <time>2019-05-12T08:22:07Z</time>
      </trkpt>
      <trkpt lat="43.51167" lon="5.88415">
        <ele>343.81</ele>
        <time>2019-05-12T08:22:08Z</time>
      </trkpt>
      <trkpt lat="43.51167" lon="5.8841">
        <ele>343.81</ele>
        <time>2019-05-12T08:22:09Z</time>
      </trkpt>
      <trkpt lat="43.51161" lon="5.88347">
        <ele>342.85</ele>
        <time>2019-05-12T08:22:22Z</time>
      </trkpt>
      <trkpt lat="43.51127" lon="5.88326">
        <ele>340.92</ele>
        <time>2019-05-12T08:22:33Z</time>
      </trkpt>
      <trkpt lat="43.51087" lon="5.88339">
        <ele>339.48</ele>
        <time>2019-05-12T08:22:44Z</time>
      </trkpt>
      <trkpt lat="43.51058" lon="5.88339">
        <ele>339</ele>
        <time>2019-05-12T08:22:56Z</time>
      </trkpt>
      <trkpt lat="43.50997" lon="5.88346">
        <ele>337.08</ele>
        <time>2019-05-12T08:23:09Z</time>
      </trkpt>
      <trkpt lat="43.50943" lon="5.88362">
        <ele>334.68</ele>
        <time>2019-05-12T08:23:22Z</time>
      </trkpt>
      <trkpt lat="43.50898" lon="5.88406">
        <ele>335.64</ele>
        <time>2019-05-12T08:23:35Z</time>
      </trkpt>
      <trkpt lat="43.50874" lon="5.88429">
        <ele>334.68</ele>
        <time>2019-05-12T08:23:42Z</time>
      </trkpt>
      <trkpt lat="43.50869" lon="5.88434">
        <ele>334.68</ele>
        <time>2019-05-12T08:23:43Z</time>
      </trkpt>
      <trkpt lat="43.50865" lon="5.88436">
        <ele>334.68</ele>
        <time>2019-05-12T08:23:44Z</time>
      </trkpt>
      <trkpt lat="43.50861" lon="5.88436">
        <ele>334.68</ele>
        <time>2019-05-12T08:23:45Z</time>
      </trkpt>
      <trkpt lat="43.50855" lon="5.88435">
        <ele>334.68</ele>
        <time>2019-05-12T08:23:46Z</time>
      </trkpt>
      <trkpt lat="43.50851" lon="5.88433">
        <ele>334.68</ele>
        <time>2019-05-12T08:23:47Z</time>
      </trkpt>
      <trkpt lat="43.50846" lon="5.88429">
        <ele>334.68</ele>
        <time>2019-05-12T08:23:48Z</time>
      </trkpt>
      <trkpt lat="43.50841" lon="5.88426">
        <ele>334.2</ele>
        <time>2019-05-12T08:23:49Z</time>
      </trkpt>
      <trkpt lat="43.5084" lon="5.88421">
        <ele>334.2</ele>
        <time>2019-05-12T08:23:50Z</time>
      </trkpt>
      <trkpt lat="43.50839" lon="5.88416">
        <ele>333.71</ele>
        <time>2019-05-12T08:23:51Z</time>
      </trkpt>
      <trkpt lat="43.50838" lon="5.88411">
        <ele>333.23</ele>
        <time>2019-05-12T08:23:52Z</time>
      </trkpt>
      <trkpt lat="43.50838" lon="5.88406">
        <ele>333.23</ele>
        <time>2019-05-12T08:23:53Z</time>
      </trkpt>
      <trkpt lat="43.50836" lon="5.88362">
        <ele>332.75</ele>
        <time>2019-05-12T08:24:00Z</time>
      </trkpt>
      <trkpt lat="43.50836" lon="5.88356">
        <ele>332.75</ele>
        <time>2019-05-12T08:24:01Z</time>
      </trkpt>
      <trkpt lat="43.50834" lon="5.88349">
        <ele>332.75</ele>
        <time>2019-05-12T08:24:02Z</time>
      </trkpt>
      <trkpt lat="43.50832" lon="5.88344">
        <ele>332.75</ele>
        <time>2019-05-12T08:24:03Z</time>
      </trkpt>
      <trkpt lat="43.5083" lon="5.88341">
        <ele>332.75</ele>
        <time>2019-05-12T08:24:04Z</time>
      </trkpt>
      <trkpt lat="43.50827" lon="5.88337">
        <ele>332.27</ele>
        <time>2019-05-12T08:24:05Z</time>
      </trkpt>
      <trkpt lat="43.50824" lon="5.88335">
        <ele>332.27</ele>
        <time>2019-05-12T08:24:06Z</time>
      </trkpt>
      <trkpt lat="43.50821" lon="5.88334">
        <ele>331.79</ele>
        <time>2019-05-12T08:24:07Z</time>
      </trkpt>
      <trkpt lat="43.50792" lon="5.88325">
        <ele>331.79</ele>
        <time>2019-05-12T08:24:15Z</time>
      </trkpt>
      <trkpt lat="43.50787" lon="5.88325">
        <ele>331.31</ele>
        <time>2019-05-12T08:24:16Z</time>
      </trkpt>
      <trkpt lat="43.5075" lon="5.88342">
        <ele>332.75</ele>
        <time>2019-05-12T08:24:25Z</time>
      </trkpt>
      <trkpt lat="43.50748" lon="5.88344">
        <ele>331.31</ele>
        <time>2019-05-12T08:24:26Z</time>
      </trkpt>
      <trkpt lat="43.50743" lon="5.88347">
        <ele>331.31</ele>
        <time>2019-05-12T08:24:27Z</time>
      </trkpt>
      <trkpt lat="43.50739" lon="5.88352">
        <ele>331.31</ele>
        <time>2019-05-12T08:24:28Z</time>
      </trkpt>
      <trkpt lat="43.50721" lon="5.88393">
        <ele>329.87</ele>
        <time>2019-05-12T08:24:35Z</time>
      </trkpt>
      <trkpt lat="43.50717" lon="5.88399">
        <ele>329.87</ele>
        <time>2019-05-12T08:24:36Z</time>
      </trkpt>
      <trkpt lat="43.50712" lon="5.88405">
        <ele>329.39</ele>
        <time>2019-05-12T08:24:37Z</time>
      </trkpt>
      <trkpt lat="43.50709" lon="5.88412">
        <ele>328.43</ele>
        <time>2019-05-12T08:24:38Z</time>
      </trkpt>
      <trkpt lat="43.50705" lon="5.88418">
        <ele>328.43</ele>
        <time>2019-05-12T08:24:39Z</time>
      </trkpt>
      <trkpt lat="43.50701" lon="5.88424">
        <ele>324.58</ele>
        <time>2019-05-12T08:24:40Z</time>
      </trkpt>
      <trkpt lat="43.50694" lon="5.88434">
        <ele>328.91</ele>
        <time>2019-05-12T08:24:42Z</time>
      </trkpt>
      <trkpt lat="43.5069" lon="5.88438">
        <ele>326.99</ele>
        <time>2019-05-12T08:24:43Z</time>
      </trkpt>
      <trkpt lat="43.50684" lon="5.88442">
        <ele>326.99</ele>
        <time>2019-05-12T08:24:44Z</time>
      </trkpt>
      <trkpt lat="43.50679" lon="5.88445">
        <ele>326.5</ele>
        <time>2019-05-12T08:24:45Z</time>
      </trkpt>
      <trkpt lat="43.50672" lon="5.88447">
        <ele>326.5</ele>
        <time>2019-05-12T08:24:46Z</time>
      </trkpt>
      <trkpt lat="43.50667" lon="5.8845">
        <ele>325.54</ele>
        <time>2019-05-12T08:24:47Z</time>
      </trkpt>
      <trkpt lat="43.50661" lon="5.88452">
        <ele>326.99</ele>
        <time>2019-05-12T08:24:48Z</time>
      </trkpt>
      <trkpt lat="43.50656" lon="5.88453">
        <ele>326.99</ele>
        <time>2019-05-12T08:24:49Z</time>
      </trkpt>
      <trkpt lat="43.50651" lon="5.88455">
        <ele>326.99</ele>
        <time>2019-05-12T08:24:50Z</time>
      </trkpt>
      <trkpt lat="43.50648" lon="5.88458">
        <ele>326.99</ele>
        <time>2019-05-12T08:24:51Z</time>
      </trkpt>
      <trkpt lat="43.50636" lon="5.88461">
        <ele>327.47</ele>
        <time>2019-05-12T08:24:59Z</time>
      </trkpt>
      <trkpt lat="43.50636" lon="5.88455">
        <ele>327.47</ele>
        <time>2019-05-12T08:25:08Z</time>
      </trkpt>
      <trkpt lat="43.50633" lon="5.88455">
        <ele>327.47</ele>
        <time>2019-05-12T08:25:11Z</time>
      </trkpt>
      <trkpt lat="43.50631" lon="5.88456">
        <ele>327.47</ele>
        <time>2019-05-12T08:25:12Z</time>
      </trkpt>
      <trkpt lat="43.50628" lon="5.88457">
        <ele>327.47</ele>
        <time>2019-05-12T08:25:13Z</time>
      </trkpt>
      <trkpt lat="43.50607" lon="5.88455">
        <ele>325.54</ele>
        <time>2019-05-12T08:25:24Z</time>
      </trkpt>
      <trkpt lat="43.50604" lon="5.88455">
        <ele>325.54</ele>
        <time>2019-05-12T08:25:33Z</time>
      </trkpt>
      <trkpt lat="43.50603" lon="5.88457">
        <ele>325.54</ele>
        <time>2019-05-12T08:25:34Z</time>
      </trkpt>
      <trkpt lat="43.50601" lon="5.88459">
        <ele>325.06</ele>
        <time>2019-05-12T08:25:35Z</time>
      </trkpt>
      <trkpt lat="43.50598" lon="5.88461">
        <ele>325.06</ele>
        <time>2019-05-12T08:25:36Z</time>
      </trkpt>
      <trkpt lat="43.50595" lon="5.88463">
        <ele>325.06</ele>
        <time>2019-05-12T08:25:37Z</time>
      </trkpt>
      <trkpt lat="43.50592" lon="5.88466">
        <ele>324.58</ele>
        <time>2019-05-12T08:25:38Z</time>
      </trkpt>
      <trkpt lat="43.50588" lon="5.88468">
        <ele>324.58</ele>
        <time>2019-05-12T08:25:39Z</time>
      </trkpt>
      <trkpt lat="43.50584" lon="5.8847">
        <ele>324.58</ele>
        <time>2019-05-12T08:25:40Z</time>
      </trkpt>
      <trkpt lat="43.50581" lon="5.88473">
        <ele>324.58</ele>
        <time>2019-05-12T08:25:41Z</time>
      </trkpt>
      <trkpt lat="43.5054" lon="5.88529">
        <ele>325.54</ele>
        <time>2019-05-12T08:25:54Z</time>
      </trkpt>
      <trkpt lat="43.50532" lon="5.8854">
        <ele>323.62</ele>
        <time>2019-05-12T08:25:56Z</time>
      </trkpt>
      <trkpt lat="43.50528" lon="5.88546">
        <ele>323.62</ele>
        <time>2019-05-12T08:25:57Z</time>
      </trkpt>
      <trkpt lat="43.50514" lon="5.88562">
        <ele>323.62</ele>
        <time>2019-05-12T08:26:00Z</time>
      </trkpt>
      <trkpt lat="43.50508" lon="5.88566">
        <ele>323.62</ele>
        <time>2019-05-12T08:26:01Z</time>
      </trkpt>
      <trkpt lat="43.50486" lon="5.88585">
        <ele>322.66</ele>
        <time>2019-05-12T08:26:05Z</time>
      </trkpt>
      <trkpt lat="43.50468" lon="5.88597">
        <ele>322.66</ele>
        <time>2019-05-12T08:26:08Z</time>
      </trkpt>
      <trkpt lat="43.5041" lon="5.88636">
        <ele>320.26</ele>
        <time>2019-05-12T08:26:19Z</time>
      </trkpt>
      <trkpt lat="43.50376" lon="5.88664">
        <ele>319.78</ele>
        <time>2019-05-12T08:26:27Z</time>
      </trkpt>
      <trkpt lat="43.50353" lon="5.88678">
        <ele>317.85</ele>
        <time>2019-05-12T08:26:37Z</time>
      </trkpt>
      <trkpt lat="43.50363" lon="5.88733">
        <ele>317.85</ele>
        <time>2019-05-12T08:26:48Z</time>
      </trkpt>
      <trkpt lat="43.50364" lon="5.88739">
        <ele>317.85</ele>
        <time>2019-05-12T08:26:49Z</time>
      </trkpt>
      <trkpt lat="43.50367" lon="5.88811">
        <ele>320.26</ele>
        <time>2019-05-12T08:27:04Z</time>
      </trkpt>
      <trkpt lat="43.50368" lon="5.8882">
        <ele>318.33</ele>
        <time>2019-05-12T08:27:06Z</time>
      </trkpt>
      <trkpt lat="43.50369" lon="5.88829">
        <ele>320.26</ele>
        <time>2019-05-12T08:27:08Z</time>
      </trkpt>
      <trkpt lat="43.50376" lon="5.88859">
        <ele>322.66</ele>
        <time>2019-05-12T08:27:14Z</time>
      </trkpt>
      <trkpt lat="43.50391" lon="5.88912">
        <ele>323.14</ele>
        <time>2019-05-12T08:27:28Z</time>
      </trkpt>
      <trkpt lat="43.50401" lon="5.88956">
        <ele>322.18</ele>
        <time>2019-05-12T08:27:36Z</time>
      </trkpt>
      <trkpt lat="43.50415" lon="5.89003">
        <ele>323.62</ele>
        <time>2019-05-12T08:27:44Z</time>
      </trkpt>
      <trkpt lat="43.50433" lon="5.89076">
        <ele>321.7</ele>
        <time>2019-05-12T08:27:59Z</time>
      </trkpt>
      <trkpt lat="43.50443" lon="5.89113">
        <ele>320.74</ele>
        <time>2019-05-12T08:28:09Z</time>
      </trkpt>
      <trkpt lat="43.50463" lon="5.89126">
        <ele>324.1</ele>
        <time>2019-05-12T08:28:20Z</time>
      </trkpt>
      <trkpt lat="43.50479" lon="5.89159">
        <ele>325.06</ele>
        <time>2019-05-12T08:28:32Z</time>
      </trkpt>
      <trkpt lat="43.50476" lon="5.89187">
        <ele>324.1</ele>
        <time>2019-05-12T08:28:38Z</time>
      </trkpt>
      <trkpt lat="43.50476" lon="5.89193">
        <ele>324.1</ele>
        <time>2019-05-12T08:28:39Z</time>
      </trkpt>
      <trkpt lat="43.50477" lon="5.89198">
        <ele>324.1</ele>
        <time>2019-05-12T08:28:40Z</time>
      </trkpt>
      <trkpt lat="43.50479" lon="5.89204">
        <ele>324.1</ele>
        <time>2019-05-12T08:28:41Z</time>
      </trkpt>
      <trkpt lat="43.50481" lon="5.89209">
        <ele>324.1</ele>
        <time>2019-05-12T08:28:42Z</time>
      </trkpt>
      <trkpt lat="43.50491" lon="5.89239">
        <ele>325.54</ele>
        <time>2019-05-12T08:28:48Z</time>
      </trkpt>
      <trkpt lat="43.50482" lon="5.89276">
        <ele>324.58</ele>
        <time>2019-05-12T08:28:57Z</time>
      </trkpt>
      <trkpt lat="43.50454" lon="5.89338">
        <ele>324.1</ele>
        <time>2019-05-12T08:29:10Z</time>
      </trkpt>
      <trkpt lat="43.50455" lon="5.89343">
        <ele>324.1</ele>
        <time>2019-05-12T08:29:11Z</time>
      </trkpt>
      <trkpt lat="43.50456" lon="5.89347">
        <ele>325.54</ele>
        <time>2019-05-12T08:29:12Z</time>
      </trkpt>
      <trkpt lat="43.50458" lon="5.89351">
        <ele>325.54</ele>
        <time>2019-05-12T08:29:13Z</time>
      </trkpt>
      <trkpt lat="43.50459" lon="5.89355">
        <ele>325.54</ele>
        <time>2019-05-12T08:29:14Z</time>
      </trkpt>
      <trkpt lat="43.5046" lon="5.89359">
        <ele>326.02</ele>
        <time>2019-05-12T08:29:15Z</time>
      </trkpt>
      <trkpt lat="43.5046" lon="5.89363">
        <ele>326.02</ele>
        <time>2019-05-12T08:29:16Z</time>
      </trkpt>
      <trkpt lat="43.5046" lon="5.89366">
        <ele>326.5</ele>
        <time>2019-05-12T08:29:17Z</time>
      </trkpt>
      <trkpt lat="43.50459" lon="5.8937">
        <ele>326.5</ele>
        <time>2019-05-12T08:29:18Z</time>
      </trkpt>
      <trkpt lat="43.50458" lon="5.89372">
        <ele>326.5</ele>
        <time>2019-05-12T08:29:19Z</time>
      </trkpt>
      <trkpt lat="43.50456" lon="5.89374">
        <ele>326.5</ele>
        <time>2019-05-12T08:29:20Z</time>
      </trkpt>
      <trkpt lat="43.50454" lon="5.89375">
        <ele>326.5</ele>
        <time>2019-05-12T08:29:21Z</time>
      </trkpt>
      <trkpt lat="43.50452" lon="5.89376">
        <ele>325.06</ele>
        <time>2019-05-12T08:29:22Z</time>
      </trkpt>
      <trkpt lat="43.50448" lon="5.89376">
        <ele>325.06</ele>
        <time>2019-05-12T08:29:23Z</time>
      </trkpt>
      <trkpt lat="43.50424" lon="5.89375">
        <ele>322.66</ele>
        <time>2019-05-12T08:29:28Z</time>
      </trkpt>
      <trkpt lat="43.50392" lon="5.89377">
        <ele>320.26</ele>
        <time>2019-05-12T08:29:33Z</time>
      </trkpt>
      <trkpt lat="43.50382" lon="5.89378">
        <ele>318.33</ele>
        <time>2019-05-12T08:29:35Z</time>
      </trkpt>
      <trkpt lat="43.50377" lon="5.8938">
        <ele>317.85</ele>
        <time>2019-05-12T08:29:36Z</time>
      </trkpt>
      <trkpt lat="43.50367" lon="5.89385">
        <ele>316.89</ele>
        <time>2019-05-12T08:29:38Z</time>
      </trkpt>
      <trkpt lat="43.50362" lon="5.89388">
        <ele>315.93</ele>
        <time>2019-05-12T08:29:39Z</time>
      </trkpt>
      <trkpt lat="43.50357" lon="5.8939">
        <ele>315.93</ele>
        <time>2019-05-12T08:29:40Z</time>
      </trkpt>
      <trkpt lat="43.50332" lon="5.89396">
        <ele>314.49</ele>
        <time>2019-05-12T08:29:44Z</time>
      </trkpt>
      <trkpt lat="43.50325" lon="5.89398">
        <ele>313.05</ele>
        <time>2019-05-12T08:29:45Z</time>
      </trkpt>
      <trkpt lat="43.50318" lon="5.89402">
        <ele>313.53</ele>
        <time>2019-05-12T08:29:46Z</time>
      </trkpt>
      <trkpt lat="43.50301" lon="5.89415">
        <ele>311.12</ele>
        <time>2019-05-12T08:29:49Z</time>
      </trkpt>
      <trkpt lat="43.50297" lon="5.89419">
        <ele>309.68</ele>
        <time>2019-05-12T08:29:50Z</time>
      </trkpt>
      <trkpt lat="43.50285" lon="5.89438">
        <ele>308.72</ele>
        <time>2019-05-12T08:29:54Z</time>
      </trkpt>
      <trkpt lat="43.5028" lon="5.89448">
        <ele>310.64</ele>
        <time>2019-05-12T08:29:57Z</time>
      </trkpt>
      <trkpt lat="43.50274" lon="5.8946">
        <ele>311.12</ele>
        <time>2019-05-12T08:30:03Z</time>
      </trkpt>
      <trkpt lat="43.50273" lon="5.89462">
        <ele>311.12</ele>
        <time>2019-05-12T08:30:04Z</time>
      </trkpt>
      <trkpt lat="43.50272" lon="5.89466">
        <ele>311.12</ele>
        <time>2019-05-12T08:30:05Z</time>
      </trkpt>
      <trkpt lat="43.50258" lon="5.8952">
        <ele>310.64</ele>
        <time>2019-05-12T08:30:14Z</time>
      </trkpt>
      <trkpt lat="43.50253" lon="5.89548">
        <ele>309.2</ele>
        <time>2019-05-12T08:30:19Z</time>
      </trkpt>
      <trkpt lat="43.5025" lon="5.89573">
        <ele>310.64</ele>
        <time>2019-05-12T08:30:23Z</time>
      </trkpt>
      <trkpt lat="43.50246" lon="5.8962">
        <ele>314.49</ele>
        <time>2019-05-12T08:30:33Z</time>
      </trkpt>
      <trkpt lat="43.50245" lon="5.89624">
        <ele>314.49</ele>
        <time>2019-05-12T08:30:34Z</time>
      </trkpt>
      <trkpt lat="43.50244" lon="5.89629">
        <ele>314.49</ele>
        <time>2019-05-12T08:30:35Z</time>
      </trkpt>
      <trkpt lat="43.50244" lon="5.89635">
        <ele>312.57</ele>
        <time>2019-05-12T08:30:36Z</time>
      </trkpt>
      <trkpt lat="43.50242" lon="5.89673">
        <ele>313.05</ele>
        <time>2019-05-12T08:30:45Z</time>
      </trkpt>
      <trkpt lat="43.50242" lon="5.89675">
        <ele>313.05</ele>
        <time>2019-05-12T08:30:46Z</time>
      </trkpt>
      <trkpt lat="43.50244" lon="5.89684">
        <ele>314.01</ele>
        <time>2019-05-12T08:30:49Z</time>
      </trkpt>
      <trkpt lat="43.50244" lon="5.89687">
        <ele>314.49</ele>
        <time>2019-05-12T08:30:50Z</time>
      </trkpt>
      <trkpt lat="43.50244" lon="5.8969">
        <ele>314.97</ele>
        <time>2019-05-12T08:30:51Z</time>
      </trkpt>
      <trkpt lat="43.50244" lon="5.89692">
        <ele>314.97</ele>
        <time>2019-05-12T08:30:52Z</time>
      </trkpt>
      <trkpt lat="43.50244" lon="5.89694">
        <ele>314.97</ele>
        <time>2019-05-12T08:30:53Z</time>
      </trkpt>
      <trkpt lat="43.50244" lon="5.89696">
        <ele>315.45</ele>
        <time>2019-05-12T08:30:54Z</time>
      </trkpt>
      <trkpt lat="43.50243" lon="5.89698">
        <ele>315.45</ele>
        <time>2019-05-12T08:30:55Z</time>
      </trkpt>
      <trkpt lat="43.50243" lon="5.897">
        <ele>315.45</ele>
        <time>2019-05-12T08:30:56Z</time>
      </trkpt>
      <trkpt lat="43.50242" lon="5.89702">
        <ele>315.45</ele>
        <time>2019-05-12T08:30:57Z</time>
      </trkpt>
      <trkpt lat="43.50236" lon="5.89719">
        <ele>312.57</ele>
        <time>2019-05-12T08:31:02Z</time>
      </trkpt>
      <trkpt lat="43.50235" lon="5.89722">
        <ele>312.57</ele>
        <time>2019-05-12T08:31:03Z</time>
      </trkpt>
      <trkpt lat="43.50227" lon="5.89748">
        <ele>312.09</ele>
        <time>2019-05-12T08:31:11Z</time>
      </trkpt>
      <trkpt lat="43.50225" lon="5.89754">
        <ele>311.12</ele>
        <time>2019-05-12T08:31:22Z</time>
      </trkpt>
      <trkpt lat="43.50222" lon="5.89754">
        <ele>309.68</ele>
        <time>2019-05-12T08:31:26Z</time>
      </trkpt>
      <trkpt lat="43.50221" lon="5.89755">
        <ele>309.68</ele>
        <time>2019-05-12T08:31:27Z</time>
      </trkpt>
      <trkpt lat="43.5022" lon="5.89757">
        <ele>309.68</ele>
        <time>2019-05-12T08:31:28Z</time>
      </trkpt>
      <trkpt lat="43.50219" lon="5.89761">
        <ele>309.68</ele>
        <time>2019-05-12T08:31:29Z</time>
      </trkpt>
      <trkpt lat="43.50218" lon="5.89766">
        <ele>309.68</ele>
        <time>2019-05-12T08:31:30Z</time>
      </trkpt>
      <trkpt lat="43.50218" lon="5.8977">
        <ele>309.68</ele>
        <time>2019-05-12T08:31:31Z</time>
      </trkpt>
      <trkpt lat="43.50216" lon="5.89789">
        <ele>307.76</ele>
        <time>2019-05-12T08:31:37Z</time>
      </trkpt>
      <trkpt lat="43.50213" lon="5.89796">
        <ele>309.2</ele>
        <time>2019-05-12T08:31:53Z</time>
      </trkpt>
      <trkpt lat="43.50212" lon="5.89798">
        <ele>309.2</ele>
        <time>2019-05-12T08:31:59Z</time>
      </trkpt>
      <trkpt lat="43.5021" lon="5.898">
        <ele>309.2</ele>
        <time>2019-05-12T08:32:00Z</time>
      </trkpt>
      <trkpt lat="43.50207" lon="5.89803">
        <ele>307.76</ele>
        <time>2019-05-12T08:32:08Z</time>
      </trkpt>
      <trkpt lat="43.50201" lon="5.89807">
        <ele>304.88</ele>
        <time>2019-05-12T08:32:20Z</time>
      </trkpt>
      <trkpt lat="43.50198" lon="5.89808">
        <ele>304.88</ele>
        <time>2019-05-12T08:32:38Z</time>
      </trkpt>
      <trkpt lat="43.50198" lon="5.8981">
        <ele>305.84</ele>
        <time>2019-05-12T08:32:59Z</time>
      </trkpt>
      <trkpt lat="43.50198" lon="5.89811">
        <ele>305.84</ele>
        <time>2019-05-12T08:33:00Z</time>
      </trkpt>
      <trkpt lat="43.50199" lon="5.89815">
        <ele>305.84</ele>
        <time>2019-05-12T08:33:03Z</time>
      </trkpt>
      <trkpt lat="43.50201" lon="5.8982">
        <ele>305.84</ele>
        <time>2019-05-12T08:33:06Z</time>
      </trkpt>
      <trkpt lat="43.50203" lon="5.89823">
        <ele>305.84</ele>
        <time>2019-05-12T08:33:07Z</time>
      </trkpt>
      <trkpt lat="43.50219" lon="5.89853">
        <ele>309.2</ele>
        <time>2019-05-12T08:33:16Z</time>
      </trkpt>
      <trkpt lat="43.50241" lon="5.8989">
        <ele>312.57</ele>
        <time>2019-05-12T08:33:29Z</time>
      </trkpt>
      <trkpt lat="43.5027" lon="5.89924">
        <ele>315.45</ele>
        <time>2019-05-12T08:33:45Z</time>
      </trkpt>
      <trkpt lat="43.50295" lon="5.89957">
        <ele>316.89</ele>
        <time>2019-05-12T08:34:00Z</time>
      </trkpt>
      <trkpt lat="43.50317" lon="5.89975">
        <ele>318.81</ele>
        <time>2019-05-12T08:34:12Z</time>
      </trkpt>
      <trkpt lat="43.50318" lon="5.9">
        <ele>317.37</ele>
        <time>2019-05-12T08:34:20Z</time>
      </trkpt>
      <trkpt lat="43.50313" lon="5.90027">
        <ele>313.53</ele>
        <time>2019-05-12T08:34:25Z</time>
      </trkpt>
      <trkpt lat="43.50311" lon="5.90034">
        <ele>312.57</ele>
        <time>2019-05-12T08:34:26Z</time>
      </trkpt>
      <trkpt lat="43.50308" lon="5.90042">
        <ele>311.6</ele>
        <time>2019-05-12T08:34:27Z</time>
      </trkpt>
      <trkpt lat="43.50305" lon="5.9005">
        <ele>311.6</ele>
        <time>2019-05-12T08:34:28Z</time>
      </trkpt>
      <trkpt lat="43.50295" lon="5.90074">
        <ele>309.68</ele>
        <time>2019-05-12T08:34:31Z</time>
      </trkpt>
      <trkpt lat="43.50289" lon="5.90091">
        <ele>305.84</ele>
        <time>2019-05-12T08:34:33Z</time>
      </trkpt>
      <trkpt lat="43.50286" lon="5.901">
        <ele>305.84</ele>
        <time>2019-05-12T08:34:34Z</time>
      </trkpt>
      <trkpt lat="43.50267" lon="5.90161">
        <ele>302.47</ele>
        <time>2019-05-12T08:34:40Z</time>
      </trkpt>
      <trkpt lat="43.50264" lon="5.9017">
        <ele>302.47</ele>
        <time>2019-05-12T08:34:41Z</time>
      </trkpt>
      <trkpt lat="43.50259" lon="5.90188">
        <ele>301.51</ele>
        <time>2019-05-12T08:34:43Z</time>
      </trkpt>
      <trkpt lat="43.50252" lon="5.90252">
        <ele>300.07</ele>
        <time>2019-05-12T08:34:50Z</time>
      </trkpt>
      <trkpt lat="43.50253" lon="5.90261">
        <ele>300.07</ele>
        <time>2019-05-12T08:34:51Z</time>
      </trkpt>
      <trkpt lat="43.50258" lon="5.90304">
        <ele>301.51</ele>
        <time>2019-05-12T08:34:57Z</time>
      </trkpt>
      <trkpt lat="43.50258" lon="5.90367">
        <ele>299.59</ele>
        <time>2019-05-12T08:35:10Z</time>
      </trkpt>
      <trkpt lat="43.50241" lon="5.90424">
        <ele>299.11</ele>
        <time>2019-05-12T08:35:22Z</time>
      </trkpt>
      <trkpt lat="43.5024" lon="5.90428">
        <ele>299.11</ele>
        <time>2019-05-12T08:35:23Z</time>
      </trkpt>
      <trkpt lat="43.50247" lon="5.90441">
        <ele>298.15</ele>
        <time>2019-05-12T08:35:31Z</time>
      </trkpt>
      <trkpt lat="43.50248" lon="5.90446">
        <ele>299.59</ele>
        <time>2019-05-12T08:35:33Z</time>
      </trkpt>
      <trkpt lat="43.50253" lon="5.90485">
        <ele>300.55</ele>
        <time>2019-05-12T08:35:44Z</time>
      </trkpt>
      <trkpt lat="43.50264" lon="5.90531">
        <ele>302.47</ele>
        <time>2019-05-12T08:35:56Z</time>
      </trkpt>
      <trkpt lat="43.5027" lon="5.90584">
        <ele>304.39</ele>
        <time>2019-05-12T08:36:09Z</time>
      </trkpt>
      <trkpt lat="43.50271" lon="5.90589">
        <ele>304.39</ele>
        <time>2019-05-12T08:36:10Z</time>
      </trkpt>
      <trkpt lat="43.50267" lon="5.906">
        <ele>304.39</ele>
        <time>2019-05-12T08:36:14Z</time>
      </trkpt>
      <trkpt lat="43.50264" lon="5.90602">
        <ele>304.39</ele>
        <time>2019-05-12T08:36:15Z</time>
      </trkpt>
      <trkpt lat="43.50253" lon="5.90608">
        <ele>300.07</ele>
        <time>2019-05-12T08:36:18Z</time>
      </trkpt>
      <trkpt lat="43.50249" lon="5.9061">
        <ele>301.99</ele>
        <time>2019-05-12T08:36:19Z</time>
      </trkpt>
      <trkpt lat="43.5024" lon="5.90613">
        <ele>298.63</ele>
        <time>2019-05-12T08:36:21Z</time>
      </trkpt>
      <trkpt lat="43.50236" lon="5.90614">
        <ele>297.67</ele>
        <time>2019-05-12T08:36:22Z</time>
      </trkpt>
      <trkpt lat="43.50232" lon="5.90617">
        <ele>296.22</ele>
        <time>2019-05-12T08:36:23Z</time>
      </trkpt>
      <trkpt lat="43.50229" lon="5.9062">
        <ele>294.78</ele>
        <time>2019-05-12T08:36:24Z</time>
      </trkpt>
      <trkpt lat="43.50225" lon="5.90625">
        <ele>294.78</ele>
        <time>2019-05-12T08:36:25Z</time>
      </trkpt>
      <trkpt lat="43.50222" lon="5.9063">
        <ele>294.78</ele>
        <time>2019-05-12T08:36:26Z</time>
      </trkpt>
      <trkpt lat="43.5022" lon="5.90635">
        <ele>294.3</ele>
        <time>2019-05-12T08:36:27Z</time>
      </trkpt>
      <trkpt lat="43.50217" lon="5.90641">
        <ele>294.3</ele>
        <time>2019-05-12T08:36:28Z</time>
      </trkpt>
      <trkpt lat="43.50215" lon="5.90648">
        <ele>293.34</ele>
        <time>2019-05-12T08:36:29Z</time>
      </trkpt>
      <trkpt lat="43.50213" lon="5.90659">
        <ele>291.42</ele>
        <time>2019-05-12T08:36:31Z</time>
      </trkpt>
      <trkpt lat="43.50213" lon="5.90671">
        <ele>290.94</ele>
        <time>2019-05-12T08:36:33Z</time>
      </trkpt>
      <trkpt lat="43.50213" lon="5.90677">
        <ele>290.46</ele>
        <time>2019-05-12T08:36:34Z</time>
      </trkpt>
      <trkpt lat="43.50214" lon="5.90683">
        <ele>289.49</ele>
        <time>2019-05-12T08:36:35Z</time>
      </trkpt>
      <trkpt lat="43.50215" lon="5.90687">
        <ele>289.49</ele>
        <time>2019-05-12T08:36:36Z</time>
      </trkpt>
      <trkpt lat="43.50217" lon="5.90721">
        <ele>287.57</ele>
        <time>2019-05-12T08:36:48Z</time>
      </trkpt>
      <trkpt lat="43.50219" lon="5.90726">
        <ele>287.09</ele>
        <time>2019-05-12T08:36:49Z</time>
      </trkpt>
      <trkpt lat="43.50221" lon="5.90731">
        <ele>287.09</ele>
        <time>2019-05-12T08:36:50Z</time>
      </trkpt>
      <trkpt lat="43.5025" lon="5.90776">
        <ele>287.09</ele>
        <time>2019-05-12T08:37:00Z</time>
      </trkpt>
      <trkpt lat="43.50254" lon="5.90779">
        <ele>287.09</ele>
        <time>2019-05-12T08:37:01Z</time>
      </trkpt>
      <trkpt lat="43.50258" lon="5.90783">
        <ele>287.09</ele>
        <time>2019-05-12T08:37:02Z</time>
      </trkpt>
      <trkpt lat="43.50262" lon="5.90785">
        <ele>287.09</ele>
        <time>2019-05-12T08:37:03Z</time>
      </trkpt>
      <trkpt lat="43.50267" lon="5.90787">
        <ele>287.09</ele>
        <time>2019-05-12T08:37:04Z</time>
      </trkpt>
      <trkpt lat="43.50271" lon="5.90789">
        <ele>287.09</ele>
        <time>2019-05-12T08:37:05Z</time>
      </trkpt>
      <trkpt lat="43.5031" lon="5.90807">
        <ele>285.65</ele>
        <time>2019-05-12T08:37:14Z</time>
      </trkpt>
      <trkpt lat="43.50313" lon="5.90811">
        <ele>285.65</ele>
        <time>2019-05-12T08:37:15Z</time>
      </trkpt>
      <trkpt lat="43.50315" lon="5.90815">
        <ele>285.17</ele>
        <time>2019-05-12T08:37:16Z</time>
      </trkpt>
      <trkpt lat="43.50315" lon="5.90819">
        <ele>285.17</ele>
        <time>2019-05-12T08:37:17Z</time>
      </trkpt>
      <trkpt lat="43.50315" lon="5.90823">
        <ele>285.17</ele>
        <time>2019-05-12T08:37:18Z</time>
      </trkpt>
      <trkpt lat="43.50314" lon="5.90827">
        <ele>285.17</ele>
        <time>2019-05-12T08:37:19Z</time>
      </trkpt>
      <trkpt lat="43.50313" lon="5.90831">
        <ele>285.17</ele>
        <time>2019-05-12T08:37:20Z</time>
      </trkpt>
      <trkpt lat="43.50306" lon="5.90882">
        <ele>285.17</ele>
        <time>2019-05-12T08:37:34Z</time>
      </trkpt>
      <trkpt lat="43.50308" lon="5.90892">
        <ele>285.17</ele>
        <time>2019-05-12T08:37:38Z</time>
      </trkpt>
      <trkpt lat="43.50308" lon="5.90894">
        <ele>285.17</ele>
        <time>2019-05-12T08:37:39Z</time>
      </trkpt>
      <trkpt lat="43.50309" lon="5.90896">
        <ele>285.17</ele>
        <time>2019-05-12T08:37:40Z</time>
      </trkpt>
      <trkpt lat="43.5031" lon="5.90899">
        <ele>285.17</ele>
        <time>2019-05-12T08:37:41Z</time>
      </trkpt>
      <trkpt lat="43.50312" lon="5.90903">
        <ele>285.17</ele>
        <time>2019-05-12T08:37:42Z</time>
      </trkpt>
      <trkpt lat="43.50313" lon="5.90905">
        <ele>285.17</ele>
        <time>2019-05-12T08:37:43Z</time>
      </trkpt>
      <trkpt lat="43.50314" lon="5.90907">
        <ele>285.17</ele>
        <time>2019-05-12T08:37:44Z</time>
      </trkpt>
      <trkpt lat="43.50315" lon="5.90908">
        <ele>285.17</ele>
        <time>2019-05-12T08:37:45Z</time>
      </trkpt>
      <trkpt lat="43.50316" lon="5.90911">
        <ele>285.17</ele>
        <time>2019-05-12T08:37:46Z</time>
      </trkpt>
      <trkpt lat="43.50318" lon="5.90929">
        <ele>285.17</ele>
        <time>2019-05-12T08:37:56Z</time>
      </trkpt>
      <trkpt lat="43.50317" lon="5.9093">
        <ele>285.17</ele>
        <time>2019-05-12T08:37:57Z</time>
      </trkpt>
      <trkpt lat="43.50308" lon="5.90935">
        <ele>284.69</ele>
        <time>2019-05-12T08:38:02Z</time>
      </trkpt>
      <trkpt lat="43.50303" lon="5.90936">
        <ele>284.69</ele>
        <time>2019-05-12T08:38:11Z</time>
      </trkpt>
      <trkpt lat="43.50298" lon="5.90932">
        <ele>284.21</ele>
        <time>2019-05-12T08:38:28Z</time>
      </trkpt>
      <trkpt lat="43.50293" lon="5.90922">
        <ele>283.25</ele>
        <time>2019-05-12T08:38:45Z</time>
      </trkpt>
      <trkpt lat="43.50293" lon="5.9092">
        <ele>282.77</ele>
        <time>2019-05-12T08:39:33Z</time>
      </trkpt>
      <trkpt lat="43.5029" lon="5.90919">
        <ele>282.28</ele>
        <time>2019-05-12T08:40:13Z</time>
      </trkpt>
      <trkpt lat="43.50292" lon="5.90919">
        <ele>283.25</ele>
        <time>2019-05-12T08:40:59Z</time>
      </trkpt>
      <trkpt lat="43.50295" lon="5.90921">
        <ele>283.25</ele>
        <time>2019-05-12T08:41:10Z</time>
      </trkpt>
      <trkpt lat="43.50295" lon="5.90924">
        <ele>283.73</ele>
        <time>2019-05-12T08:41:12Z</time>
      </trkpt>
      <trkpt lat="43.50304" lon="5.90951">
        <ele>284.69</ele>
        <time>2019-05-12T08:41:22Z</time>
      </trkpt>
      <trkpt lat="43.50302" lon="5.9096">
        <ele>284.69</ele>
        <time>2019-05-12T08:41:26Z</time>
      </trkpt>
      <trkpt lat="43.50299" lon="5.90966">
        <ele>285.17</ele>
        <time>2019-05-12T08:41:28Z</time>
      </trkpt>
      <trkpt lat="43.503" lon="5.90972">
        <ele>285.17</ele>
        <time>2019-05-12T08:41:29Z</time>
      </trkpt>
      <trkpt lat="43.50301" lon="5.90975">
        <ele>285.17</ele>
        <time>2019-05-12T08:41:30Z</time>
      </trkpt>
      <trkpt lat="43.50303" lon="5.9098">
        <ele>285.65</ele>
        <time>2019-05-12T08:41:31Z</time>
      </trkpt>
      <trkpt lat="43.50305" lon="5.90985">
        <ele>285.17</ele>
        <time>2019-05-12T08:41:32Z</time>
      </trkpt>
      <trkpt lat="43.5034" lon="5.91048">
        <ele>288.53</ele>
        <time>2019-05-12T08:41:44Z</time>
      </trkpt>
      <trkpt lat="43.50387" lon="5.9113">
        <ele>290.94</ele>
        <time>2019-05-12T08:42:00Z</time>
      </trkpt>
      <trkpt lat="43.50409" lon="5.91179">
        <ele>292.86</ele>
        <time>2019-05-12T08:42:15Z</time>
      </trkpt>
      <trkpt lat="43.50408" lon="5.91181">
        <ele>292.86</ele>
        <time>2019-05-12T08:42:16Z</time>
      </trkpt>
      <trkpt lat="43.50407" lon="5.9118">
        <ele>292.86</ele>
        <time>2019-05-12T08:42:17Z</time>
      </trkpt>
      <trkpt lat="43.50405" lon="5.91179">
        <ele>292.86</ele>
        <time>2019-05-12T08:42:18Z</time>
      </trkpt>
      <trkpt lat="43.50403" lon="5.91176">
        <ele>292.86</ele>
        <time>2019-05-12T08:42:19Z</time>
      </trkpt>
      <trkpt lat="43.50401" lon="5.91174">
        <ele>291.42</ele>
        <time>2019-05-12T08:42:20Z</time>
      </trkpt>
      <trkpt lat="43.50398" lon="5.9117">
        <ele>291.42</ele>
        <time>2019-05-12T08:42:21Z</time>
      </trkpt>
      <trkpt lat="43.50388" lon="5.91155">
        <ele>290.46</ele>
        <time>2019-05-12T08:42:25Z</time>
      </trkpt>
      <trkpt lat="43.50385" lon="5.91152">
        <ele>290.46</ele>
        <time>2019-05-12T08:42:26Z</time>
      </trkpt>
      <trkpt lat="43.50381" lon="5.91149">
        <ele>289.97</ele>
        <time>2019-05-12T08:42:27Z</time>
      </trkpt>
      <trkpt lat="43.50377" lon="5.91148">
        <ele>289.97</ele>
        <time>2019-05-12T08:42:28Z</time>
      </trkpt>
      <trkpt lat="43.50373" lon="5.91149">
        <ele>289.49</ele>
        <time>2019-05-12T08:42:29Z</time>
      </trkpt>
      <trkpt lat="43.5037" lon="5.91153">
        <ele>289.49</ele>
        <time>2019-05-12T08:42:30Z</time>
      </trkpt>
      <trkpt lat="43.50366" lon="5.91157">
        <ele>288.53</ele>
        <time>2019-05-12T08:42:31Z</time>
      </trkpt>
      <trkpt lat="43.50361" lon="5.91163">
        <ele>288.53</ele>
        <time>2019-05-12T08:42:32Z</time>
      </trkpt>
      <trkpt lat="43.50338" lon="5.91185">
        <ele>286.13</ele>
        <time>2019-05-12T08:42:36Z</time>
      </trkpt>
      <trkpt lat="43.50277" lon="5.91234">
        <ele>283.25</ele>
        <time>2019-05-12T08:42:45Z</time>
      </trkpt>
      <trkpt lat="43.5027" lon="5.91239">
        <ele>283.25</ele>
        <time>2019-05-12T08:42:46Z</time>
      </trkpt>
      <trkpt lat="43.50232" lon="5.9127">
        <ele>283.25</ele>
        <time>2019-05-12T08:42:52Z</time>
      </trkpt>
      <trkpt lat="43.50227" lon="5.91275">
        <ele>283.25</ele>
        <time>2019-05-12T08:42:53Z</time>
      </trkpt>
      <trkpt lat="43.50222" lon="5.91281">
        <ele>283.25</ele>
        <time>2019-05-12T08:42:54Z</time>
      </trkpt>
      <trkpt lat="43.50206" lon="5.91306">
        <ele>283.25</ele>
        <time>2019-05-12T08:42:59Z</time>
      </trkpt>
      <trkpt lat="43.50203" lon="5.9131">
        <ele>283.25</ele>
        <time>2019-05-12T08:43:00Z</time>
      </trkpt>
      <trkpt lat="43.50199" lon="5.91315">
        <ele>284.21</ele>
        <time>2019-05-12T08:43:01Z</time>
      </trkpt>
      <trkpt lat="43.5017" lon="5.91355">
        <ele>286.13</ele>
        <time>2019-05-12T08:43:14Z</time>
      </trkpt>
      <trkpt lat="43.50142" lon="5.91389">
        <ele>288.53</ele>
        <time>2019-05-12T08:43:27Z</time>
      </trkpt>
      <trkpt lat="43.50112" lon="5.91424">
        <ele>291.42</ele>
        <time>2019-05-12T08:43:40Z</time>
      </trkpt>
      <trkpt lat="43.50104" lon="5.91477">
        <ele>293.34</ele>
        <time>2019-05-12T08:43:52Z</time>
      </trkpt>
      <trkpt lat="43.50111" lon="5.91547">
        <ele>295.74</ele>
        <time>2019-05-12T08:44:07Z</time>
      </trkpt>
      <trkpt lat="43.50106" lon="5.91603">
        <ele>298.63</ele>
        <time>2019-05-12T08:44:23Z</time>
      </trkpt>
      <trkpt lat="43.5009" lon="5.91662">
        <ele>301.03</ele>
        <time>2019-05-12T08:44:40Z</time>
      </trkpt>
      <trkpt lat="43.50078" lon="5.91708">
        <ele>302.47</ele>
        <time>2019-05-12T08:44:53Z</time>
      </trkpt>
      <trkpt lat="43.50076" lon="5.91717">
        <ele>303.91</ele>
        <time>2019-05-12T08:44:56Z</time>
      </trkpt>
      <trkpt lat="43.50066" lon="5.91762">
        <ele>305.84</ele>
        <time>2019-05-12T08:45:11Z</time>
      </trkpt>
      <trkpt lat="43.50067" lon="5.91809">
        <ele>307.76</ele>
        <time>2019-05-12T08:45:26Z</time>
      </trkpt>
      <trkpt lat="43.50066" lon="5.91858">
        <ele>309.68</ele>
        <time>2019-05-12T08:45:40Z</time>
      </trkpt>
      <trkpt lat="43.50075" lon="5.91904">
        <ele>313.05</ele>
        <time>2019-05-12T08:45:55Z</time>
      </trkpt>
      <trkpt lat="43.50094" lon="5.91959">
        <ele>313.53</ele>
        <time>2019-05-12T08:46:11Z</time>
      </trkpt>
      <trkpt lat="43.50112" lon="5.92024">
        <ele>315.93</ele>
        <time>2019-05-12T08:46:28Z</time>
      </trkpt>
      <trkpt lat="43.50133" lon="5.92077">
        <ele>318.33</ele>
        <time>2019-05-12T08:46:43Z</time>
      </trkpt>
      <trkpt lat="43.50156" lon="5.92137">
        <ele>320.26</ele>
        <time>2019-05-12T08:46:59Z</time>
      </trkpt>
      <trkpt lat="43.50183" lon="5.92204">
        <ele>321.22</ele>
        <time>2019-05-12T08:47:17Z</time>
      </trkpt>
      <trkpt lat="43.50207" lon="5.92262">
        <ele>322.66</ele>
        <time>2019-05-12T08:47:31Z</time>
      </trkpt>
      <trkpt lat="43.50225" lon="5.9231">
        <ele>321.7</ele>
        <time>2019-05-12T08:47:42Z</time>
      </trkpt>
      <trkpt lat="43.50232" lon="5.92331">
        <ele>323.14</ele>
        <time>2019-05-12T08:47:47Z</time>
      </trkpt>
      <trkpt lat="43.50255" lon="5.92391">
        <ele>325.54</ele>
        <time>2019-05-12T08:48:02Z</time>
      </trkpt>
      <trkpt lat="43.50272" lon="5.92427">
        <ele>327.47</ele>
        <time>2019-05-12T08:48:11Z</time>
      </trkpt>
      <trkpt lat="43.50286" lon="5.92451">
        <ele>330.35</ele>
        <time>2019-05-12T08:48:19Z</time>
      </trkpt>
      <trkpt lat="43.50311" lon="5.92492">
        <ele>329.87</ele>
        <time>2019-05-12T08:48:35Z</time>
      </trkpt>
      <trkpt lat="43.50323" lon="5.92519">
        <ele>328.43</ele>
        <time>2019-05-12T08:48:45Z</time>
      </trkpt>
      <trkpt lat="43.50328" lon="5.92529">
        <ele>330.35</ele>
        <time>2019-05-12T08:48:48Z</time>
      </trkpt>
      <trkpt lat="43.50355" lon="5.92593">
        <ele>332.75</ele>
        <time>2019-05-12T08:49:08Z</time>
      </trkpt>
      <trkpt lat="43.50373" lon="5.92632">
        <ele>336.6</ele>
        <time>2019-05-12T08:49:22Z</time>
      </trkpt>
      <trkpt lat="43.50375" lon="5.92635">
        <ele>336.6</ele>
        <time>2019-05-12T08:49:23Z</time>
      </trkpt>
      <trkpt lat="43.50381" lon="5.92643">
        <ele>338.04</ele>
        <time>2019-05-12T08:49:26Z</time>
      </trkpt>
      <trkpt lat="43.50401" lon="5.92685">
        <ele>341.41</ele>
        <time>2019-05-12T08:49:42Z</time>
      </trkpt>
      <trkpt lat="43.50419" lon="5.92734">
        <ele>345.25</ele>
        <time>2019-05-12T08:50:00Z</time>
      </trkpt>
      <trkpt lat="43.50448" lon="5.92796">
        <ele>346.69</ele>
        <time>2019-05-12T08:50:17Z</time>
      </trkpt>
      <trkpt lat="43.50454" lon="5.92808">
        <ele>344.77</ele>
        <time>2019-05-12T08:50:20Z</time>
      </trkpt>
      <trkpt lat="43.50503" lon="5.92894">
        <ele>342.85</ele>
        <time>2019-05-12T08:50:39Z</time>
      </trkpt>
      <trkpt lat="43.50519" lon="5.9292">
        <ele>340.44</ele>
        <time>2019-05-12T08:50:44Z</time>
      </trkpt>
      <trkpt lat="43.50523" lon="5.92926">
        <ele>340.44</ele>
        <time>2019-05-12T08:50:45Z</time>
      </trkpt>
      <trkpt lat="43.50569" lon="5.92987">
        <ele>339</ele>
        <time>2019-05-12T08:50:56Z</time>
      </trkpt>
      <trkpt lat="43.50572" lon="5.92993">
        <ele>339</ele>
        <time>2019-05-12T08:50:57Z</time>
      </trkpt>
      <trkpt lat="43.50573" lon="5.93">
        <ele>338.52</ele>
        <time>2019-05-12T08:50:58Z</time>
      </trkpt>
      <trkpt lat="43.50573" lon="5.93007">
        <ele>338.04</ele>
        <time>2019-05-12T08:50:59Z</time>
      </trkpt>
      <trkpt lat="43.50571" lon="5.93013">
        <ele>338.04</ele>
        <time>2019-05-12T08:51:00Z</time>
      </trkpt>
      <trkpt lat="43.50568" lon="5.93018">
        <ele>338.04</ele>
        <time>2019-05-12T08:51:01Z</time>
      </trkpt>
      <trkpt lat="43.50565" lon="5.93023">
        <ele>338.04</ele>
        <time>2019-05-12T08:51:02Z</time>
      </trkpt>
      <trkpt lat="43.50561" lon="5.93026">
        <ele>338.04</ele>
        <time>2019-05-12T08:51:03Z</time>
      </trkpt>
      <trkpt lat="43.50558" lon="5.9303">
        <ele>338.04</ele>
        <time>2019-05-12T08:51:04Z</time>
      </trkpt>
      <trkpt lat="43.50555" lon="5.93033">
        <ele>338.04</ele>
        <time>2019-05-12T08:51:05Z</time>
      </trkpt>
      <trkpt lat="43.50552" lon="5.93037">
        <ele>338.04</ele>
        <time>2019-05-12T08:51:06Z</time>
      </trkpt>
      <trkpt lat="43.50543" lon="5.93051">
        <ele>339.48</ele>
        <time>2019-05-12T08:51:09Z</time>
      </trkpt>
      <trkpt lat="43.5054" lon="5.93056">
        <ele>339.48</ele>
        <time>2019-05-12T08:51:10Z</time>
      </trkpt>
      <trkpt lat="43.50535" lon="5.9306">
        <ele>339.48</ele>
        <time>2019-05-12T08:51:11Z</time>
      </trkpt>
      <trkpt lat="43.50531" lon="5.93063">
        <ele>339.48</ele>
        <time>2019-05-12T08:51:12Z</time>
      </trkpt>
      <trkpt lat="43.50526" lon="5.93065">
        <ele>339.48</ele>
        <time>2019-05-12T08:51:13Z</time>
      </trkpt>
      <trkpt lat="43.5052" lon="5.93066">
        <ele>339.48</ele>
        <time>2019-05-12T08:51:14Z</time>
      </trkpt>
      <trkpt lat="43.50514" lon="5.93065">
        <ele>339.48</ele>
        <time>2019-05-12T08:51:15Z</time>
      </trkpt>
      <trkpt lat="43.50507" lon="5.93063">
        <ele>339.48</ele>
        <time>2019-05-12T08:51:16Z</time>
      </trkpt>
      <trkpt lat="43.50486" lon="5.93057">
        <ele>337.56</ele>
        <time>2019-05-12T08:51:19Z</time>
      </trkpt>
      <trkpt lat="43.50453" lon="5.93049">
        <ele>336.12</ele>
        <time>2019-05-12T08:51:23Z</time>
      </trkpt>
      <trkpt lat="43.50445" lon="5.93044">
        <ele>335.64</ele>
        <time>2019-05-12T08:51:24Z</time>
      </trkpt>
      <trkpt lat="43.50437" lon="5.93038">
        <ele>334.68</ele>
        <time>2019-05-12T08:51:25Z</time>
      </trkpt>
      <trkpt lat="43.5043" lon="5.9303">
        <ele>334.68</ele>
        <time>2019-05-12T08:51:26Z</time>
      </trkpt>
      <trkpt lat="43.50424" lon="5.93022">
        <ele>333.71</ele>
        <time>2019-05-12T08:51:27Z</time>
      </trkpt>
      <trkpt lat="43.5041" lon="5.93004">
        <ele>333.23</ele>
        <time>2019-05-12T08:51:29Z</time>
      </trkpt>
      <trkpt lat="43.50404" lon="5.92996">
        <ele>333.23</ele>
        <time>2019-05-12T08:51:30Z</time>
      </trkpt>
      <trkpt lat="43.50396" lon="5.9299">
        <ele>331.79</ele>
        <time>2019-05-12T08:51:31Z</time>
      </trkpt>
      <trkpt lat="43.50388" lon="5.92987">
        <ele>331.79</ele>
        <time>2019-05-12T08:51:32Z</time>
      </trkpt>
      <trkpt lat="43.50381" lon="5.92987">
        <ele>330.83</ele>
        <time>2019-05-12T08:51:33Z</time>
      </trkpt>
      <trkpt lat="43.50373" lon="5.9299">
        <ele>329.87</ele>
        <time>2019-05-12T08:51:34Z</time>
      </trkpt>
      <trkpt lat="43.50366" lon="5.92996">
        <ele>330.35</ele>
        <time>2019-05-12T08:51:35Z</time>
      </trkpt>
      <trkpt lat="43.5036" lon="5.93003">
        <ele>329.39</ele>
        <time>2019-05-12T08:51:36Z</time>
      </trkpt>
      <trkpt lat="43.50353" lon="5.9301">
        <ele>328.91</ele>
        <time>2019-05-12T08:51:37Z</time>
      </trkpt>
      <trkpt lat="43.50347" lon="5.93019">
        <ele>326.99</ele>
        <time>2019-05-12T08:51:38Z</time>
      </trkpt>
      <trkpt lat="43.50336" lon="5.93035">
        <ele>326.02</ele>
        <time>2019-05-12T08:51:40Z</time>
      </trkpt>
      <trkpt lat="43.50316" lon="5.93059">
        <ele>324.1</ele>
        <time>2019-05-12T08:51:43Z</time>
      </trkpt>
      <trkpt lat="43.50307" lon="5.93066">
        <ele>323.14</ele>
        <time>2019-05-12T08:51:44Z</time>
      </trkpt>
      <trkpt lat="43.5029" lon="5.93078">
        <ele>321.7</ele>
        <time>2019-05-12T08:51:46Z</time>
      </trkpt>
      <trkpt lat="43.50245" lon="5.93112">
        <ele>317.37</ele>
        <time>2019-05-12T08:51:51Z</time>
      </trkpt>
      <trkpt lat="43.50236" lon="5.93113">
        <ele>317.37</ele>
        <time>2019-05-12T08:51:52Z</time>
      </trkpt>
      <trkpt lat="43.50226" lon="5.93111">
        <ele>317.37</ele>
        <time>2019-05-12T08:51:53Z</time>
      </trkpt>
      <trkpt lat="43.50217" lon="5.93105">
        <ele>317.37</ele>
        <time>2019-05-12T08:51:54Z</time>
      </trkpt>
      <trkpt lat="43.50208" lon="5.93097">
        <ele>315.93</ele>
        <time>2019-05-12T08:51:55Z</time>
      </trkpt>
      <trkpt lat="43.50183" lon="5.93078">
        <ele>314.97</ele>
        <time>2019-05-12T08:51:58Z</time>
      </trkpt>
      <trkpt lat="43.50174" lon="5.93075">
        <ele>314.01</ele>
        <time>2019-05-12T08:51:59Z</time>
      </trkpt>
      <trkpt lat="43.50165" lon="5.93073">
        <ele>314.01</ele>
        <time>2019-05-12T08:52:00Z</time>
      </trkpt>
      <trkpt lat="43.50155" lon="5.93074">
        <ele>314.01</ele>
        <time>2019-05-12T08:52:01Z</time>
      </trkpt>
      <trkpt lat="43.50146" lon="5.93076">
        <ele>313.05</ele>
        <time>2019-05-12T08:52:02Z</time>
      </trkpt>
      <trkpt lat="43.50137" lon="5.9308">
        <ele>312.57</ele>
        <time>2019-05-12T08:52:03Z</time>
      </trkpt>
      <trkpt lat="43.50127" lon="5.93084">
        <ele>312.09</ele>
        <time>2019-05-12T08:52:04Z</time>
      </trkpt>
      <trkpt lat="43.50089" lon="5.93096">
        <ele>309.68</ele>
        <time>2019-05-12T08:52:08Z</time>
      </trkpt>
      <trkpt lat="43.50079" lon="5.93096">
        <ele>308.72</ele>
        <time>2019-05-12T08:52:09Z</time>
      </trkpt>
      <trkpt lat="43.50038" lon="5.93096">
        <ele>308.24</ele>
        <time>2019-05-12T08:52:13Z</time>
      </trkpt>
      <trkpt lat="43.50028" lon="5.93099">
        <ele>307.28</ele>
        <time>2019-05-12T08:52:14Z</time>
      </trkpt>
      <trkpt lat="43.50018" lon="5.93106">
        <ele>306.32</ele>
        <time>2019-05-12T08:52:15Z</time>
      </trkpt>
      <trkpt lat="43.5001" lon="5.93113">
        <ele>306.32</ele>
        <time>2019-05-12T08:52:16Z</time>
      </trkpt>
      <trkpt lat="43.50003" lon="5.93122">
        <ele>306.32</ele>
        <time>2019-05-12T08:52:17Z</time>
      </trkpt>
      <trkpt lat="43.49997" lon="5.93132">
        <ele>305.84</ele>
        <time>2019-05-12T08:52:18Z</time>
      </trkpt>
      <trkpt lat="43.49993" lon="5.93143">
        <ele>304.88</ele>
        <time>2019-05-12T08:52:19Z</time>
      </trkpt>
      <trkpt lat="43.49991" lon="5.93155">
        <ele>304.39</ele>
        <time>2019-05-12T08:52:20Z</time>
      </trkpt>
      <trkpt lat="43.4999" lon="5.93168">
        <ele>304.39</ele>
        <time>2019-05-12T08:52:21Z</time>
      </trkpt>
      <trkpt lat="43.4999" lon="5.93182">
        <ele>303.91</ele>
        <time>2019-05-12T08:52:22Z</time>
      </trkpt>
      <trkpt lat="43.49992" lon="5.93329">
        <ele>300.55</ele>
        <time>2019-05-12T08:52:33Z</time>
      </trkpt>
      <trkpt lat="43.49965" lon="5.93477">
        <ele>297.67</ele>
        <time>2019-05-12T08:52:44Z</time>
      </trkpt>
      <trkpt lat="43.4993" lon="5.93582">
        <ele>296.7</ele>
        <time>2019-05-12T08:52:52Z</time>
      </trkpt>
      <trkpt lat="43.49924" lon="5.93592">
        <ele>296.7</ele>
        <time>2019-05-12T08:52:53Z</time>
      </trkpt>
      <trkpt lat="43.49917" lon="5.936">
        <ele>295.74</ele>
        <time>2019-05-12T08:52:54Z</time>
      </trkpt>
      <trkpt lat="43.49909" lon="5.93607">
        <ele>294.78</ele>
        <time>2019-05-12T08:52:55Z</time>
      </trkpt>
      <trkpt lat="43.499" lon="5.93612">
        <ele>293.82</ele>
        <time>2019-05-12T08:52:56Z</time>
      </trkpt>
      <trkpt lat="43.49891" lon="5.93615">
        <ele>293.82</ele>
        <time>2019-05-12T08:52:57Z</time>
      </trkpt>
      <trkpt lat="43.49863" lon="5.93624">
        <ele>292.38</ele>
        <time>2019-05-12T08:53:00Z</time>
      </trkpt>
      <trkpt lat="43.49815" lon="5.93643">
        <ele>289.97</ele>
        <time>2019-05-12T08:53:05Z</time>
      </trkpt>
      <trkpt lat="43.49797" lon="5.93656">
        <ele>289.01</ele>
        <time>2019-05-12T08:53:07Z</time>
      </trkpt>
      <trkpt lat="43.49789" lon="5.93665">
        <ele>289.01</ele>
        <time>2019-05-12T08:53:08Z</time>
      </trkpt>
      <trkpt lat="43.49781" lon="5.93675">
        <ele>289.01</ele>
        <time>2019-05-12T08:53:09Z</time>
      </trkpt>
      <trkpt lat="43.49773" lon="5.93686">
        <ele>289.01</ele>
        <time>2019-05-12T08:53:10Z</time>
      </trkpt>
      <trkpt lat="43.49766" lon="5.93699">
        <ele>289.01</ele>
        <time>2019-05-12T08:53:11Z</time>
      </trkpt>
      <trkpt lat="43.49761" lon="5.93712">
        <ele>289.01</ele>
        <time>2019-05-12T08:53:12Z</time>
      </trkpt>
      <trkpt lat="43.49757" lon="5.93725">
        <ele>289.01</ele>
        <time>2019-05-12T08:53:13Z</time>
      </trkpt>
      <trkpt lat="43.49754" lon="5.9374">
        <ele>288.53</ele>
        <time>2019-05-12T08:53:14Z</time>
      </trkpt>
      <trkpt lat="43.49753" lon="5.93754">
        <ele>287.57</ele>
        <time>2019-05-12T08:53:15Z</time>
      </trkpt>
      <trkpt lat="43.49752" lon="5.93768">
        <ele>287.57</ele>
        <time>2019-05-12T08:53:16Z</time>
      </trkpt>
      <trkpt lat="43.49724" lon="5.93941">
        <ele>285.17</ele>
        <time>2019-05-12T08:53:30Z</time>
      </trkpt>
      <trkpt lat="43.49712" lon="5.93974">
        <ele>285.17</ele>
        <time>2019-05-12T08:53:33Z</time>
      </trkpt>
      <trkpt lat="43.49706" lon="5.93984">
        <ele>285.17</ele>
        <time>2019-05-12T08:53:34Z</time>
      </trkpt>
      <trkpt lat="43.497" lon="5.9399">
        <ele>284.21</ele>
        <time>2019-05-12T08:53:35Z</time>
      </trkpt>
      <trkpt lat="43.49693" lon="5.93996">
        <ele>284.21</ele>
        <time>2019-05-12T08:53:36Z</time>
      </trkpt>
      <trkpt lat="43.49684" lon="5.94">
        <ele>284.21</ele>
        <time>2019-05-12T08:53:37Z</time>
      </trkpt>
      <trkpt lat="43.49676" lon="5.94004">
        <ele>284.21</ele>
        <time>2019-05-12T08:53:38Z</time>
      </trkpt>
      <trkpt lat="43.49659" lon="5.94015">
        <ele>283.73</ele>
        <time>2019-05-12T08:53:40Z</time>
      </trkpt>
      <trkpt lat="43.49651" lon="5.94022">
        <ele>282.77</ele>
        <time>2019-05-12T08:53:41Z</time>
      </trkpt>
      <trkpt lat="43.49569" lon="5.94105">
        <ele>282.28</ele>
        <time>2019-05-12T08:53:54Z</time>
      </trkpt>
      <trkpt lat="43.49564" lon="5.94111">
        <ele>282.28</ele>
        <time>2019-05-12T08:53:55Z</time>
      </trkpt>
      <trkpt lat="43.4956" lon="5.94118">
        <ele>282.28</ele>
        <time>2019-05-12T08:53:56Z</time>
      </trkpt>
      <trkpt lat="43.49556" lon="5.94125">
        <ele>282.28</ele>
        <time>2019-05-12T08:53:57Z</time>
      </trkpt>
      <trkpt lat="43.49553" lon="5.94132">
        <ele>282.28</ele>
        <time>2019-05-12T08:53:58Z</time>
      </trkpt>
      <trkpt lat="43.4955" lon="5.9414">
        <ele>282.28</ele>
        <time>2019-05-12T08:53:59Z</time>
      </trkpt>
      <trkpt lat="43.49548" lon="5.94148">
        <ele>282.28</ele>
        <time>2019-05-12T08:54:00Z</time>
      </trkpt>
      <trkpt lat="43.49546" lon="5.94157">
        <ele>281.8</ele>
        <time>2019-05-12T08:54:01Z</time>
      </trkpt>
      <trkpt lat="43.49542" lon="5.9424">
        <ele>281.32</ele>
        <time>2019-05-12T08:54:13Z</time>
      </trkpt>
      <trkpt lat="43.49539" lon="5.94284">
        <ele>282.77</ele>
        <time>2019-05-12T08:54:20Z</time>
      </trkpt>
      <trkpt lat="43.49533" lon="5.94388">
        <ele>285.17</ele>
        <time>2019-05-12T08:54:36Z</time>
      </trkpt>
      <trkpt lat="43.49533" lon="5.94454">
        <ele>286.61</ele>
        <time>2019-05-12T08:54:46Z</time>
      </trkpt>
      <trkpt lat="43.49534" lon="5.9446">
        <ele>287.09</ele>
        <time>2019-05-12T08:54:47Z</time>
      </trkpt>
      <trkpt lat="43.49535" lon="5.94466">
        <ele>287.09</ele>
        <time>2019-05-12T08:54:48Z</time>
      </trkpt>
      <trkpt lat="43.49558" lon="5.94541">
        <ele>286.13</ele>
        <time>2019-05-12T08:55:00Z</time>
      </trkpt>
      <trkpt lat="43.49558" lon="5.94549">
        <ele>285.65</ele>
        <time>2019-05-12T08:55:01Z</time>
      </trkpt>
      <trkpt lat="43.49557" lon="5.94557">
        <ele>285.65</ele>
        <time>2019-05-12T08:55:02Z</time>
      </trkpt>
      <trkpt lat="43.49551" lon="5.9459">
        <ele>285.17</ele>
        <time>2019-05-12T08:55:06Z</time>
      </trkpt>
      <trkpt lat="43.49498" lon="5.94701">
        <ele>284.21</ele>
        <time>2019-05-12T08:55:22Z</time>
      </trkpt>
      <trkpt lat="43.49467" lon="5.94753">
        <ele>284.21</ele>
        <time>2019-05-12T08:55:31Z</time>
      </trkpt>
      <trkpt lat="43.49462" lon="5.94757">
        <ele>284.21</ele>
        <time>2019-05-12T08:55:32Z</time>
      </trkpt>
      <trkpt lat="43.49457" lon="5.94761">
        <ele>283.73</ele>
        <time>2019-05-12T08:55:33Z</time>
      </trkpt>
      <trkpt lat="43.49453" lon="5.94763">
        <ele>283.73</ele>
        <time>2019-05-12T08:55:34Z</time>
      </trkpt>
      <trkpt lat="43.49447" lon="5.94764">
        <ele>283.73</ele>
        <time>2019-05-12T08:55:35Z</time>
      </trkpt>
      <trkpt lat="43.49442" lon="5.94765">
        <ele>283.73</ele>
        <time>2019-05-12T08:55:36Z</time>
      </trkpt>
      <trkpt lat="43.49375" lon="5.94761">
        <ele>280.84</ele>
        <time>2019-05-12T08:55:46Z</time>
      </trkpt>
      <trkpt lat="43.49367" lon="5.9476">
        <ele>280.84</ele>
        <time>2019-05-12T08:55:47Z</time>
      </trkpt>
      <trkpt lat="43.4929" lon="5.94766">
        <ele>276.52</ele>
        <time>2019-05-12T08:55:56Z</time>
      </trkpt>
      <trkpt lat="43.4922" lon="5.94778">
        <ele>274.11</ele>
        <time>2019-05-12T08:56:03Z</time>
      </trkpt>
      <trkpt lat="43.49131" lon="5.9481">
        <ele>270.75</ele>
        <time>2019-05-12T08:56:12Z</time>
      </trkpt>
      <trkpt lat="43.49037" lon="5.94856">
        <ele>269.79</ele>
        <time>2019-05-12T08:56:24Z</time>
      </trkpt>
      <trkpt lat="43.48937" lon="5.94921">
        <ele>268.35</ele>
        <time>2019-05-12T08:56:38Z</time>
      </trkpt>
      <trkpt lat="43.48837" lon="5.94942">
        <ele>269.31</ele>
        <time>2019-05-12T08:56:52Z</time>
      </trkpt>
      <trkpt lat="43.48747" lon="5.9492">
        <ele>270.27</ele>
        <time>2019-05-12T08:57:06Z</time>
      </trkpt>
      <trkpt lat="43.48667" lon="5.94854">
        <ele>270.75</ele>
        <time>2019-05-12T08:57:21Z</time>
      </trkpt>
      <trkpt lat="43.48644" lon="5.94837">
        <ele>270.75</ele>
        <time>2019-05-12T08:57:25Z</time>
      </trkpt>
      <trkpt lat="43.48638" lon="5.94834">
        <ele>270.75</ele>
        <time>2019-05-12T08:57:26Z</time>
      </trkpt>
      <trkpt lat="43.48632" lon="5.94832">
        <ele>270.75</ele>
        <time>2019-05-12T08:57:27Z</time>
      </trkpt>
      <trkpt lat="43.48626" lon="5.94831">
        <ele>269.79</ele>
        <time>2019-05-12T08:57:28Z</time>
      </trkpt>
      <trkpt lat="43.48619" lon="5.9483">
        <ele>269.79</ele>
        <time>2019-05-12T08:57:29Z</time>
      </trkpt>
      <trkpt lat="43.48568" lon="5.94823">
        <ele>271.23</ele>
        <time>2019-05-12T08:57:37Z</time>
      </trkpt>
      <trkpt lat="43.48473" lon="5.94829">
        <ele>271.71</ele>
        <time>2019-05-12T08:57:53Z</time>
      </trkpt>
      <trkpt lat="43.48456" lon="5.94832">
        <ele>270.75</ele>
        <time>2019-05-12T08:57:56Z</time>
      </trkpt>
      <trkpt lat="43.4839" lon="5.94868">
        <ele>269.79</ele>
        <time>2019-05-12T08:58:08Z</time>
      </trkpt>
      <trkpt lat="43.48375" lon="5.94886">
        <ele>269.79</ele>
        <time>2019-05-12T08:58:11Z</time>
      </trkpt>
      <trkpt lat="43.4837" lon="5.9489">
        <ele>269.79</ele>
        <time>2019-05-12T08:58:12Z</time>
      </trkpt>
      <trkpt lat="43.48363" lon="5.94895">
        <ele>269.79</ele>
        <time>2019-05-12T08:58:13Z</time>
      </trkpt>
      <trkpt lat="43.48286" lon="5.94926">
        <ele>270.75</ele>
        <time>2019-05-12T08:58:25Z</time>
      </trkpt>
      <trkpt lat="43.48204" lon="5.94928">
        <ele>271.23</ele>
        <time>2019-05-12T08:58:38Z</time>
      </trkpt>
      <trkpt lat="43.48156" lon="5.94887">
        <ele>271.71</ele>
        <time>2019-05-12T08:58:47Z</time>
      </trkpt>
      <trkpt lat="43.48152" lon="5.9488">
        <ele>271.71</ele>
        <time>2019-05-12T08:58:48Z</time>
      </trkpt>
      <trkpt lat="43.48148" lon="5.94872">
        <ele>271.71</ele>
        <time>2019-05-12T08:58:49Z</time>
      </trkpt>
      <trkpt lat="43.48146" lon="5.94865">
        <ele>271.71</ele>
        <time>2019-05-12T08:58:50Z</time>
      </trkpt>
      <trkpt lat="43.48143" lon="5.94857">
        <ele>272.19</ele>
        <time>2019-05-12T08:58:51Z</time>
      </trkpt>
      <trkpt lat="43.48138" lon="5.94841">
        <ele>272.19</ele>
        <time>2019-05-12T08:58:53Z</time>
      </trkpt>
      <trkpt lat="43.48134" lon="5.94834">
        <ele>272.19</ele>
        <time>2019-05-12T08:58:54Z</time>
      </trkpt>
      <trkpt lat="43.48129" lon="5.94828">
        <ele>272.19</ele>
        <time>2019-05-12T08:58:55Z</time>
      </trkpt>
      <trkpt lat="43.48124" lon="5.94823">
        <ele>272.19</ele>
        <time>2019-05-12T08:58:56Z</time>
      </trkpt>
      <trkpt lat="43.48119" lon="5.94817">
        <ele>272.19</ele>
        <time>2019-05-12T08:58:57Z</time>
      </trkpt>
      <trkpt lat="43.48081" lon="5.94786">
        <ele>271.71</ele>
        <time>2019-05-12T08:59:04Z</time>
      </trkpt>
      <trkpt lat="43.48076" lon="5.94783">
        <ele>271.71</ele>
        <time>2019-05-12T08:59:05Z</time>
      </trkpt>
      <trkpt lat="43.48069" lon="5.94782">
        <ele>271.71</ele>
        <time>2019-05-12T08:59:06Z</time>
      </trkpt>
      <trkpt lat="43.48063" lon="5.94782">
        <ele>271.71</ele>
        <time>2019-05-12T08:59:07Z</time>
      </trkpt>
      <trkpt lat="43.48057" lon="5.94782">
        <ele>271.71</ele>
        <time>2019-05-12T08:59:08Z</time>
      </trkpt>
      <trkpt lat="43.48028" lon="5.94788">
        <ele>270.75</ele>
        <time>2019-05-12T08:59:13Z</time>
      </trkpt>
      <trkpt lat="43.47929" lon="5.94786">
        <ele>272.67</ele>
        <time>2019-05-12T08:59:29Z</time>
      </trkpt>
      <trkpt lat="43.47911" lon="5.9479">
        <ele>272.67</ele>
        <time>2019-05-12T08:59:32Z</time>
      </trkpt>
      <trkpt lat="43.47906" lon="5.94792">
        <ele>272.67</ele>
        <time>2019-05-12T08:59:33Z</time>
      </trkpt>
      <trkpt lat="43.47901" lon="5.94795">
        <ele>271.71</ele>
        <time>2019-05-12T08:59:34Z</time>
      </trkpt>
      <trkpt lat="43.47897" lon="5.94799">
        <ele>271.23</ele>
        <time>2019-05-12T08:59:35Z</time>
      </trkpt>
      <trkpt lat="43.47892" lon="5.94804">
        <ele>271.23</ele>
        <time>2019-05-12T08:59:36Z</time>
      </trkpt>
      <trkpt lat="43.47887" lon="5.9481">
        <ele>271.23</ele>
        <time>2019-05-12T08:59:37Z</time>
      </trkpt>
      <trkpt lat="43.47883" lon="5.94815">
        <ele>271.23</ele>
        <time>2019-05-12T08:59:38Z</time>
      </trkpt>
      <trkpt lat="43.47879" lon="5.94822">
        <ele>271.23</ele>
        <time>2019-05-12T08:59:39Z</time>
      </trkpt>
      <trkpt lat="43.47812" lon="5.94929">
        <ele>270.27</ele>
        <time>2019-05-12T08:59:56Z</time>
      </trkpt>
      <trkpt lat="43.47807" lon="5.94933">
        <ele>270.27</ele>
        <time>2019-05-12T08:59:57Z</time>
      </trkpt>
      <trkpt lat="43.47802" lon="5.94936">
        <ele>270.27</ele>
        <time>2019-05-12T08:59:58Z</time>
      </trkpt>
      <trkpt lat="43.47797" lon="5.9494">
        <ele>270.27</ele>
        <time>2019-05-12T08:59:59Z</time>
      </trkpt>
      <trkpt lat="43.47792" lon="5.94943">
        <ele>271.23</ele>
        <time>2019-05-12T09:00:00Z</time>
      </trkpt>
      <trkpt lat="43.47787" lon="5.94944">
        <ele>271.23</ele>
        <time>2019-05-12T09:00:01Z</time>
      </trkpt>
      <trkpt lat="43.47781" lon="5.94945">
        <ele>272.19</ele>
        <time>2019-05-12T09:00:02Z</time>
      </trkpt>
      <trkpt lat="43.47775" lon="5.94944">
        <ele>272.19</ele>
        <time>2019-05-12T09:00:03Z</time>
      </trkpt>
      <trkpt lat="43.47769" lon="5.94942">
        <ele>272.67</ele>
        <time>2019-05-12T09:00:04Z</time>
      </trkpt>
      <trkpt lat="43.47764" lon="5.94938">
        <ele>272.67</ele>
        <time>2019-05-12T09:00:05Z</time>
      </trkpt>
      <trkpt lat="43.4776" lon="5.94932">
        <ele>273.15</ele>
        <time>2019-05-12T09:00:06Z</time>
      </trkpt>
      <trkpt lat="43.47758" lon="5.94925">
        <ele>273.15</ele>
        <time>2019-05-12T09:00:07Z</time>
      </trkpt>
      <trkpt lat="43.47756" lon="5.94918">
        <ele>273.15</ele>
        <time>2019-05-12T09:00:08Z</time>
      </trkpt>
      <trkpt lat="43.47756" lon="5.9491">
        <ele>273.15</ele>
        <time>2019-05-12T09:00:09Z</time>
      </trkpt>
      <trkpt lat="43.47757" lon="5.94902">
        <ele>273.15</ele>
        <time>2019-05-12T09:00:10Z</time>
      </trkpt>
      <trkpt lat="43.47754" lon="5.94863">
        <ele>273.63</ele>
        <time>2019-05-12T09:00:15Z</time>
      </trkpt>
      <trkpt lat="43.47752" lon="5.94856">
        <ele>273.63</ele>
        <time>2019-05-12T09:00:16Z</time>
      </trkpt>
      <trkpt lat="43.47732" lon="5.94817">
        <ele>274.59</ele>
        <time>2019-05-12T09:00:22Z</time>
      </trkpt>
      <trkpt lat="43.47728" lon="5.94812">
        <ele>274.59</ele>
        <time>2019-05-12T09:00:23Z</time>
      </trkpt>
      <trkpt lat="43.47687" lon="5.94769">
        <ele>275.56</ele>
        <time>2019-05-12T09:00:32Z</time>
      </trkpt>
      <trkpt lat="43.47681" lon="5.94766">
        <ele>275.56</ele>
        <time>2019-05-12T09:00:33Z</time>
      </trkpt>
      <trkpt lat="43.47676" lon="5.94763">
        <ele>275.56</ele>
        <time>2019-05-12T09:00:34Z</time>
      </trkpt>
      <trkpt lat="43.4767" lon="5.94762">
        <ele>275.56</ele>
        <time>2019-05-12T09:00:35Z</time>
      </trkpt>
      <trkpt lat="43.47664" lon="5.94761">
        <ele>275.56</ele>
        <time>2019-05-12T09:00:36Z</time>
      </trkpt>
      <trkpt lat="43.47658" lon="5.94761">
        <ele>275.07</ele>
        <time>2019-05-12T09:00:37Z</time>
      </trkpt>
      <trkpt lat="43.47651" lon="5.94762">
        <ele>275.07</ele>
        <time>2019-05-12T09:00:38Z</time>
      </trkpt>
      <trkpt lat="43.47633" lon="5.94765">
        <ele>274.11</ele>
        <time>2019-05-12T09:00:41Z</time>
      </trkpt>
      <trkpt lat="43.47608" lon="5.94771">
        <ele>273.15</ele>
        <time>2019-05-12T09:00:45Z</time>
      </trkpt>
      <trkpt lat="43.47602" lon="5.94774">
        <ele>272.67</ele>
        <time>2019-05-12T09:00:46Z</time>
      </trkpt>
      <trkpt lat="43.47519" lon="5.94836">
        <ele>270.75</ele>
        <time>2019-05-12T09:01:00Z</time>
      </trkpt>
      <trkpt lat="43.47415" lon="5.94915">
        <ele>271.23</ele>
        <time>2019-05-12T09:01:18Z</time>
      </trkpt>
      <trkpt lat="43.4732" lon="5.94991">
        <ele>271.23</ele>
        <time>2019-05-12T09:01:34Z</time>
      </trkpt>
      <trkpt lat="43.47307" lon="5.95001">
        <ele>271.23</ele>
        <time>2019-05-12T09:01:36Z</time>
      </trkpt>
      <trkpt lat="43.47301" lon="5.95006">
        <ele>271.23</ele>
        <time>2019-05-12T09:01:37Z</time>
      </trkpt>
      <trkpt lat="43.47295" lon="5.9501">
        <ele>271.23</ele>
        <time>2019-05-12T09:01:38Z</time>
      </trkpt>
      <trkpt lat="43.47259" lon="5.9504">
        <ele>271.23</ele>
        <time>2019-05-12T09:01:45Z</time>
      </trkpt>
      <trkpt lat="43.47255" lon="5.95045">
        <ele>271.23</ele>
        <time>2019-05-12T09:01:46Z</time>
      </trkpt>
      <trkpt lat="43.47228" lon="5.95086">
        <ele>270.75</ele>
        <time>2019-05-12T09:01:53Z</time>
      </trkpt>
      <trkpt lat="43.47222" lon="5.95098">
        <ele>270.75</ele>
        <time>2019-05-12T09:01:55Z</time>
      </trkpt>
      <trkpt lat="43.47219" lon="5.95104">
        <ele>270.75</ele>
        <time>2019-05-12T09:01:56Z</time>
      </trkpt>
      <trkpt lat="43.47217" lon="5.95111">
        <ele>270.75</ele>
        <time>2019-05-12T09:01:57Z</time>
      </trkpt>
      <trkpt lat="43.47215" lon="5.95117">
        <ele>270.75</ele>
        <time>2019-05-12T09:01:58Z</time>
      </trkpt>
      <trkpt lat="43.47214" lon="5.95124">
        <ele>269.79</ele>
        <time>2019-05-12T09:01:59Z</time>
      </trkpt>
      <trkpt lat="43.47213" lon="5.95131">
        <ele>269.79</ele>
        <time>2019-05-12T09:02:00Z</time>
      </trkpt>
      <trkpt lat="43.47195" lon="5.95219">
        <ele>268.83</ele>
        <time>2019-05-12T09:02:14Z</time>
      </trkpt>
      <trkpt lat="43.4719" lon="5.95237">
        <ele>270.27</ele>
        <time>2019-05-12T09:02:17Z</time>
      </trkpt>
      <trkpt lat="43.4719" lon="5.95242">
        <ele>270.27</ele>
        <time>2019-05-12T09:02:18Z</time>
      </trkpt>
      <trkpt lat="43.47188" lon="5.95255">
        <ele>271.23</ele>
        <time>2019-05-12T09:02:24Z</time>
      </trkpt>
      <trkpt lat="43.47186" lon="5.95256">
        <ele>271.23</ele>
        <time>2019-05-12T09:02:25Z</time>
      </trkpt>
      <trkpt lat="43.47185" lon="5.95256">
        <ele>271.23</ele>
        <time>2019-05-12T09:02:26Z</time>
      </trkpt>
      <trkpt lat="43.47182" lon="5.95256">
        <ele>271.23</ele>
        <time>2019-05-12T09:02:27Z</time>
      </trkpt>
      <trkpt lat="43.4718" lon="5.95256">
        <ele>271.23</ele>
        <time>2019-05-12T09:02:28Z</time>
      </trkpt>
      <trkpt lat="43.47126" lon="5.95242">
        <ele>271.23</ele>
        <time>2019-05-12T09:02:43Z</time>
      </trkpt>
      <trkpt lat="43.47067" lon="5.95211">
        <ele>271.71</ele>
        <time>2019-05-12T09:02:56Z</time>
      </trkpt>
      <trkpt lat="43.47063" lon="5.95209">
        <ele>271.71</ele>
        <time>2019-05-12T09:02:57Z</time>
      </trkpt>
      <trkpt lat="43.47043" lon="5.952">
        <ele>273.63</ele>
        <time>2019-05-12T09:03:02Z</time>
      </trkpt>
      <trkpt lat="43.47036" lon="5.95195">
        <ele>273.63</ele>
        <time>2019-05-12T09:03:04Z</time>
      </trkpt>
      <trkpt lat="43.47032" lon="5.95191">
        <ele>272.67</ele>
        <time>2019-05-12T09:03:05Z</time>
      </trkpt>
      <trkpt lat="43.47029" lon="5.95187">
        <ele>272.67</ele>
        <time>2019-05-12T09:03:06Z</time>
      </trkpt>
      <trkpt lat="43.46998" lon="5.95141">
        <ele>273.63</ele>
        <time>2019-05-12T09:03:16Z</time>
      </trkpt>
      <trkpt lat="43.46953" lon="5.95072">
        <ele>276.52</ele>
        <time>2019-05-12T09:03:31Z</time>
      </trkpt>
      <trkpt lat="43.46932" lon="5.94991">
        <ele>279.4</ele>
        <time>2019-05-12T09:03:46Z</time>
      </trkpt>
      <trkpt lat="43.46934" lon="5.94918">
        <ele>281.32</ele>
        <time>2019-05-12T09:03:58Z</time>
      </trkpt>
      <trkpt lat="43.46959" lon="5.94814">
        <ele>282.77</ele>
        <time>2019-05-12T09:04:14Z</time>
      </trkpt>
      <trkpt lat="43.46967" lon="5.94753">
        <ele>280.84</ele>
        <time>2019-05-12T09:04:23Z</time>
      </trkpt>
      <trkpt lat="43.46966" lon="5.94747">
        <ele>280.84</ele>
        <time>2019-05-12T09:04:24Z</time>
      </trkpt>
      <trkpt lat="43.46965" lon="5.94739">
        <ele>280.84</ele>
        <time>2019-05-12T09:04:25Z</time>
      </trkpt>
      <trkpt lat="43.46964" lon="5.94733">
        <ele>280.84</ele>
        <time>2019-05-12T09:04:26Z</time>
      </trkpt>
      <trkpt lat="43.46961" lon="5.94727">
        <ele>280.84</ele>
        <time>2019-05-12T09:04:27Z</time>
      </trkpt>
      <trkpt lat="43.46959" lon="5.94722">
        <ele>280.84</ele>
        <time>2019-05-12T09:04:28Z</time>
      </trkpt>
      <trkpt lat="43.46955" lon="5.94717">
        <ele>280.84</ele>
        <time>2019-05-12T09:04:29Z</time>
      </trkpt>
      <trkpt lat="43.46952" lon="5.94712">
        <ele>280.84</ele>
        <time>2019-05-12T09:04:30Z</time>
      </trkpt>
      <trkpt lat="43.46948" lon="5.94708">
        <ele>280.84</ele>
        <time>2019-05-12T09:04:31Z</time>
      </trkpt>
      <trkpt lat="43.4692" lon="5.94683">
        <ele>280.36</ele>
        <time>2019-05-12T09:04:37Z</time>
      </trkpt>
      <trkpt lat="43.46915" lon="5.9468">
        <ele>280.36</ele>
        <time>2019-05-12T09:04:38Z</time>
      </trkpt>
      <trkpt lat="43.4691" lon="5.94678">
        <ele>280.36</ele>
        <time>2019-05-12T09:04:39Z</time>
      </trkpt>
      <trkpt lat="43.46904" lon="5.94676">
        <ele>280.36</ele>
        <time>2019-05-12T09:04:40Z</time>
      </trkpt>
      <trkpt lat="43.46898" lon="5.94675">
        <ele>280.36</ele>
        <time>2019-05-12T09:04:41Z</time>
      </trkpt>
      <trkpt lat="43.46891" lon="5.94675">
        <ele>280.36</ele>
        <time>2019-05-12T09:04:42Z</time>
      </trkpt>
      <trkpt lat="43.46884" lon="5.94676">
        <ele>280.36</ele>
        <time>2019-05-12T09:04:43Z</time>
      </trkpt>
      <trkpt lat="43.46877" lon="5.94677">
        <ele>280.36</ele>
        <time>2019-05-12T09:04:44Z</time>
      </trkpt>
      <trkpt lat="43.46871" lon="5.94679">
        <ele>279.88</ele>
        <time>2019-05-12T09:04:45Z</time>
      </trkpt>
      <trkpt lat="43.46864" lon="5.94682">
        <ele>279.88</ele>
        <time>2019-05-12T09:04:46Z</time>
      </trkpt>
      <trkpt lat="43.46858" lon="5.94686">
        <ele>279.88</ele>
        <time>2019-05-12T09:04:47Z</time>
      </trkpt>
      <trkpt lat="43.46852" lon="5.94692">
        <ele>279.88</ele>
        <time>2019-05-12T09:04:48Z</time>
      </trkpt>
      <trkpt lat="43.46811" lon="5.94725">
        <ele>279.88</ele>
        <time>2019-05-12T09:04:55Z</time>
      </trkpt>
      <trkpt lat="43.46798" lon="5.94731">
        <ele>279.4</ele>
        <time>2019-05-12T09:04:57Z</time>
      </trkpt>
      <trkpt lat="43.46792" lon="5.94732">
        <ele>279.4</ele>
        <time>2019-05-12T09:04:58Z</time>
      </trkpt>
      <trkpt lat="43.46785" lon="5.94733">
        <ele>278.92</ele>
        <time>2019-05-12T09:04:59Z</time>
      </trkpt>
      <trkpt lat="43.46685" lon="5.94738">
        <ele>277</ele>
        <time>2019-05-12T09:05:13Z</time>
      </trkpt>
      <trkpt lat="43.46664" lon="5.94744">
        <ele>275.56</ele>
        <time>2019-05-12T09:05:16Z</time>
      </trkpt>
      <trkpt lat="43.46657" lon="5.94744">
        <ele>275.56</ele>
        <time>2019-05-12T09:05:17Z</time>
      </trkpt>
      <trkpt lat="43.4665" lon="5.94742">
        <ele>275.56</ele>
        <time>2019-05-12T09:05:18Z</time>
      </trkpt>
      <trkpt lat="43.46643" lon="5.94737">
        <ele>277</ele>
        <time>2019-05-12T09:05:19Z</time>
      </trkpt>
      <trkpt lat="43.46637" lon="5.94731">
        <ele>277</ele>
        <time>2019-05-12T09:05:20Z</time>
      </trkpt>
      <trkpt lat="43.46633" lon="5.94723">
        <ele>277</ele>
        <time>2019-05-12T09:05:21Z</time>
      </trkpt>
      <trkpt lat="43.4663" lon="5.94714">
        <ele>277</ele>
        <time>2019-05-12T09:05:22Z</time>
      </trkpt>
      <trkpt lat="43.46628" lon="5.94705">
        <ele>277</ele>
        <time>2019-05-12T09:05:23Z</time>
      </trkpt>
      <trkpt lat="43.46626" lon="5.94697">
        <ele>277</ele>
        <time>2019-05-12T09:05:24Z</time>
      </trkpt>
      <trkpt lat="43.46624" lon="5.9468">
        <ele>275.56</ele>
        <time>2019-05-12T09:05:26Z</time>
      </trkpt>
      <trkpt lat="43.4662" lon="5.94554">
        <ele>275.56</ele>
        <time>2019-05-12T09:05:40Z</time>
      </trkpt>
      <trkpt lat="43.46615" lon="5.94494">
        <ele>275.07</ele>
        <time>2019-05-12T09:05:47Z</time>
      </trkpt>
      <trkpt lat="43.46612" lon="5.94486">
        <ele>275.07</ele>
        <time>2019-05-12T09:05:48Z</time>
      </trkpt>
      <trkpt lat="43.4661" lon="5.94478">
        <ele>274.59</ele>
        <time>2019-05-12T09:05:49Z</time>
      </trkpt>
      <trkpt lat="43.46592" lon="5.94441">
        <ele>274.59</ele>
        <time>2019-05-12T09:05:54Z</time>
      </trkpt>
      <trkpt lat="43.4659" lon="5.94434">
        <ele>274.59</ele>
        <time>2019-05-12T09:05:55Z</time>
      </trkpt>
      <trkpt lat="43.46588" lon="5.94425">
        <ele>274.59</ele>
        <time>2019-05-12T09:05:56Z</time>
      </trkpt>
      <trkpt lat="43.46578" lon="5.94384">
        <ele>276.04</ele>
        <time>2019-05-12T09:06:01Z</time>
      </trkpt>
      <trkpt lat="43.46575" lon="5.94376">
        <ele>276.52</ele>
        <time>2019-05-12T09:06:02Z</time>
      </trkpt>
      <trkpt lat="43.46571" lon="5.94369">
        <ele>276.52</ele>
        <time>2019-05-12T09:06:03Z</time>
      </trkpt>
      <trkpt lat="43.46567" lon="5.94362">
        <ele>276.52</ele>
        <time>2019-05-12T09:06:04Z</time>
      </trkpt>
      <trkpt lat="43.46563" lon="5.94356">
        <ele>276.52</ele>
        <time>2019-05-12T09:06:05Z</time>
      </trkpt>
      <trkpt lat="43.46559" lon="5.94351">
        <ele>276.52</ele>
        <time>2019-05-12T09:06:06Z</time>
      </trkpt>
      <trkpt lat="43.46554" lon="5.94345">
        <ele>276.52</ele>
        <time>2019-05-12T09:06:07Z</time>
      </trkpt>
      <trkpt lat="43.46549" lon="5.94341">
        <ele>277</ele>
        <time>2019-05-12T09:06:08Z</time>
      </trkpt>
      <trkpt lat="43.46544" lon="5.94336">
        <ele>277</ele>
        <time>2019-05-12T09:06:09Z</time>
      </trkpt>
      <trkpt lat="43.46539" lon="5.94333">
        <ele>277</ele>
        <time>2019-05-12T09:06:10Z</time>
      </trkpt>
      <trkpt lat="43.46533" lon="5.9433">
        <ele>277</ele>
        <time>2019-05-12T09:06:11Z</time>
      </trkpt>
      <trkpt lat="43.4643" lon="5.94273">
        <ele>277</ele>
        <time>2019-05-12T09:06:28Z</time>
      </trkpt>
      <trkpt lat="43.46419" lon="5.94265">
        <ele>277</ele>
        <time>2019-05-12T09:06:30Z</time>
      </trkpt>
      <trkpt lat="43.46414" lon="5.94259">
        <ele>277</ele>
        <time>2019-05-12T09:06:31Z</time>
      </trkpt>
      <trkpt lat="43.4641" lon="5.94253">
        <ele>277</ele>
        <time>2019-05-12T09:06:32Z</time>
      </trkpt>
      <trkpt lat="43.46407" lon="5.94246">
        <ele>277</ele>
        <time>2019-05-12T09:06:33Z</time>
      </trkpt>
      <trkpt lat="43.46404" lon="5.94239">
        <ele>277</ele>
        <time>2019-05-12T09:06:34Z</time>
      </trkpt>
      <trkpt lat="43.46402" lon="5.94231">
        <ele>277</ele>
        <time>2019-05-12T09:06:35Z</time>
      </trkpt>
      <trkpt lat="43.464" lon="5.94223">
        <ele>277</ele>
        <time>2019-05-12T09:06:36Z</time>
      </trkpt>
      <trkpt lat="43.46399" lon="5.94214">
        <ele>277</ele>
        <time>2019-05-12T09:06:37Z</time>
      </trkpt>
      <trkpt lat="43.46376" lon="5.9407">
        <ele>277</ele>
        <time>2019-05-12T09:06:54Z</time>
      </trkpt>
      <trkpt lat="43.46366" lon="5.94023">
        <ele>276.04</ele>
        <time>2019-05-12T09:06:59Z</time>
      </trkpt>
      <trkpt lat="43.4635" lon="5.93868">
        <ele>276.04</ele>
        <time>2019-05-12T09:07:16Z</time>
      </trkpt>
      <trkpt lat="43.46341" lon="5.93823">
        <ele>275.07</ele>
        <time>2019-05-12T09:07:22Z</time>
      </trkpt>
      <trkpt lat="43.46326" lon="5.93786">
        <ele>275.07</ele>
        <time>2019-05-12T09:07:27Z</time>
      </trkpt>
      <trkpt lat="43.46323" lon="5.93779">
        <ele>275.07</ele>
        <time>2019-05-12T09:07:28Z</time>
      </trkpt>
      <trkpt lat="43.46247" lon="5.93701">
        <ele>273.63</ele>
        <time>2019-05-12T09:07:42Z</time>
      </trkpt>
      <trkpt lat="43.46242" lon="5.93694">
        <ele>273.63</ele>
        <time>2019-05-12T09:07:43Z</time>
      </trkpt>
      <trkpt lat="43.46237" lon="5.93688">
        <ele>273.63</ele>
        <time>2019-05-12T09:07:44Z</time>
      </trkpt>
      <trkpt lat="43.46233" lon="5.93679">
        <ele>273.63</ele>
        <time>2019-05-12T09:07:45Z</time>
      </trkpt>
      <trkpt lat="43.46232" lon="5.93671">
        <ele>275.07</ele>
        <time>2019-05-12T09:07:46Z</time>
      </trkpt>
      <trkpt lat="43.46231" lon="5.93662">
        <ele>275.07</ele>
        <time>2019-05-12T09:07:47Z</time>
      </trkpt>
      <trkpt lat="43.46231" lon="5.93654">
        <ele>275.07</ele>
        <time>2019-05-12T09:07:48Z</time>
      </trkpt>
      <trkpt lat="43.46232" lon="5.93644">
        <ele>275.07</ele>
        <time>2019-05-12T09:07:49Z</time>
      </trkpt>
      <trkpt lat="43.46238" lon="5.93503">
        <ele>277</ele>
        <time>2019-05-12T09:08:05Z</time>
      </trkpt>
      <trkpt lat="43.46201" lon="5.93419">
        <ele>279.4</ele>
        <time>2019-05-12T09:08:17Z</time>
      </trkpt>
      <trkpt lat="43.46198" lon="5.93412">
        <ele>279.4</ele>
        <time>2019-05-12T09:08:18Z</time>
      </trkpt>
      <trkpt lat="43.46177" lon="5.93324">
        <ele>277</ele>
        <time>2019-05-12T09:08:28Z</time>
      </trkpt>
      <trkpt lat="43.46174" lon="5.93316">
        <ele>277</ele>
        <time>2019-05-12T09:08:29Z</time>
      </trkpt>
      <trkpt lat="43.46158" lon="5.93288">
        <ele>277</ele>
        <time>2019-05-12T09:08:33Z</time>
      </trkpt>
      <trkpt lat="43.46154" lon="5.93282">
        <ele>277</ele>
        <time>2019-05-12T09:08:34Z</time>
      </trkpt>
      <trkpt lat="43.46149" lon="5.93276">
        <ele>277</ele>
        <time>2019-05-12T09:08:35Z</time>
      </trkpt>
      <trkpt lat="43.46144" lon="5.93272">
        <ele>277</ele>
        <time>2019-05-12T09:08:36Z</time>
      </trkpt>
      <trkpt lat="43.4614" lon="5.93267">
        <ele>277</ele>
        <time>2019-05-12T09:08:37Z</time>
      </trkpt>
      <trkpt lat="43.46064" lon="5.93193">
        <ele>277</ele>
        <time>2019-05-12T09:08:53Z</time>
      </trkpt>
      <trkpt lat="43.46009" lon="5.93107">
        <ele>276.04</ele>
        <time>2019-05-12T09:09:06Z</time>
      </trkpt>
      <trkpt lat="43.45992" lon="5.93083">
        <ele>277</ele>
        <time>2019-05-12T09:09:10Z</time>
      </trkpt>
      <trkpt lat="43.45989" lon="5.93077">
        <ele>277.48</ele>
        <time>2019-05-12T09:09:11Z</time>
      </trkpt>
      <trkpt lat="43.45986" lon="5.93069">
        <ele>277.48</ele>
        <time>2019-05-12T09:09:12Z</time>
      </trkpt>
      <trkpt lat="43.45985" lon="5.93061">
        <ele>277.48</ele>
        <time>2019-05-12T09:09:13Z</time>
      </trkpt>
      <trkpt lat="43.45984" lon="5.93052">
        <ele>277.48</ele>
        <time>2019-05-12T09:09:14Z</time>
      </trkpt>
      <trkpt lat="43.45985" lon="5.93043">
        <ele>277.48</ele>
        <time>2019-05-12T09:09:15Z</time>
      </trkpt>
      <trkpt lat="43.45986" lon="5.93034">
        <ele>277.48</ele>
        <time>2019-05-12T09:09:16Z</time>
      </trkpt>
      <trkpt lat="43.45989" lon="5.93027">
        <ele>277.48</ele>
        <time>2019-05-12T09:09:17Z</time>
      </trkpt>
      <trkpt lat="43.45992" lon="5.9302">
        <ele>277.48</ele>
        <time>2019-05-12T09:09:18Z</time>
      </trkpt>
      <trkpt lat="43.45997" lon="5.93013">
        <ele>277.96</ele>
        <time>2019-05-12T09:09:19Z</time>
      </trkpt>
      <trkpt lat="43.46001" lon="5.93008">
        <ele>277.96</ele>
        <time>2019-05-12T09:09:20Z</time>
      </trkpt>
      <trkpt lat="43.46016" lon="5.92985">
        <ele>277.96</ele>
        <time>2019-05-12T09:09:24Z</time>
      </trkpt>
      <trkpt lat="43.46019" lon="5.92978">
        <ele>277.96</ele>
        <time>2019-05-12T09:09:25Z</time>
      </trkpt>
      <trkpt lat="43.46021" lon="5.92971">
        <ele>278.92</ele>
        <time>2019-05-12T09:09:26Z</time>
      </trkpt>
      <trkpt lat="43.46023" lon="5.92964">
        <ele>278.92</ele>
        <time>2019-05-12T09:09:27Z</time>
      </trkpt>
      <trkpt lat="43.46025" lon="5.92956">
        <ele>278.92</ele>
        <time>2019-05-12T09:09:28Z</time>
      </trkpt>
      <trkpt lat="43.46026" lon="5.92949">
        <ele>278.92</ele>
        <time>2019-05-12T09:09:29Z</time>
      </trkpt>
      <trkpt lat="43.46027" lon="5.92941">
        <ele>278.92</ele>
        <time>2019-05-12T09:09:30Z</time>
      </trkpt>
      <trkpt lat="43.46027" lon="5.92933">
        <ele>278.92</ele>
        <time>2019-05-12T09:09:31Z</time>
      </trkpt>
      <trkpt lat="43.46027" lon="5.92925">
        <ele>279.4</ele>
        <time>2019-05-12T09:09:32Z</time>
      </trkpt>
      <trkpt lat="43.46028" lon="5.9286">
        <ele>277.96</ele>
        <time>2019-05-12T09:09:40Z</time>
      </trkpt>
      <trkpt lat="43.46029" lon="5.92853">
        <ele>277.96</ele>
        <time>2019-05-12T09:09:41Z</time>
      </trkpt>
      <trkpt lat="43.46044" lon="5.92749">
        <ele>277.96</ele>
        <time>2019-05-12T09:09:55Z</time>
      </trkpt>
      <trkpt lat="43.46044" lon="5.92743">
        <ele>279.4</ele>
        <time>2019-05-12T09:09:56Z</time>
      </trkpt>
      <trkpt lat="43.4604" lon="5.92643">
        <ele>279.4</ele>
        <time>2019-05-12T09:10:10Z</time>
      </trkpt>
      <trkpt lat="43.46042" lon="5.92635">
        <ele>279.88</ele>
        <time>2019-05-12T09:10:11Z</time>
      </trkpt>
      <trkpt lat="43.46061" lon="5.92532">
        <ele>279.4</ele>
        <time>2019-05-12T09:10:25Z</time>
      </trkpt>
      <trkpt lat="43.46085" lon="5.92421">
        <ele>282.28</ele>
        <time>2019-05-12T09:10:41Z</time>
      </trkpt>
      <trkpt lat="43.46092" lon="5.92387">
        <ele>282.77</ele>
        <time>2019-05-12T09:10:46Z</time>
      </trkpt>
      <trkpt lat="43.46092" lon="5.92365">
        <ele>282.77</ele>
        <time>2019-05-12T09:10:49Z</time>
      </trkpt>
      <trkpt lat="43.46091" lon="5.92358">
        <ele>282.77</ele>
        <time>2019-05-12T09:10:50Z</time>
      </trkpt>
      <trkpt lat="43.46089" lon="5.92351">
        <ele>282.77</ele>
        <time>2019-05-12T09:10:51Z</time>
      </trkpt>
      <trkpt lat="43.46087" lon="5.92344">
        <ele>282.77</ele>
        <time>2019-05-12T09:10:52Z</time>
      </trkpt>
      <trkpt lat="43.46085" lon="5.92338">
        <ele>282.77</ele>
        <time>2019-05-12T09:10:53Z</time>
      </trkpt>
      <trkpt lat="43.46063" lon="5.92286">
        <ele>282.77</ele>
        <time>2019-05-12T09:11:01Z</time>
      </trkpt>
      <trkpt lat="43.46062" lon="5.92278">
        <ele>282.77</ele>
        <time>2019-05-12T09:11:02Z</time>
      </trkpt>
      <trkpt lat="43.46054" lon="5.92238">
        <ele>282.28</ele>
        <time>2019-05-12T09:11:08Z</time>
      </trkpt>
      <trkpt lat="43.46037" lon="5.92196">
        <ele>283.73</ele>
        <time>2019-05-12T09:11:15Z</time>
      </trkpt>
      <trkpt lat="43.46033" lon="5.9219">
        <ele>284.21</ele>
        <time>2019-05-12T09:11:16Z</time>
      </trkpt>
      <trkpt lat="43.4603" lon="5.92186">
        <ele>284.21</ele>
        <time>2019-05-12T09:11:17Z</time>
      </trkpt>
      <trkpt lat="43.45981" lon="5.92134">
        <ele>282.77</ele>
        <time>2019-05-12T09:11:29Z</time>
      </trkpt>
      <trkpt lat="43.45969" lon="5.9212">
        <ele>284.21</ele>
        <time>2019-05-12T09:11:32Z</time>
      </trkpt>
      <trkpt lat="43.45966" lon="5.92115">
        <ele>284.21</ele>
        <time>2019-05-12T09:11:33Z</time>
      </trkpt>
      <trkpt lat="43.45957" lon="5.92097">
        <ele>284.69</ele>
        <time>2019-05-12T09:11:36Z</time>
      </trkpt>
      <trkpt lat="43.45955" lon="5.92091">
        <ele>284.69</ele>
        <time>2019-05-12T09:11:37Z</time>
      </trkpt>
      <trkpt lat="43.45953" lon="5.92084">
        <ele>284.69</ele>
        <time>2019-05-12T09:11:38Z</time>
      </trkpt>
      <trkpt lat="43.45952" lon="5.92077">
        <ele>284.69</ele>
        <time>2019-05-12T09:11:39Z</time>
      </trkpt>
      <trkpt lat="43.45952" lon="5.9207">
        <ele>284.69</ele>
        <time>2019-05-12T09:11:40Z</time>
      </trkpt>
      <trkpt lat="43.45952" lon="5.92062">
        <ele>284.69</ele>
        <time>2019-05-12T09:11:41Z</time>
      </trkpt>
      <trkpt lat="43.45952" lon="5.92055">
        <ele>284.69</ele>
        <time>2019-05-12T09:11:42Z</time>
      </trkpt>
      <trkpt lat="43.45953" lon="5.92048">
        <ele>284.69</ele>
        <time>2019-05-12T09:11:43Z</time>
      </trkpt>
      <trkpt lat="43.45954" lon="5.9204">
        <ele>284.69</ele>
        <time>2019-05-12T09:11:44Z</time>
      </trkpt>
      <trkpt lat="43.45973" lon="5.91924">
        <ele>287.09</ele>
        <time>2019-05-12T09:12:01Z</time>
      </trkpt>
      <trkpt lat="43.45973" lon="5.91917">
        <ele>287.09</ele>
        <time>2019-05-12T09:12:02Z</time>
      </trkpt>
      <trkpt lat="43.45973" lon="5.9191">
        <ele>287.09</ele>
        <time>2019-05-12T09:12:03Z</time>
      </trkpt>
      <trkpt lat="43.45972" lon="5.91902">
        <ele>287.09</ele>
        <time>2019-05-12T09:12:04Z</time>
      </trkpt>
      <trkpt lat="43.45971" lon="5.91895">
        <ele>287.09</ele>
        <time>2019-05-12T09:12:05Z</time>
      </trkpt>
      <trkpt lat="43.45962" lon="5.91855">
        <ele>286.61</ele>
        <time>2019-05-12T09:12:11Z</time>
      </trkpt>
      <trkpt lat="43.45955" lon="5.91757">
        <ele>287.57</ele>
        <time>2019-05-12T09:12:25Z</time>
      </trkpt>
      <trkpt lat="43.45948" lon="5.91701">
        <ele>288.05</ele>
        <time>2019-05-12T09:12:33Z</time>
      </trkpt>
      <trkpt lat="43.45948" lon="5.91693">
        <ele>288.05</ele>
        <time>2019-05-12T09:12:34Z</time>
      </trkpt>
      <trkpt lat="43.45949" lon="5.91685">
        <ele>289.01</ele>
        <time>2019-05-12T09:12:35Z</time>
      </trkpt>
      <trkpt lat="43.45972" lon="5.91587">
        <ele>290.94</ele>
        <time>2019-05-12T09:12:50Z</time>
      </trkpt>
      <trkpt lat="43.45973" lon="5.91581">
        <ele>290.94</ele>
        <time>2019-05-12T09:12:51Z</time>
      </trkpt>
      <trkpt lat="43.45973" lon="5.91574">
        <ele>290.94</ele>
        <time>2019-05-12T09:12:52Z</time>
      </trkpt>
      <trkpt lat="43.45974" lon="5.91439">
        <ele>292.38</ele>
        <time>2019-05-12T09:13:10Z</time>
      </trkpt>
      <trkpt lat="43.45958" lon="5.9137">
        <ele>293.34</ele>
        <time>2019-05-12T09:13:20Z</time>
      </trkpt>
      <trkpt lat="43.45958" lon="5.91275">
        <ele>295.26</ele>
        <time>2019-05-12T09:13:33Z</time>
      </trkpt>
      <trkpt lat="43.4596" lon="5.91241">
        <ele>293.82</ele>
        <time>2019-05-12T09:13:38Z</time>
      </trkpt>
      <trkpt lat="43.45966" lon="5.91152">
        <ele>292.86</ele>
        <time>2019-05-12T09:13:50Z</time>
      </trkpt>
      <trkpt lat="43.45968" lon="5.91145">
        <ele>292.86</ele>
        <time>2019-05-12T09:13:51Z</time>
      </trkpt>
      <trkpt lat="43.45971" lon="5.91138">
        <ele>292.86</ele>
        <time>2019-05-12T09:13:52Z</time>
      </trkpt>
      <trkpt lat="43.45973" lon="5.91132">
        <ele>292.86</ele>
        <time>2019-05-12T09:13:53Z</time>
      </trkpt>
      <trkpt lat="43.45976" lon="5.91126">
        <ele>292.86</ele>
        <time>2019-05-12T09:13:54Z</time>
      </trkpt>
      <trkpt lat="43.45997" lon="5.91085">
        <ele>294.78</ele>
        <time>2019-05-12T09:14:01Z</time>
      </trkpt>
      <trkpt lat="43.46016" lon="5.91052">
        <ele>296.22</ele>
        <time>2019-05-12T09:14:07Z</time>
      </trkpt>
      <trkpt lat="43.46018" lon="5.91046">
        <ele>296.7</ele>
        <time>2019-05-12T09:14:08Z</time>
      </trkpt>
      <trkpt lat="43.46019" lon="5.9104">
        <ele>296.7</ele>
        <time>2019-05-12T09:14:09Z</time>
      </trkpt>
      <trkpt lat="43.4602" lon="5.91033">
        <ele>296.7</ele>
        <time>2019-05-12T09:14:10Z</time>
      </trkpt>
      <trkpt lat="43.4602" lon="5.91026">
        <ele>296.7</ele>
        <time>2019-05-12T09:14:11Z</time>
      </trkpt>
      <trkpt lat="43.4602" lon="5.91019">
        <ele>296.7</ele>
        <time>2019-05-12T09:14:12Z</time>
      </trkpt>
      <trkpt lat="43.46019" lon="5.91014">
        <ele>296.7</ele>
        <time>2019-05-12T09:14:13Z</time>
      </trkpt>
      <trkpt lat="43.46018" lon="5.91008">
        <ele>296.7</ele>
        <time>2019-05-12T09:14:14Z</time>
      </trkpt>
      <trkpt lat="43.46016" lon="5.91001">
        <ele>296.7</ele>
        <time>2019-05-12T09:14:15Z</time>
      </trkpt>
      <trkpt lat="43.46014" lon="5.90996">
        <ele>295.26</ele>
        <time>2019-05-12T09:14:16Z</time>
      </trkpt>
      <trkpt lat="43.46011" lon="5.9099">
        <ele>295.26</ele>
        <time>2019-05-12T09:14:17Z</time>
      </trkpt>
      <trkpt lat="43.46008" lon="5.90985">
        <ele>295.26</ele>
        <time>2019-05-12T09:14:18Z</time>
      </trkpt>
      <trkpt lat="43.4599" lon="5.90953">
        <ele>296.7</ele>
        <time>2019-05-12T09:14:24Z</time>
      </trkpt>
      <trkpt lat="43.45987" lon="5.90948">
        <ele>296.7</ele>
        <time>2019-05-12T09:14:25Z</time>
      </trkpt>
      <trkpt lat="43.4594" lon="5.90836">
        <ele>295.26</ele>
        <time>2019-05-12T09:14:41Z</time>
      </trkpt>
      <trkpt lat="43.45887" lon="5.90697">
        <ele>297.18</ele>
        <time>2019-05-12T09:15:00Z</time>
      </trkpt>
      <trkpt lat="43.45853" lon="5.90532">
        <ele>298.15</ele>
        <time>2019-05-12T09:15:20Z</time>
      </trkpt>
      <trkpt lat="43.4583" lon="5.90394">
        <ele>298.63</ele>
        <time>2019-05-12T09:15:36Z</time>
      </trkpt>
      <trkpt lat="43.45792" lon="5.90278">
        <ele>299.11</ele>
        <time>2019-05-12T09:15:51Z</time>
      </trkpt>
      <trkpt lat="43.45748" lon="5.90144">
        <ele>299.59</ele>
        <time>2019-05-12T09:16:09Z</time>
      </trkpt>
      <trkpt lat="43.45706" lon="5.9002">
        <ele>300.07</ele>
        <time>2019-05-12T09:16:25Z</time>
      </trkpt>
      <trkpt lat="43.45649" lon="5.8988">
        <ele>301.03</ele>
        <time>2019-05-12T09:16:45Z</time>
      </trkpt>
      <trkpt lat="43.45598" lon="5.89786">
        <ele>301.99</ele>
        <time>2019-05-12T09:17:01Z</time>
      </trkpt>
      <trkpt lat="43.45576" lon="5.89748">
        <ele>300.55</ele>
        <time>2019-05-12T09:17:07Z</time>
      </trkpt>
      <trkpt lat="43.45564" lon="5.89724">
        <ele>300.55</ele>
        <time>2019-05-12T09:17:11Z</time>
      </trkpt>
      <trkpt lat="43.45562" lon="5.89717">
        <ele>300.55</ele>
        <time>2019-05-12T09:17:12Z</time>
      </trkpt>
      <trkpt lat="43.45561" lon="5.89711">
        <ele>300.55</ele>
        <time>2019-05-12T09:17:13Z</time>
      </trkpt>
      <trkpt lat="43.4556" lon="5.89704">
        <ele>300.55</ele>
        <time>2019-05-12T09:17:14Z</time>
      </trkpt>
      <trkpt lat="43.45559" lon="5.89696">
        <ele>300.55</ele>
        <time>2019-05-12T09:17:15Z</time>
      </trkpt>
      <trkpt lat="43.45559" lon="5.89689">
        <ele>301.51</ele>
        <time>2019-05-12T09:17:16Z</time>
      </trkpt>
      <trkpt lat="43.45558" lon="5.89682">
        <ele>301.51</ele>
        <time>2019-05-12T09:17:17Z</time>
      </trkpt>
      <trkpt lat="43.45557" lon="5.89667">
        <ele>301.99</ele>
        <time>2019-05-12T09:17:19Z</time>
      </trkpt>
      <trkpt lat="43.45555" lon="5.8966">
        <ele>302.47</ele>
        <time>2019-05-12T09:17:20Z</time>
      </trkpt>
      <trkpt lat="43.45553" lon="5.89653">
        <ele>302.47</ele>
        <time>2019-05-12T09:17:21Z</time>
      </trkpt>
      <trkpt lat="43.45531" lon="5.89597">
        <ele>303.43</ele>
        <time>2019-05-12T09:17:31Z</time>
      </trkpt>
      <trkpt lat="43.45529" lon="5.89591">
        <ele>303.43</ele>
        <time>2019-05-12T09:17:32Z</time>
      </trkpt>
      <trkpt lat="43.45509" lon="5.895">
        <ele>304.88</ele>
        <time>2019-05-12T09:17:46Z</time>
      </trkpt>
      <trkpt lat="43.45468" lon="5.89426">
        <ele>306.32</ele>
        <time>2019-05-12T09:17:59Z</time>
      </trkpt>
      <trkpt lat="43.45464" lon="5.89421">
        <ele>306.32</ele>
        <time>2019-05-12T09:18:00Z</time>
      </trkpt>
      <trkpt lat="43.45427" lon="5.89382">
        <ele>305.36</ele>
        <time>2019-05-12T09:18:09Z</time>
      </trkpt>
      <trkpt lat="43.45354" lon="5.8929">
        <ele>304.39</ele>
        <time>2019-05-12T09:18:25Z</time>
      </trkpt>
      <trkpt lat="43.4535" lon="5.89282">
        <ele>304.39</ele>
        <time>2019-05-12T09:18:26Z</time>
      </trkpt>
      <trkpt lat="43.45348" lon="5.89272">
        <ele>304.39</ele>
        <time>2019-05-12T09:18:27Z</time>
      </trkpt>
      <trkpt lat="43.45347" lon="5.89266">
        <ele>304.39</ele>
        <time>2019-05-12T09:18:28Z</time>
      </trkpt>
      <trkpt lat="43.45346" lon="5.89258">
        <ele>304.39</ele>
        <time>2019-05-12T09:18:29Z</time>
      </trkpt>
      <trkpt lat="43.45328" lon="5.89115">
        <ele>303.91</ele>
        <time>2019-05-12T09:18:45Z</time>
      </trkpt>
      <trkpt lat="43.45314" lon="5.89001">
        <ele>303.91</ele>
        <time>2019-05-12T09:18:59Z</time>
      </trkpt>
      <trkpt lat="43.45316" lon="5.88959">
        <ele>303.91</ele>
        <time>2019-05-12T09:19:04Z</time>
      </trkpt>
      <trkpt lat="43.45336" lon="5.88856">
        <ele>303.91</ele>
        <time>2019-05-12T09:19:17Z</time>
      </trkpt>
      <trkpt lat="43.45335" lon="5.88744">
        <ele>303.43</ele>
        <time>2019-05-12T09:19:30Z</time>
      </trkpt>
      <trkpt lat="43.45335" lon="5.8866">
        <ele>302.95</ele>
        <time>2019-05-12T09:19:41Z</time>
      </trkpt>
      <trkpt lat="43.45322" lon="5.88597">
        <ele>301.51</ele>
        <time>2019-05-12T09:19:50Z</time>
      </trkpt>
      <trkpt lat="43.45318" lon="5.88592">
        <ele>301.03</ele>
        <time>2019-05-12T09:19:51Z</time>
      </trkpt>
      <trkpt lat="43.45313" lon="5.88589">
        <ele>301.03</ele>
        <time>2019-05-12T09:19:52Z</time>
      </trkpt>
      <trkpt lat="43.45309" lon="5.88587">
        <ele>300.07</ele>
        <time>2019-05-12T09:19:53Z</time>
      </trkpt>
      <trkpt lat="43.45304" lon="5.88586">
        <ele>300.07</ele>
        <time>2019-05-12T09:19:54Z</time>
      </trkpt>
      <trkpt lat="43.45227" lon="5.88565">
        <ele>299.11</ele>
        <time>2019-05-12T09:20:07Z</time>
      </trkpt>
      <trkpt lat="43.4522" lon="5.88566">
        <ele>299.11</ele>
        <time>2019-05-12T09:20:08Z</time>
      </trkpt>
      <trkpt lat="43.45213" lon="5.88567">
        <ele>299.11</ele>
        <time>2019-05-12T09:20:09Z</time>
      </trkpt>
      <trkpt lat="43.45207" lon="5.8857">
        <ele>298.63</ele>
        <time>2019-05-12T09:20:10Z</time>
      </trkpt>
      <trkpt lat="43.452" lon="5.88573">
        <ele>298.63</ele>
        <time>2019-05-12T09:20:11Z</time>
      </trkpt>
      <trkpt lat="43.45194" lon="5.88576">
        <ele>298.63</ele>
        <time>2019-05-12T09:20:12Z</time>
      </trkpt>
      <trkpt lat="43.45188" lon="5.8858">
        <ele>298.63</ele>
        <time>2019-05-12T09:20:13Z</time>
      </trkpt>
      <trkpt lat="43.45109" lon="5.88609">
        <ele>299.59</ele>
        <time>2019-05-12T09:20:25Z</time>
      </trkpt>
      <trkpt lat="43.45025" lon="5.88645">
        <ele>301.03</ele>
        <time>2019-05-12T09:20:39Z</time>
      </trkpt>
      <trkpt lat="43.45014" lon="5.88658">
        <ele>302.47</ele>
        <time>2019-05-12T09:20:42Z</time>
      </trkpt>
      <trkpt lat="43.45008" lon="5.88665">
        <ele>303.91</ele>
        <time>2019-05-12T09:20:44Z</time>
      </trkpt>
      <trkpt lat="43.4499" lon="5.88658">
        <ele>304.39</ele>
        <time>2019-05-12T09:20:52Z</time>
      </trkpt>
      <trkpt lat="43.44986" lon="5.88647">
        <ele>304.39</ele>
        <time>2019-05-12T09:20:59Z</time>
      </trkpt>
      <trkpt lat="43.44976" lon="5.8864">
        <ele>304.39</ele>
        <time>2019-05-12T09:21:03Z</time>
      </trkpt>
      <trkpt lat="43.44975" lon="5.88636">
        <ele>304.88</ele>
        <time>2019-05-12T09:21:04Z</time>
      </trkpt>
      <trkpt lat="43.44973" lon="5.88633">
        <ele>304.88</ele>
        <time>2019-05-12T09:21:05Z</time>
      </trkpt>
      <trkpt lat="43.44999" lon="5.88531">
        <ele>301.51</ele>
        <time>2019-05-12T09:21:19Z</time>
      </trkpt>
      <trkpt lat="43.45039" lon="5.88437">
        <ele>302.47</ele>
        <time>2019-05-12T09:21:33Z</time>
      </trkpt>
      <trkpt lat="43.45048" lon="5.88427">
        <ele>300.55</ele>
        <time>2019-05-12T09:21:35Z</time>
      </trkpt>
      <trkpt lat="43.45101" lon="5.88332">
        <ele>299.11</ele>
        <time>2019-05-12T09:21:51Z</time>
      </trkpt>
      <trkpt lat="43.45118" lon="5.88283">
        <ele>301.99</ele>
        <time>2019-05-12T09:21:59Z</time>
      </trkpt>
      <trkpt lat="43.45122" lon="5.88266">
        <ele>299.11</ele>
        <time>2019-05-12T09:22:02Z</time>
      </trkpt>
      <trkpt lat="43.45133" lon="5.88178">
        <ele>300.55</ele>
        <time>2019-05-12T09:22:18Z</time>
      </trkpt>
      <trkpt lat="43.45132" lon="5.88163">
        <ele>299.11</ele>
        <time>2019-05-12T09:22:20Z</time>
      </trkpt>
      <trkpt lat="43.45119" lon="5.88083">
        <ele>296.22</ele>
        <time>2019-05-12T09:22:30Z</time>
      </trkpt>
      <trkpt lat="43.45071" lon="5.87968">
        <ele>296.22</ele>
        <time>2019-05-12T09:22:46Z</time>
      </trkpt>
      <trkpt lat="43.45023" lon="5.87878">
        <ele>296.22</ele>
        <time>2019-05-12T09:22:59Z</time>
      </trkpt>
      <trkpt lat="43.45018" lon="5.87873">
        <ele>296.22</ele>
        <time>2019-05-12T09:23:00Z</time>
      </trkpt>
      <trkpt lat="43.45012" lon="5.8787">
        <ele>296.22</ele>
        <time>2019-05-12T09:23:01Z</time>
      </trkpt>
      <trkpt lat="43.45007" lon="5.87869">
        <ele>296.22</ele>
        <time>2019-05-12T09:23:02Z</time>
      </trkpt>
      <trkpt lat="43.45001" lon="5.8787">
        <ele>296.22</ele>
        <time>2019-05-12T09:23:03Z</time>
      </trkpt>
      <trkpt lat="43.44995" lon="5.87871">
        <ele>296.22</ele>
        <time>2019-05-12T09:23:04Z</time>
      </trkpt>
      <trkpt lat="43.44984" lon="5.87871">
        <ele>296.22</ele>
        <time>2019-05-12T09:23:06Z</time>
      </trkpt>
      <trkpt lat="43.44979" lon="5.8787">
        <ele>296.22</ele>
        <time>2019-05-12T09:23:07Z</time>
      </trkpt>
      <trkpt lat="43.44975" lon="5.87868">
        <ele>296.22</ele>
        <time>2019-05-12T09:23:08Z</time>
      </trkpt>
      <trkpt lat="43.44971" lon="5.87864">
        <ele>296.22</ele>
        <time>2019-05-12T09:23:09Z</time>
      </trkpt>
      <trkpt lat="43.44967" lon="5.8786">
        <ele>296.22</ele>
        <time>2019-05-12T09:23:10Z</time>
      </trkpt>
      <trkpt lat="43.44953" lon="5.87843">
        <ele>297.67</ele>
        <time>2019-05-12T09:23:14Z</time>
      </trkpt>
      <trkpt lat="43.44938" lon="5.87824">
        <ele>298.15</ele>
        <time>2019-05-12T09:23:18Z</time>
      </trkpt>
      <trkpt lat="43.44936" lon="5.87818">
        <ele>298.15</ele>
        <time>2019-05-12T09:23:19Z</time>
      </trkpt>
      <trkpt lat="43.44933" lon="5.87812">
        <ele>299.11</ele>
        <time>2019-05-12T09:23:20Z</time>
      </trkpt>
      <trkpt lat="43.44932" lon="5.87806">
        <ele>299.11</ele>
        <time>2019-05-12T09:23:21Z</time>
      </trkpt>
      <trkpt lat="43.44932" lon="5.87799">
        <ele>299.11</ele>
        <time>2019-05-12T09:23:22Z</time>
      </trkpt>
      <trkpt lat="43.44931" lon="5.87793">
        <ele>299.11</ele>
        <time>2019-05-12T09:23:23Z</time>
      </trkpt>
      <trkpt lat="43.4493" lon="5.87773">
        <ele>297.18</ele>
        <time>2019-05-12T09:23:26Z</time>
      </trkpt>
      <trkpt lat="43.44929" lon="5.87767">
        <ele>296.7</ele>
        <time>2019-05-12T09:23:27Z</time>
      </trkpt>
      <trkpt lat="43.44927" lon="5.87761">
        <ele>295.26</ele>
        <time>2019-05-12T09:23:28Z</time>
      </trkpt>
      <trkpt lat="43.44925" lon="5.87754">
        <ele>295.26</ele>
        <time>2019-05-12T09:23:29Z</time>
      </trkpt>
      <trkpt lat="43.44922" lon="5.87748">
        <ele>295.26</ele>
        <time>2019-05-12T09:23:30Z</time>
      </trkpt>
      <trkpt lat="43.44918" lon="5.87742">
        <ele>295.26</ele>
        <time>2019-05-12T09:23:31Z</time>
      </trkpt>
      <trkpt lat="43.44915" lon="5.87737">
        <ele>295.26</ele>
        <time>2019-05-12T09:23:32Z</time>
      </trkpt>
      <trkpt lat="43.4487" lon="5.87648">
        <ele>296.22</ele>
        <time>2019-05-12T09:23:48Z</time>
      </trkpt>
      <trkpt lat="43.44867" lon="5.87643">
        <ele>296.22</ele>
        <time>2019-05-12T09:23:49Z</time>
      </trkpt>
      <trkpt lat="43.44863" lon="5.8764">
        <ele>297.18</ele>
        <time>2019-05-12T09:23:50Z</time>
      </trkpt>
      <trkpt lat="43.44859" lon="5.87637">
        <ele>299.11</ele>
        <time>2019-05-12T09:23:51Z</time>
      </trkpt>
      <trkpt lat="43.44854" lon="5.87636">
        <ele>299.11</ele>
        <time>2019-05-12T09:23:52Z</time>
      </trkpt>
      <trkpt lat="43.4485" lon="5.87635">
        <ele>297.67</ele>
        <time>2019-05-12T09:23:53Z</time>
      </trkpt>
      <trkpt lat="43.44846" lon="5.87634">
        <ele>297.67</ele>
        <time>2019-05-12T09:23:54Z</time>
      </trkpt>
      <trkpt lat="43.44814" lon="5.87611">
        <ele>297.18</ele>
        <time>2019-05-12T09:24:05Z</time>
      </trkpt>
      <trkpt lat="43.44813" lon="5.87607">
        <ele>297.18</ele>
        <time>2019-05-12T09:24:06Z</time>
      </trkpt>
      <trkpt lat="43.44802" lon="5.8755">
        <ele>295.74</ele>
        <time>2019-05-12T09:24:19Z</time>
      </trkpt>
      <trkpt lat="43.448" lon="5.87538">
        <ele>295.74</ele>
        <time>2019-05-12T09:24:21Z</time>
      </trkpt>
      <trkpt lat="43.44799" lon="5.87531">
        <ele>295.74</ele>
        <time>2019-05-12T09:24:22Z</time>
      </trkpt>
      <trkpt lat="43.44796" lon="5.87526">
        <ele>295.74</ele>
        <time>2019-05-12T09:24:23Z</time>
      </trkpt>
      <trkpt lat="43.44793" lon="5.8752">
        <ele>295.74</ele>
        <time>2019-05-12T09:24:24Z</time>
      </trkpt>
      <trkpt lat="43.44789" lon="5.87516">
        <ele>295.74</ele>
        <time>2019-05-12T09:24:25Z</time>
      </trkpt>
      <trkpt lat="43.44762" lon="5.87461">
        <ele>296.7</ele>
        <time>2019-05-12T09:24:38Z</time>
      </trkpt>
      <trkpt lat="43.44764" lon="5.87452">
        <ele>297.67</ele>
        <time>2019-05-12T09:24:39Z</time>
      </trkpt>
      <trkpt lat="43.44766" lon="5.87447">
        <ele>297.67</ele>
        <time>2019-05-12T09:24:40Z</time>
      </trkpt>
      <trkpt lat="43.4478" lon="5.87422">
        <ele>297.18</ele>
        <time>2019-05-12T09:24:45Z</time>
      </trkpt>
      <trkpt lat="43.44813" lon="5.87349">
        <ele>299.11</ele>
        <time>2019-05-12T09:24:58Z</time>
      </trkpt>
      <trkpt lat="43.44817" lon="5.87345">
        <ele>299.11</ele>
        <time>2019-05-12T09:24:59Z</time>
      </trkpt>
      <trkpt lat="43.4482" lon="5.87342">
        <ele>299.11</ele>
        <time>2019-05-12T09:25:00Z</time>
      </trkpt>
      <trkpt lat="43.44824" lon="5.8734">
        <ele>299.11</ele>
        <time>2019-05-12T09:25:01Z</time>
      </trkpt>
      <trkpt lat="43.44828" lon="5.87337">
        <ele>299.11</ele>
        <time>2019-05-12T09:25:02Z</time>
      </trkpt>
      <trkpt lat="43.44833" lon="5.87336">
        <ele>299.11</ele>
        <time>2019-05-12T09:25:03Z</time>
      </trkpt>
      <trkpt lat="43.44836" lon="5.87335">
        <ele>299.11</ele>
        <time>2019-05-12T09:25:04Z</time>
      </trkpt>
      <trkpt lat="43.44865" lon="5.87313">
        <ele>301.99</ele>
        <time>2019-05-12T09:25:13Z</time>
      </trkpt>
      <trkpt lat="43.44893" lon="5.87266">
        <ele>303.43</ele>
        <time>2019-05-12T09:25:24Z</time>
      </trkpt>
      <trkpt lat="43.44894" lon="5.87261">
        <ele>303.43</ele>
        <time>2019-05-12T09:25:25Z</time>
      </trkpt>
      <trkpt lat="43.44896" lon="5.87254">
        <ele>303.43</ele>
        <time>2019-05-12T09:25:26Z</time>
      </trkpt>
      <trkpt lat="43.44904" lon="5.87186">
        <ele>302.47</ele>
        <time>2019-05-12T09:25:37Z</time>
      </trkpt>
      <trkpt lat="43.44911" lon="5.87106">
        <ele>302.47</ele>
        <time>2019-05-12T09:25:50Z</time>
      </trkpt>
      <trkpt lat="43.44912" lon="5.87101">
        <ele>302.47</ele>
        <time>2019-05-12T09:25:51Z</time>
      </trkpt>
      <trkpt lat="43.44915" lon="5.87095">
        <ele>302.47</ele>
        <time>2019-05-12T09:25:52Z</time>
      </trkpt>
      <trkpt lat="43.44918" lon="5.8709">
        <ele>302.47</ele>
        <time>2019-05-12T09:25:53Z</time>
      </trkpt>
      <trkpt lat="43.44922" lon="5.87087">
        <ele>302.47</ele>
        <time>2019-05-12T09:25:54Z</time>
      </trkpt>
      <trkpt lat="43.44927" lon="5.87083">
        <ele>302.47</ele>
        <time>2019-05-12T09:25:55Z</time>
      </trkpt>
      <trkpt lat="43.4496" lon="5.87057">
        <ele>303.43</ele>
        <time>2019-05-12T09:26:02Z</time>
      </trkpt>
      <trkpt lat="43.44975" lon="5.87047">
        <ele>304.39</ele>
        <time>2019-05-12T09:26:05Z</time>
      </trkpt>
      <trkpt lat="43.44979" lon="5.87042">
        <ele>304.39</ele>
        <time>2019-05-12T09:26:06Z</time>
      </trkpt>
      <trkpt lat="43.44981" lon="5.87038">
        <ele>305.36</ele>
        <time>2019-05-12T09:26:07Z</time>
      </trkpt>
      <trkpt lat="43.44983" lon="5.87032">
        <ele>305.36</ele>
        <time>2019-05-12T09:26:08Z</time>
      </trkpt>
      <trkpt lat="43.44983" lon="5.87026">
        <ele>306.32</ele>
        <time>2019-05-12T09:26:09Z</time>
      </trkpt>
      <trkpt lat="43.44982" lon="5.87019">
        <ele>306.32</ele>
        <time>2019-05-12T09:26:10Z</time>
      </trkpt>
      <trkpt lat="43.44981" lon="5.87013">
        <ele>306.8</ele>
        <time>2019-05-12T09:26:11Z</time>
      </trkpt>
      <trkpt lat="43.4498" lon="5.87007">
        <ele>306.8</ele>
        <time>2019-05-12T09:26:12Z</time>
      </trkpt>
      <trkpt lat="43.44979" lon="5.87002">
        <ele>306.8</ele>
        <time>2019-05-12T09:26:13Z</time>
      </trkpt>
      <trkpt lat="43.4497" lon="5.8694">
        <ele>308.24</ele>
        <time>2019-05-12T09:26:24Z</time>
      </trkpt>
      <trkpt lat="43.4497" lon="5.86934">
        <ele>308.24</ele>
        <time>2019-05-12T09:26:25Z</time>
      </trkpt>
      <trkpt lat="43.44971" lon="5.86928">
        <ele>308.24</ele>
        <time>2019-05-12T09:26:26Z</time>
      </trkpt>
      <trkpt lat="43.44972" lon="5.86922">
        <ele>308.24</ele>
        <time>2019-05-12T09:26:27Z</time>
      </trkpt>
      <trkpt lat="43.44974" lon="5.86916">
        <ele>308.72</ele>
        <time>2019-05-12T09:26:28Z</time>
      </trkpt>
      <trkpt lat="43.44995" lon="5.86835">
        <ele>310.64</ele>
        <time>2019-05-12T09:26:43Z</time>
      </trkpt>
      <trkpt lat="43.45038" lon="5.86784">
        <ele>307.28</ele>
        <time>2019-05-12T09:26:55Z</time>
      </trkpt>
      <trkpt lat="43.45042" lon="5.8678">
        <ele>307.28</ele>
        <time>2019-05-12T09:26:56Z</time>
      </trkpt>
      <trkpt lat="43.45046" lon="5.86776">
        <ele>309.2</ele>
        <time>2019-05-12T09:26:57Z</time>
      </trkpt>
      <trkpt lat="43.45049" lon="5.86772">
        <ele>307.28</ele>
        <time>2019-05-12T09:26:58Z</time>
      </trkpt>
      <trkpt lat="43.45052" lon="5.86768">
        <ele>307.28</ele>
        <time>2019-05-12T09:26:59Z</time>
      </trkpt>
      <trkpt lat="43.45065" lon="5.8675">
        <ele>305.84</ele>
        <time>2019-05-12T09:27:03Z</time>
      </trkpt>
      <trkpt lat="43.45071" lon="5.86742">
        <ele>307.76</ele>
        <time>2019-05-12T09:27:05Z</time>
      </trkpt>
      <trkpt lat="43.4509" lon="5.86716">
        <ele>306.32</ele>
        <time>2019-05-12T09:27:11Z</time>
      </trkpt>
      <trkpt lat="43.45093" lon="5.86711">
        <ele>306.32</ele>
        <time>2019-05-12T09:27:12Z</time>
      </trkpt>
      <trkpt lat="43.45132" lon="5.8665">
        <ele>308.24</ele>
        <time>2019-05-12T09:27:25Z</time>
      </trkpt>
      <trkpt lat="43.45137" lon="5.86637">
        <ele>305.84</ele>
        <time>2019-05-12T09:27:28Z</time>
      </trkpt>
      <trkpt lat="43.45141" lon="5.86594">
        <ele>306.32</ele>
        <time>2019-05-12T09:27:37Z</time>
      </trkpt>
      <trkpt lat="43.45139" lon="5.8659">
        <ele>306.32</ele>
        <time>2019-05-12T09:27:38Z</time>
      </trkpt>
      <trkpt lat="43.45137" lon="5.86585">
        <ele>306.32</ele>
        <time>2019-05-12T09:27:39Z</time>
      </trkpt>
      <trkpt lat="43.45133" lon="5.86582">
        <ele>306.32</ele>
        <time>2019-05-12T09:27:40Z</time>
      </trkpt>
      <trkpt lat="43.45128" lon="5.86578">
        <ele>306.32</ele>
        <time>2019-05-12T09:27:41Z</time>
      </trkpt>
      <trkpt lat="43.45125" lon="5.86575">
        <ele>306.8</ele>
        <time>2019-05-12T09:27:42Z</time>
      </trkpt>
      <trkpt lat="43.4509" lon="5.86543">
        <ele>308.72</ele>
        <time>2019-05-12T09:27:52Z</time>
      </trkpt>
      <trkpt lat="43.45053" lon="5.86506">
        <ele>309.2</ele>
        <time>2019-05-12T09:28:05Z</time>
      </trkpt>
      <trkpt lat="43.45008" lon="5.86444">
        <ele>310.16</ele>
        <time>2019-05-12T09:28:19Z</time>
      </trkpt>
      <trkpt lat="43.44993" lon="5.86406">
        <ele>309.2</ele>
        <time>2019-05-12T09:28:26Z</time>
      </trkpt>
      <trkpt lat="43.4499" lon="5.86401">
        <ele>309.2</ele>
        <time>2019-05-12T09:28:27Z</time>
      </trkpt>
      <trkpt lat="43.44987" lon="5.86397">
        <ele>309.2</ele>
        <time>2019-05-12T09:28:28Z</time>
      </trkpt>
      <trkpt lat="43.44983" lon="5.86393">
        <ele>309.2</ele>
        <time>2019-05-12T09:28:29Z</time>
      </trkpt>
      <trkpt lat="43.44979" lon="5.86389">
        <ele>309.2</ele>
        <time>2019-05-12T09:28:30Z</time>
      </trkpt>
      <trkpt lat="43.4497" lon="5.86382">
        <ele>311.12</ele>
        <time>2019-05-12T09:28:32Z</time>
      </trkpt>
      <trkpt lat="43.4494" lon="5.8636">
        <ele>310.64</ele>
        <time>2019-05-12T09:28:39Z</time>
      </trkpt>
      <trkpt lat="43.44935" lon="5.86358">
        <ele>310.64</ele>
        <time>2019-05-12T09:28:40Z</time>
      </trkpt>
      <trkpt lat="43.44931" lon="5.86354">
        <ele>310.64</ele>
        <time>2019-05-12T09:28:41Z</time>
      </trkpt>
      <trkpt lat="43.44896" lon="5.86331">
        <ele>313.53</ele>
        <time>2019-05-12T09:28:50Z</time>
      </trkpt>
      <trkpt lat="43.44877" lon="5.86315">
        <ele>312.09</ele>
        <time>2019-05-12T09:28:56Z</time>
      </trkpt>
      <trkpt lat="43.44869" lon="5.86296">
        <ele>313.53</ele>
        <time>2019-05-12T09:29:02Z</time>
      </trkpt>
      <trkpt lat="43.44869" lon="5.86293">
        <ele>313.53</ele>
        <time>2019-05-12T09:29:03Z</time>
      </trkpt>
      <trkpt lat="43.4487" lon="5.8629">
        <ele>313.53</ele>
        <time>2019-05-12T09:29:04Z</time>
      </trkpt>
      <trkpt lat="43.4487" lon="5.86287">
        <ele>313.53</ele>
        <time>2019-05-12T09:29:05Z</time>
      </trkpt>
      <trkpt lat="43.44868" lon="5.86283">
        <ele>313.53</ele>
        <time>2019-05-12T09:29:06Z</time>
      </trkpt>
      <trkpt lat="43.44865" lon="5.8628">
        <ele>313.53</ele>
        <time>2019-05-12T09:29:07Z</time>
      </trkpt>
      <trkpt lat="43.44862" lon="5.86278">
        <ele>313.53</ele>
        <time>2019-05-12T09:29:08Z</time>
      </trkpt>
      <trkpt lat="43.44836" lon="5.86241">
        <ele>314.97</ele>
        <time>2019-05-12T09:29:19Z</time>
      </trkpt>
      <trkpt lat="43.44816" lon="5.86213">
        <ele>315.93</ele>
        <time>2019-05-12T09:29:27Z</time>
      </trkpt>
      <trkpt lat="43.44816" lon="5.86208">
        <ele>316.41</ele>
        <time>2019-05-12T09:29:28Z</time>
      </trkpt>
      <trkpt lat="43.44817" lon="5.86204">
        <ele>316.41</ele>
        <time>2019-05-12T09:29:29Z</time>
      </trkpt>
      <trkpt lat="43.44819" lon="5.862">
        <ele>316.41</ele>
        <time>2019-05-12T09:29:30Z</time>
      </trkpt>
      <trkpt lat="43.44821" lon="5.86197">
        <ele>316.89</ele>
        <time>2019-05-12T09:29:31Z</time>
      </trkpt>
      <trkpt lat="43.44856" lon="5.86124">
        <ele>317.85</ele>
        <time>2019-05-12T09:29:48Z</time>
      </trkpt>
      <trkpt lat="43.44858" lon="5.86118">
        <ele>317.85</ele>
        <time>2019-05-12T09:29:49Z</time>
      </trkpt>
      <trkpt lat="43.44858" lon="5.86111">
        <ele>317.85</ele>
        <time>2019-05-12T09:29:50Z</time>
      </trkpt>
      <trkpt lat="43.44858" lon="5.86104">
        <ele>317.85</ele>
        <time>2019-05-12T09:29:51Z</time>
      </trkpt>
      <trkpt lat="43.44856" lon="5.86098">
        <ele>315.93</ele>
        <time>2019-05-12T09:29:52Z</time>
      </trkpt>
      <trkpt lat="43.44853" lon="5.86093">
        <ele>315.93</ele>
        <time>2019-05-12T09:29:53Z</time>
      </trkpt>
      <trkpt lat="43.44849" lon="5.86089">
        <ele>315.93</ele>
        <time>2019-05-12T09:29:54Z</time>
      </trkpt>
      <trkpt lat="43.44845" lon="5.86086">
        <ele>315.93</ele>
        <time>2019-05-12T09:29:55Z</time>
      </trkpt>
      <trkpt lat="43.4484" lon="5.86084">
        <ele>315.93</ele>
        <time>2019-05-12T09:29:56Z</time>
      </trkpt>
      <trkpt lat="43.44836" lon="5.86082">
        <ele>315.93</ele>
        <time>2019-05-12T09:29:57Z</time>
      </trkpt>
      <trkpt lat="43.44821" lon="5.86075">
        <ele>315.93</ele>
        <time>2019-05-12T09:30:01Z</time>
      </trkpt>
      <trkpt lat="43.44817" lon="5.86074">
        <ele>315.93</ele>
        <time>2019-05-12T09:30:02Z</time>
      </trkpt>
      <trkpt lat="43.44809" lon="5.86073">
        <ele>315.93</ele>
        <time>2019-05-12T09:30:04Z</time>
      </trkpt>
      <trkpt lat="43.44792" lon="5.86074">
        <ele>317.37</ele>
        <time>2019-05-12T09:30:08Z</time>
      </trkpt>
      <trkpt lat="43.44727" lon="5.86056">
        <ele>318.81</ele>
        <time>2019-05-12T09:30:25Z</time>
      </trkpt>
      <trkpt lat="43.44671" lon="5.86036">
        <ele>321.22</ele>
        <time>2019-05-12T09:30:42Z</time>
      </trkpt>
      <trkpt lat="43.44642" lon="5.8603">
        <ele>322.18</ele>
        <time>2019-05-12T09:30:51Z</time>
      </trkpt>
      <trkpt lat="43.44638" lon="5.86032">
        <ele>322.66</ele>
        <time>2019-05-12T09:30:52Z</time>
      </trkpt>
      <trkpt lat="43.44636" lon="5.86032">
        <ele>322.66</ele>
        <time>2019-05-12T09:30:53Z</time>
      </trkpt>
      <trkpt lat="43.44634" lon="5.86032">
        <ele>322.66</ele>
        <time>2019-05-12T09:30:54Z</time>
      </trkpt>
      <trkpt lat="43.44631" lon="5.86031">
        <ele>322.66</ele>
        <time>2019-05-12T09:30:55Z</time>
      </trkpt>
      <trkpt lat="43.44593" lon="5.86018">
        <ele>323.62</ele>
        <time>2019-05-12T09:31:07Z</time>
      </trkpt>
      <trkpt lat="43.4454" lon="5.86">
        <ele>325.54</ele>
        <time>2019-05-12T09:31:23Z</time>
      </trkpt>
      <trkpt lat="43.44466" lon="5.85971">
        <ele>327.95</ele>
        <time>2019-05-12T09:31:45Z</time>
      </trkpt>
      <trkpt lat="43.44427" lon="5.85972">
        <ele>329.39</ele>
        <time>2019-05-12T09:31:59Z</time>
      </trkpt>
      <trkpt lat="43.44405" lon="5.86029">
        <ele>329.39</ele>
        <time>2019-05-12T09:32:12Z</time>
      </trkpt>
      <trkpt lat="43.4438" lon="5.86113">
        <ele>331.31</ele>
        <time>2019-05-12T09:32:29Z</time>
      </trkpt>
      <trkpt lat="43.44345" lon="5.86161">
        <ele>334.2</ele>
        <time>2019-05-12T09:32:43Z</time>
      </trkpt>
      <trkpt lat="43.44297" lon="5.86199">
        <ele>336.6</ele>
        <time>2019-05-12T09:33:00Z</time>
      </trkpt>
      <trkpt lat="43.44283" lon="5.86204">
        <ele>335.16</ele>
        <time>2019-05-12T09:33:05Z</time>
      </trkpt>
      <trkpt lat="43.44229" lon="5.86223">
        <ele>337.08</ele>
        <time>2019-05-12T09:33:21Z</time>
      </trkpt>
      <trkpt lat="43.44165" lon="5.86249">
        <ele>336.6</ele>
        <time>2019-05-12T09:33:37Z</time>
      </trkpt>
      <trkpt lat="43.44094" lon="5.86276">
        <ele>339.48</ele>
        <time>2019-05-12T09:33:54Z</time>
      </trkpt>
      <trkpt lat="43.44047" lon="5.8629">
        <ele>339.48</ele>
        <time>2019-05-12T09:34:09Z</time>
      </trkpt>
      <trkpt lat="43.44044" lon="5.86287">
        <ele>339.48</ele>
        <time>2019-05-12T09:34:10Z</time>
      </trkpt>
      <trkpt lat="43.44041" lon="5.86283">
        <ele>340.44</ele>
        <time>2019-05-12T09:34:11Z</time>
      </trkpt>
      <trkpt lat="43.4404" lon="5.8628">
        <ele>340.44</ele>
        <time>2019-05-12T09:34:12Z</time>
      </trkpt>
      <trkpt lat="43.44039" lon="5.86276">
        <ele>340.92</ele>
        <time>2019-05-12T09:34:13Z</time>
      </trkpt>
      <trkpt lat="43.44039" lon="5.86272">
        <ele>341.41</ele>
        <time>2019-05-12T09:34:14Z</time>
      </trkpt>
      <trkpt lat="43.44039" lon="5.86269">
        <ele>341.41</ele>
        <time>2019-05-12T09:34:15Z</time>
      </trkpt>
      <trkpt lat="43.44038" lon="5.86265">
        <ele>341.41</ele>
        <time>2019-05-12T09:34:16Z</time>
      </trkpt>
      <trkpt lat="43.44035" lon="5.86224">
        <ele>344.77</ele>
        <time>2019-05-12T09:34:27Z</time>
      </trkpt>
      <trkpt lat="43.44028" lon="5.86169">
        <ele>347.17</ele>
        <time>2019-05-12T09:34:44Z</time>
      </trkpt>
      <trkpt lat="43.44027" lon="5.86165">
        <ele>347.17</ele>
        <time>2019-05-12T09:34:45Z</time>
      </trkpt>
      <trkpt lat="43.44024" lon="5.86163">
        <ele>347.17</ele>
        <time>2019-05-12T09:34:46Z</time>
      </trkpt>
      <trkpt lat="43.44023" lon="5.86162">
        <ele>347.17</ele>
        <time>2019-05-12T09:34:47Z</time>
      </trkpt>
      <trkpt lat="43.44021" lon="5.86162">
        <ele>347.17</ele>
        <time>2019-05-12T09:34:48Z</time>
      </trkpt>
      <trkpt lat="43.44019" lon="5.86162">
        <ele>347.17</ele>
        <time>2019-05-12T09:34:49Z</time>
      </trkpt>
      <trkpt lat="43.44017" lon="5.86162">
        <ele>347.17</ele>
        <time>2019-05-12T09:34:50Z</time>
      </trkpt>
      <trkpt lat="43.44004" lon="5.8616">
        <ele>347.17</ele>
        <time>2019-05-12T09:34:56Z</time>
      </trkpt>
      <trkpt lat="43.44003" lon="5.86158">
        <ele>347.65</ele>
        <time>2019-05-12T09:34:57Z</time>
      </trkpt>
      <trkpt lat="43.44" lon="5.86153">
        <ele>347.65</ele>
        <time>2019-05-12T09:34:59Z</time>
      </trkpt>
      <trkpt lat="43.43981" lon="5.86102">
        <ele>350.54</ele>
        <time>2019-05-12T09:35:16Z</time>
      </trkpt>
      <trkpt lat="43.43979" lon="5.86094">
        <ele>349.1</ele>
        <time>2019-05-12T09:35:19Z</time>
      </trkpt>
      <trkpt lat="43.43971" lon="5.86074">
        <ele>350.54</ele>
        <time>2019-05-12T09:35:26Z</time>
      </trkpt>
      <trkpt lat="43.43971" lon="5.86071">
        <ele>350.54</ele>
        <time>2019-05-12T09:35:27Z</time>
      </trkpt>
      <trkpt lat="43.43972" lon="5.8607">
        <ele>350.54</ele>
        <time>2019-05-12T09:35:28Z</time>
      </trkpt>
      <trkpt lat="43.43978" lon="5.86052">
        <ele>351.98</ele>
        <time>2019-05-12T09:35:37Z</time>
      </trkpt>
      <trkpt lat="43.43978" lon="5.86045">
        <ele>343.81</ele>
        <time>2019-05-12T09:35:44Z</time>
      </trkpt>
      <trkpt lat="43.43977" lon="5.8604">
        <ele>354.86</ele>
        <time>2019-05-12T09:35:45Z</time>
      </trkpt>
      <trkpt lat="43.43976" lon="5.86038">
        <ele>350.06</ele>
        <time>2019-05-12T09:35:47Z</time>
      </trkpt>
      <trkpt lat="43.43976" lon="5.86036">
        <ele>350.06</ele>
        <time>2019-05-12T09:35:48Z</time>
      </trkpt>
      <trkpt lat="43.43975" lon="5.86032">
        <ele>351.5</ele>
        <time>2019-05-12T09:35:55Z</time>
      </trkpt>
      <trkpt lat="43.43973" lon="5.86029">
        <ele>350.06</ele>
        <time>2019-05-12T09:36:12Z</time>
      </trkpt>
      <trkpt lat="43.43972" lon="5.86029">
        <ele>351.5</ele>
        <time>2019-05-12T09:36:17Z</time>
      </trkpt>
      <trkpt lat="43.43972" lon="5.86028">
        <ele>349.58</ele>
        <time>2019-05-12T09:36:25Z</time>
      </trkpt>
      <trkpt lat="43.43973" lon="5.86026">
        <ele>351.5</ele>
        <time>2019-05-12T09:37:05Z</time>
      </trkpt>
      <trkpt lat="43.43972" lon="5.86028">
        <ele>351.5</ele>
        <time>2019-05-12T09:37:45Z</time>
      </trkpt>
      <trkpt lat="43.43972" lon="5.86029">
        <ele>351.02</ele>
        <time>2019-05-12T09:37:53Z</time>
      </trkpt>
      <trkpt lat="43.43972" lon="5.86029">
        <ele>351.5</ele>
        <time>2019-05-12T09:38:02Z</time>
      </trkpt>
      <trkpt lat="43.43969" lon="5.86027">
        <ele>352.46</ele>
        <time>2019-05-12T09:38:30Z</time>
      </trkpt>
      <trkpt lat="43.43969" lon="5.86026">
        <ele>352.94</ele>
        <time>2019-05-12T09:38:50Z</time>
      </trkpt>
      <trkpt lat="43.43969" lon="5.86025">
        <ele>353.42</ele>
        <time>2019-05-12T09:39:13Z</time>
      </trkpt>
    </trkseg>
  </trk>
</gpx>